<?xml version="1.0" encoding="UTF-8" standalone="no" ?>
<gpx xmlns="http://www.topografix.com/GPX/1/1" xmlns:xsi="http://www.w3.org/2001/XMLSchema-instance" xsi:schemaLocation="http://www.topografix.com/GPX/1/1 http://www.topografix.com/GPX/1/1/gpx.xsd" version="1.1" creator="VisuGPX - https://www.visugpx.com">
  <metadata>
    <name>Lièpvre - Riquewihr (Alsace)</name>
    <desc><![CDATA[Chemin pédestre des abolitions de l'esclavage & des droits de l'homme : étape 5 ]]></desc>
  </metadata>
  <wpt lat="48.2369" lon="7.26693">
    <ele>947.3</ele>
    <name><![CDATA[Abri du Taennschel]]></name>
    <type><![CDATA[sommet]]></type>
  </wpt>
  <wpt lat="48.2152" lon="7.29587">
    <ele>650.2</ele>
    <name><![CDATA[carrefour cerisier noir]]></name>
  </wpt>
  <wpt lat="48.24429" lon="7.28175">
    <ele>735.3</ele>
    <name><![CDATA[Carrefour de Rotzel]]></name>
  </wpt>
  <wpt lat="48.21485" lon="7.28969">
    <ele>715.8</ele>
    <name><![CDATA[Carrefour Hasenclever]]></name>
  </wpt>
  <wpt lat="48.20339" lon="7.30732">
    <ele>520.5</ele>
    <name><![CDATA[Château de Girsberg]]></name>
    <type><![CDATA[patrimoine]]></type>
  </wpt>
  <wpt lat="48.20329" lon="7.30535">
    <ele>509.4</ele>
    <name><![CDATA[Château St Ulrich]]></name>
    <type><![CDATA[patrimoine]]></type>
  </wpt>
  <wpt lat="48.17866" lon="7.31079">
    <ele>276.6</ele>
    <name><![CDATA[Eglise fortifiée de Hunawihr]]></name>
  </wpt>
  <wpt lat="48.19469" lon="7.31936">
    <ele>251.9</ele>
    <name><![CDATA[Ribeauvillé]]></name>
    <type><![CDATA[hebergement]]></type>
  </wpt>
  <wpt lat="48.1671" lon="7.2981">
    <ele>303.1</ele>
    <name><![CDATA[Riquewihr]]></name>
    <type><![CDATA[patrimoine]]></type>
  </wpt>
  <wpt lat="48.20601" lon="7.30547">
    <ele>630.6</ele>
    <name><![CDATA[Ruines Château Ribeaupierre]]></name>
    <type><![CDATA[patrimoine]]></type>
  </wpt>
  <wpt lat="48.26991" lon="7.26575">
    <ele>289.3</ele>
    <name><![CDATA[Liepvre]]></name>
    <type><![CDATA[hebergement]]></type>
  </wpt>
  <wpt lat="48.19417" lon="7.32203">
    <ele>248.9</ele>
    <type><![CDATA[restaurant]]></type>
  </wpt>
  <wpt lat="48.16601" lon="7.30623">
    <ele>269.5</ele>
    <name><![CDATA[Hotel le riquewihr]]></name>
    <type><![CDATA[hebergement]]></type>
  </wpt>
  <trk>
    <name><![CDATA[20190315205321-u6z7d]]></name>
    <trkseg>
      <trkpt lat="48.26929" lon="7.26554">
        <ele>280.1445313</ele>
        <time>2012-02-11T07:37:56Z</time>
      </trkpt>
      <trkpt lat="48.26929" lon="7.26554">
        <ele>280.1445313</ele>
        <time>2012-02-11T07:38:20Z</time>
      </trkpt>
      <trkpt lat="48.26934" lon="7.26643">
        <ele>279.5351563</ele>
        <time>2012-02-11T07:38:47Z</time>
      </trkpt>
      <trkpt lat="48.26941" lon="7.26716">
        <ele>279.5078125</ele>
        <time>2012-02-11T07:39:15Z</time>
      </trkpt>
      <trkpt lat="48.26942" lon="7.26719">
        <ele>280.3616943</ele>
        <time>2012-02-11T07:39:33Z</time>
      </trkpt>
      <trkpt lat="48.26943" lon="7.26755">
        <ele>280.8424072</ele>
        <time>2012-02-11T07:39:47Z</time>
      </trkpt>
      <trkpt lat="48.26951" lon="7.26794">
        <ele>279.4002686</ele>
        <time>2012-02-11T07:40:15Z</time>
      </trkpt>
      <trkpt lat="48.26952" lon="7.26849">
        <ele>279.4002686</ele>
        <time>2012-02-11T07:40:36Z</time>
      </trkpt>
      <trkpt lat="48.26956" lon="7.26879">
        <ele>278.9196777</ele>
        <time>2012-02-11T07:41:05Z</time>
      </trkpt>
      <trkpt lat="48.26958" lon="7.26903">
        <ele>278.9196777</ele>
        <time>2012-02-11T07:41:25Z</time>
      </trkpt>
      <trkpt lat="48.26963" lon="7.26953">
        <ele>278.4389648</ele>
        <time>2012-02-11T07:41:49Z</time>
      </trkpt>
      <trkpt lat="48.26971" lon="7.26995">
        <ele>276.9970703</ele>
        <time>2012-02-11T07:42:14Z</time>
      </trkpt>
      <trkpt lat="48.26978" lon="7.27055">
        <ele>276.5163574</ele>
        <time>2012-02-11T07:42:30Z</time>
      </trkpt>
      <trkpt lat="48.26985" lon="7.27094">
        <ele>276.0356445</ele>
        <time>2012-02-11T07:42:35Z</time>
      </trkpt>
      <trkpt lat="48.26991" lon="7.27143">
        <ele>275.0744629</ele>
        <time>2012-02-11T07:42:52Z</time>
      </trkpt>
      <trkpt lat="48.26999" lon="7.27191">
        <ele>275.0744629</ele>
        <time>2012-02-11T07:42:56Z</time>
      </trkpt>
      <trkpt lat="48.27002" lon="7.27223">
        <ele>274.1130371</ele>
        <time>2012-02-11T07:43:15Z</time>
      </trkpt>
      <trkpt lat="48.27002" lon="7.27233">
        <ele>274.59375</ele>
        <time>2012-02-11T07:43:27Z</time>
      </trkpt>
      <trkpt lat="48.27007" lon="7.27261">
        <ele>273.6324463</ele>
        <time>2012-02-11T07:43:52Z</time>
      </trkpt>
      <trkpt lat="48.27011" lon="7.27266">
        <ele>274.1130371</ele>
        <time>2012-02-11T07:44:19Z</time>
      </trkpt>
      <trkpt lat="48.27018" lon="7.27299">
        <ele>273.1518555</ele>
        <time>2012-02-11T07:44:47Z</time>
      </trkpt>
      <trkpt lat="48.27018" lon="7.27323">
        <ele>273.6324463</ele>
        <time>2012-02-11T07:45:12Z</time>
      </trkpt>
      <trkpt lat="48.27024" lon="7.27373">
        <ele>273.6324463</ele>
        <time>2012-02-11T07:45:36Z</time>
      </trkpt>
      <trkpt lat="48.27033" lon="7.27419">
        <ele>273.6324463</ele>
        <time>2012-02-11T07:46:04Z</time>
      </trkpt>
      <trkpt lat="48.2704" lon="7.27471">
        <ele>273.1518555</ele>
        <time>2012-02-11T07:46:31Z</time>
      </trkpt>
      <trkpt lat="48.2704" lon="7.27523">
        <ele>273.6324463</ele>
        <time>2012-02-11T07:46:36Z</time>
      </trkpt>
      <trkpt lat="48.27042" lon="7.2757">
        <ele>271.7097168</ele>
        <time>2012-02-11T07:46:39Z</time>
      </trkpt>
      <trkpt lat="48.27045" lon="7.27629">
        <ele>270.7484131</ele>
        <time>2012-02-11T07:46:46Z</time>
      </trkpt>
      <trkpt lat="48.27049" lon="7.27685">
        <ele>270.2677002</ele>
        <time>2012-02-11T07:47:00Z</time>
      </trkpt>
      <trkpt lat="48.27051" lon="7.27692">
        <ele>270.2677002</ele>
        <time>2012-02-11T07:47:11Z</time>
      </trkpt>
      <trkpt lat="48.27055" lon="7.27697">
        <ele>270.7484131</ele>
        <time>2012-02-11T07:47:25Z</time>
      </trkpt>
      <trkpt lat="48.27055" lon="7.27712">
        <ele>271.229126</ele>
        <time>2012-02-11T07:47:40Z</time>
      </trkpt>
      <trkpt lat="48.27067" lon="7.27734">
        <ele>270.2677002</ele>
        <time>2012-02-11T07:47:55Z</time>
      </trkpt>
      <trkpt lat="48.2706" lon="7.27757">
        <ele>269.7871094</ele>
        <time>2012-02-11T07:48:01Z</time>
      </trkpt>
      <trkpt lat="48.27062" lon="7.27777">
        <ele>269.7871094</ele>
        <time>2012-02-11T07:48:15Z</time>
      </trkpt>
      <trkpt lat="48.27062" lon="7.27819">
        <ele>270.2677002</ele>
        <time>2012-02-11T07:48:29Z</time>
      </trkpt>
      <trkpt lat="48.27065" lon="7.27845">
        <ele>269.3065186</ele>
        <time>2012-02-11T07:48:48Z</time>
      </trkpt>
      <trkpt lat="48.27066" lon="7.27855">
        <ele>269.3065186</ele>
        <time>2012-02-11T07:48:56Z</time>
      </trkpt>
      <trkpt lat="48.27067" lon="7.27881">
        <ele>269.3065186</ele>
        <time>2012-02-11T07:49:00Z</time>
      </trkpt>
      <trkpt lat="48.27071" lon="7.27906">
        <ele>269.7871094</ele>
        <time>2012-02-11T07:49:04Z</time>
      </trkpt>
      <trkpt lat="48.27073" lon="7.27949">
        <ele>269.3065186</ele>
        <time>2012-02-11T07:49:09Z</time>
      </trkpt>
      <trkpt lat="48.27074" lon="7.27964">
        <ele>269.3065186</ele>
        <time>2012-02-11T07:49:27Z</time>
      </trkpt>
      <trkpt lat="48.27073" lon="7.27971">
        <ele>269.3065186</ele>
        <time>2012-02-11T07:49:42Z</time>
      </trkpt>
      <trkpt lat="48.27074" lon="7.27978">
        <ele>269.7871094</ele>
        <time>2012-02-11T07:49:44Z</time>
      </trkpt>
      <trkpt lat="48.27076" lon="7.27984">
        <ele>269.7871094</ele>
        <time>2012-02-11T07:50:03Z</time>
      </trkpt>
      <trkpt lat="48.27073" lon="7.28031">
        <ele>268.3450928</ele>
        <time>2012-02-11T07:50:25Z</time>
      </trkpt>
      <trkpt lat="48.27078" lon="7.2806">
        <ele>267.864502</ele>
        <time>2012-02-11T07:50:43Z</time>
      </trkpt>
      <trkpt lat="48.27078" lon="7.28064">
        <ele>268.8258057</ele>
        <time>2012-02-11T07:51:05Z</time>
      </trkpt>
      <trkpt lat="48.27081" lon="7.28104">
        <ele>269.3065186</ele>
        <time>2012-02-11T07:51:18Z</time>
      </trkpt>
      <trkpt lat="48.27081" lon="7.28137">
        <ele>269.7871094</ele>
        <time>2012-02-11T07:51:35Z</time>
      </trkpt>
      <trkpt lat="48.27079" lon="7.28135">
        <ele>269.7871094</ele>
        <time>2012-02-11T07:51:39Z</time>
      </trkpt>
      <trkpt lat="48.27063" lon="7.28138">
        <ele>269.3065186</ele>
        <time>2012-02-11T07:51:47Z</time>
      </trkpt>
      <trkpt lat="48.27053" lon="7.28136">
        <ele>270.2677002</ele>
        <time>2012-02-11T07:51:50Z</time>
      </trkpt>
      <trkpt lat="48.27037" lon="7.28145">
        <ele>270.2677002</ele>
        <time>2012-02-11T07:52:03Z</time>
      </trkpt>
      <trkpt lat="48.27033" lon="7.28149">
        <ele>269.7871094</ele>
        <time>2012-02-11T07:52:06Z</time>
      </trkpt>
      <trkpt lat="48.27029" lon="7.28159">
        <ele>269.7871094</ele>
        <time>2012-02-11T07:52:14Z</time>
      </trkpt>
      <trkpt lat="48.2703" lon="7.28166">
        <ele>268.8258057</ele>
        <time>2012-02-11T07:52:20Z</time>
      </trkpt>
      <trkpt lat="48.27023" lon="7.28178">
        <ele>268.8258057</ele>
        <time>2012-02-11T07:52:26Z</time>
      </trkpt>
      <trkpt lat="48.27024" lon="7.28182">
        <ele>268.8258057</ele>
        <time>2012-02-11T07:52:34Z</time>
      </trkpt>
      <trkpt lat="48.27018" lon="7.28195">
        <ele>268.8258057</ele>
        <time>2012-02-11T07:52:41Z</time>
      </trkpt>
      <trkpt lat="48.27012" lon="7.282">
        <ele>269.3065186</ele>
        <time>2012-02-11T07:53:01Z</time>
      </trkpt>
      <trkpt lat="48.27005" lon="7.28205">
        <ele>269.7871094</ele>
        <time>2012-02-11T07:53:19Z</time>
      </trkpt>
      <trkpt lat="48.26994" lon="7.28217">
        <ele>270.2677002</ele>
        <time>2012-02-11T07:53:36Z</time>
      </trkpt>
      <trkpt lat="48.26984" lon="7.28222">
        <ele>270.2677002</ele>
        <time>2012-02-11T07:53:49Z</time>
      </trkpt>
      <trkpt lat="48.26976" lon="7.28256">
        <ele>272.1904297</ele>
        <time>2012-02-11T07:53:51Z</time>
      </trkpt>
      <trkpt lat="48.26968" lon="7.28285">
        <ele>272.1904297</ele>
        <time>2012-02-11T07:54:02Z</time>
      </trkpt>
      <trkpt lat="48.26961" lon="7.28304">
        <ele>273.6324463</ele>
        <time>2012-02-11T07:54:23Z</time>
      </trkpt>
      <trkpt lat="48.26951" lon="7.28328">
        <ele>274.59375</ele>
        <time>2012-02-11T07:54:43Z</time>
      </trkpt>
      <trkpt lat="48.26949" lon="7.28331">
        <ele>274.1130371</ele>
        <time>2012-02-11T07:55:00Z</time>
      </trkpt>
      <trkpt lat="48.26933" lon="7.28341">
        <ele>275.0744629</ele>
        <time>2012-02-11T07:55:16Z</time>
      </trkpt>
      <trkpt lat="48.26906" lon="7.28346">
        <ele>275.5550537</ele>
        <time>2012-02-11T07:55:20Z</time>
      </trkpt>
      <trkpt lat="48.26878" lon="7.28338">
        <ele>276.9970703</ele>
        <time>2012-02-11T07:55:37Z</time>
      </trkpt>
      <trkpt lat="48.26863" lon="7.28336">
        <ele>277.4776611</ele>
        <time>2012-02-11T07:55:46Z</time>
      </trkpt>
      <trkpt lat="48.26854" lon="7.28338">
        <ele>277.4776611</ele>
        <time>2012-02-11T07:55:55Z</time>
      </trkpt>
      <trkpt lat="48.26841" lon="7.28338">
        <ele>278.4389648</ele>
        <time>2012-02-11T07:56:00Z</time>
      </trkpt>
      <trkpt lat="48.26817" lon="7.28335">
        <ele>281.322998</ele>
        <time>2012-02-11T07:56:13Z</time>
      </trkpt>
      <trkpt lat="48.26808" lon="7.28333">
        <ele>282.7650146</ele>
        <time>2012-02-11T07:56:33Z</time>
      </trkpt>
      <trkpt lat="48.26798" lon="7.28328">
        <ele>283.7261963</ele>
        <time>2012-02-11T07:56:36Z</time>
      </trkpt>
      <trkpt lat="48.26792" lon="7.28324">
        <ele>283.7261963</ele>
        <time>2012-02-11T07:56:42Z</time>
      </trkpt>
      <trkpt lat="48.26781" lon="7.2832">
        <ele>285.6488037</ele>
        <time>2012-02-11T07:56:56Z</time>
      </trkpt>
      <trkpt lat="48.26764" lon="7.28312">
        <ele>287.5714111</ele>
        <time>2012-02-11T07:57:15Z</time>
      </trkpt>
      <trkpt lat="48.26761" lon="7.2831">
        <ele>287.5714111</ele>
        <time>2012-02-11T07:57:35Z</time>
      </trkpt>
      <trkpt lat="48.26755" lon="7.28306">
        <ele>288.532959</ele>
        <time>2012-02-11T07:57:53Z</time>
      </trkpt>
      <trkpt lat="48.2674" lon="7.28296">
        <ele>290.4555664</ele>
        <time>2012-02-11T07:58:02Z</time>
      </trkpt>
      <trkpt lat="48.26717" lon="7.28277">
        <ele>291.416748</ele>
        <time>2012-02-11T07:58:19Z</time>
      </trkpt>
      <trkpt lat="48.26695" lon="7.28264">
        <ele>293.3393555</ele>
        <time>2012-02-11T07:58:40Z</time>
      </trkpt>
      <trkpt lat="48.26675" lon="7.28249">
        <ele>295.7426758</ele>
        <time>2012-02-11T07:58:45Z</time>
      </trkpt>
      <trkpt lat="48.26666" lon="7.28242">
        <ele>296.2235107</ele>
        <time>2012-02-11T07:59:05Z</time>
      </trkpt>
      <trkpt lat="48.26649" lon="7.28234">
        <ele>297.6654053</ele>
        <time>2012-02-11T07:59:27Z</time>
      </trkpt>
      <trkpt lat="48.26633" lon="7.28222">
        <ele>299.1072998</ele>
        <time>2012-02-11T07:59:49Z</time>
      </trkpt>
      <trkpt lat="48.26631" lon="7.2822">
        <ele>301.0299072</ele>
        <time>2012-02-11T08:00:06Z</time>
      </trkpt>
      <trkpt lat="48.26622" lon="7.28225">
        <ele>301.0299072</ele>
        <time>2012-02-11T08:00:18Z</time>
      </trkpt>
      <trkpt lat="48.26607" lon="7.28219">
        <ele>301.0299072</ele>
        <time>2012-02-11T08:00:45Z</time>
      </trkpt>
      <trkpt lat="48.26584" lon="7.28205">
        <ele>303.4332275</ele>
        <time>2012-02-11T08:01:03Z</time>
      </trkpt>
      <trkpt lat="48.26568" lon="7.28197">
        <ele>305.355957</ele>
        <time>2012-02-11T08:01:22Z</time>
      </trkpt>
      <trkpt lat="48.26556" lon="7.28194">
        <ele>306.3172607</ele>
        <time>2012-02-11T08:01:36Z</time>
      </trkpt>
      <trkpt lat="48.26526" lon="7.28184">
        <ele>308.720459</ele>
        <time>2012-02-11T08:01:54Z</time>
      </trkpt>
      <trkpt lat="48.26517" lon="7.28186">
        <ele>310.1624756</ele>
        <time>2012-02-11T08:02:13Z</time>
      </trkpt>
      <trkpt lat="48.26501" lon="7.28189">
        <ele>311.6044922</ele>
        <time>2012-02-11T08:02:34Z</time>
      </trkpt>
      <trkpt lat="48.26496" lon="7.28195">
        <ele>312.0852051</ele>
        <time>2012-02-11T08:02:44Z</time>
      </trkpt>
      <trkpt lat="48.2649" lon="7.28192">
        <ele>312.5657959</ele>
        <time>2012-02-11T08:02:57Z</time>
      </trkpt>
      <trkpt lat="48.26473" lon="7.28178">
        <ele>315.9304199</ele>
        <time>2012-02-11T08:03:12Z</time>
      </trkpt>
      <trkpt lat="48.26458" lon="7.28177">
        <ele>318.8143311</ele>
        <time>2012-02-11T08:03:32Z</time>
      </trkpt>
      <trkpt lat="48.26455" lon="7.28176">
        <ele>319.2950439</ele>
        <time>2012-02-11T08:03:44Z</time>
      </trkpt>
      <trkpt lat="48.26445" lon="7.28178">
        <ele>320.7370605</ele>
        <time>2012-02-11T08:04:00Z</time>
      </trkpt>
      <trkpt lat="48.26432" lon="7.28183">
        <ele>322.659668</ele>
        <time>2012-02-11T08:04:11Z</time>
      </trkpt>
      <trkpt lat="48.26414" lon="7.28185">
        <ele>326.0241699</ele>
        <time>2012-02-11T08:04:29Z</time>
      </trkpt>
      <trkpt lat="48.26405" lon="7.28185">
        <ele>326.9855957</ele>
        <time>2012-02-11T08:04:41Z</time>
      </trkpt>
      <trkpt lat="48.26392" lon="7.28186">
        <ele>329.388916</ele>
        <time>2012-02-11T08:04:52Z</time>
      </trkpt>
      <trkpt lat="48.26384" lon="7.28189">
        <ele>330.8309326</ele>
        <time>2012-02-11T08:05:11Z</time>
      </trkpt>
      <trkpt lat="48.26368" lon="7.28194">
        <ele>333.2341309</ele>
        <time>2012-02-11T08:05:15Z</time>
      </trkpt>
      <trkpt lat="48.26359" lon="7.28195">
        <ele>334.1954346</ele>
        <time>2012-02-11T08:05:19Z</time>
      </trkpt>
      <trkpt lat="48.26351" lon="7.28203">
        <ele>335.6373291</ele>
        <time>2012-02-11T08:05:22Z</time>
      </trkpt>
      <trkpt lat="48.26335" lon="7.28205">
        <ele>337.5600586</ele>
        <time>2012-02-11T08:05:36Z</time>
      </trkpt>
      <trkpt lat="48.26331" lon="7.28206">
        <ele>338.0407715</ele>
        <time>2012-02-11T08:06:00Z</time>
      </trkpt>
      <trkpt lat="48.26326" lon="7.28205">
        <ele>338.0407715</ele>
        <time>2012-02-11T08:06:19Z</time>
      </trkpt>
      <trkpt lat="48.26324" lon="7.28206">
        <ele>338.5214844</ele>
        <time>2012-02-11T08:06:48Z</time>
      </trkpt>
      <trkpt lat="48.26319" lon="7.28208">
        <ele>339.0020752</ele>
        <time>2012-02-11T08:07:13Z</time>
      </trkpt>
      <trkpt lat="48.26339" lon="7.28192">
        <ele>341.8859863</ele>
        <time>2012-02-11T08:07:34Z</time>
      </trkpt>
      <trkpt lat="48.2635" lon="7.28182">
        <ele>342.84729</ele>
        <time>2012-02-11T08:07:53Z</time>
      </trkpt>
      <trkpt lat="48.2637" lon="7.28158">
        <ele>346.2120361</ele>
        <time>2012-02-11T08:08:12Z</time>
      </trkpt>
      <trkpt lat="48.26387" lon="7.28137">
        <ele>348.6152344</ele>
        <time>2012-02-11T08:08:32Z</time>
      </trkpt>
      <trkpt lat="48.26403" lon="7.28117">
        <ele>351.9798584</ele>
        <time>2012-02-11T08:08:52Z</time>
      </trkpt>
      <trkpt lat="48.26413" lon="7.2811">
        <ele>354.3831787</ele>
        <time>2012-02-11T08:09:13Z</time>
      </trkpt>
      <trkpt lat="48.26422" lon="7.28102">
        <ele>356.3057861</ele>
        <time>2012-02-11T08:09:32Z</time>
      </trkpt>
      <trkpt lat="48.26434" lon="7.28096">
        <ele>359.6704102</ele>
        <time>2012-02-11T08:09:52Z</time>
      </trkpt>
      <trkpt lat="48.26451" lon="7.28092">
        <ele>360.6317139</ele>
        <time>2012-02-11T08:10:08Z</time>
      </trkpt>
      <trkpt lat="48.26468" lon="7.2808">
        <ele>362.5543213</ele>
        <time>2012-02-11T08:10:17Z</time>
      </trkpt>
      <trkpt lat="48.26481" lon="7.28073">
        <ele>365.9189453</ele>
        <time>2012-02-11T08:10:28Z</time>
      </trkpt>
      <trkpt lat="48.26474" lon="7.28069">
        <ele>368.3222656</ele>
        <time>2012-02-11T08:10:49Z</time>
      </trkpt>
      <trkpt lat="48.26462" lon="7.28067">
        <ele>369.7642822</ele>
        <time>2012-02-11T08:11:02Z</time>
      </trkpt>
      <trkpt lat="48.26455" lon="7.28071">
        <ele>370.7255859</ele>
        <time>2012-02-11T08:11:08Z</time>
      </trkpt>
      <trkpt lat="48.26445" lon="7.28073">
        <ele>371.2062988</ele>
        <time>2012-02-11T08:11:12Z</time>
      </trkpt>
      <trkpt lat="48.26429" lon="7.28074">
        <ele>372.1674805</ele>
        <time>2012-02-11T08:11:26Z</time>
      </trkpt>
      <trkpt lat="48.26416" lon="7.28075">
        <ele>373.1289063</ele>
        <time>2012-02-11T08:11:36Z</time>
      </trkpt>
      <trkpt lat="48.26415" lon="7.28074">
        <ele>372.6481934</ele>
        <time>2012-02-11T08:11:51Z</time>
      </trkpt>
      <trkpt lat="48.2641" lon="7.28076">
        <ele>372.1674805</ele>
        <time>2012-02-11T08:11:53Z</time>
      </trkpt>
      <trkpt lat="48.26396" lon="7.28081">
        <ele>373.1289063</ele>
        <time>2012-02-11T08:12:06Z</time>
      </trkpt>
      <trkpt lat="48.26383" lon="7.28089">
        <ele>373.1289063</ele>
        <time>2012-02-11T08:12:12Z</time>
      </trkpt>
      <trkpt lat="48.26369" lon="7.28096">
        <ele>374.5708008</ele>
        <time>2012-02-11T08:12:16Z</time>
      </trkpt>
      <trkpt lat="48.26367" lon="7.28099">
        <ele>374.5708008</ele>
        <time>2012-02-11T08:12:30Z</time>
      </trkpt>
      <trkpt lat="48.26355" lon="7.28109">
        <ele>375.5321045</ele>
        <time>2012-02-11T08:12:32Z</time>
      </trkpt>
      <trkpt lat="48.26351" lon="7.28112">
        <ele>376.9742432</ele>
        <time>2012-02-11T08:12:48Z</time>
      </trkpt>
      <trkpt lat="48.26348" lon="7.28114">
        <ele>376.9742432</ele>
        <time>2012-02-11T08:13:05Z</time>
      </trkpt>
      <trkpt lat="48.26338" lon="7.28116">
        <ele>378.4161377</ele>
        <time>2012-02-11T08:13:24Z</time>
      </trkpt>
      <trkpt lat="48.26336" lon="7.28118">
        <ele>379.3774414</ele>
        <time>2012-02-11T08:13:39Z</time>
      </trkpt>
      <trkpt lat="48.26322" lon="7.28121">
        <ele>380.3387451</ele>
        <time>2012-02-11T08:13:43Z</time>
      </trkpt>
      <trkpt lat="48.26309" lon="7.28113">
        <ele>382.2613525</ele>
        <time>2012-02-11T08:13:57Z</time>
      </trkpt>
      <trkpt lat="48.26296" lon="7.28106">
        <ele>385.1453857</ele>
        <time>2012-02-11T08:14:07Z</time>
      </trkpt>
      <trkpt lat="48.2628" lon="7.281">
        <ele>386.5874023</ele>
        <time>2012-02-11T08:14:22Z</time>
      </trkpt>
      <trkpt lat="48.26277" lon="7.28099">
        <ele>386.5874023</ele>
        <time>2012-02-11T08:14:39Z</time>
      </trkpt>
      <trkpt lat="48.26266" lon="7.28094">
        <ele>387.548584</ele>
        <time>2012-02-11T08:14:41Z</time>
      </trkpt>
      <trkpt lat="48.26255" lon="7.28087">
        <ele>388.5100098</ele>
        <time>2012-02-11T08:14:56Z</time>
      </trkpt>
      <trkpt lat="48.26248" lon="7.28083">
        <ele>390.4326172</ele>
        <time>2012-02-11T08:15:13Z</time>
      </trkpt>
      <trkpt lat="48.26234" lon="7.28085">
        <ele>392.3553467</ele>
        <time>2012-02-11T08:15:27Z</time>
      </trkpt>
      <trkpt lat="48.26232" lon="7.28086">
        <ele>392.8359375</ele>
        <time>2012-02-11T08:15:32Z</time>
      </trkpt>
      <trkpt lat="48.26221" lon="7.28093">
        <ele>394.2779541</ele>
        <time>2012-02-11T08:15:40Z</time>
      </trkpt>
      <trkpt lat="48.2621" lon="7.28102">
        <ele>396.2005615</ele>
        <time>2012-02-11T08:15:50Z</time>
      </trkpt>
      <trkpt lat="48.26201" lon="7.28112">
        <ele>397.6424561</ele>
        <time>2012-02-11T08:16:05Z</time>
      </trkpt>
      <trkpt lat="48.26197" lon="7.28118">
        <ele>398.6037598</ele>
        <time>2012-02-11T08:16:20Z</time>
      </trkpt>
      <trkpt lat="48.2619" lon="7.28123">
        <ele>399.5650635</ele>
        <time>2012-02-11T08:16:38Z</time>
      </trkpt>
      <trkpt lat="48.26183" lon="7.28131">
        <ele>401.0070801</ele>
        <time>2012-02-11T08:16:47Z</time>
      </trkpt>
      <trkpt lat="48.26177" lon="7.28136">
        <ele>402.9296875</ele>
        <time>2012-02-11T08:16:57Z</time>
      </trkpt>
      <trkpt lat="48.26171" lon="7.28142">
        <ele>404.8522949</ele>
        <time>2012-02-11T08:17:17Z</time>
      </trkpt>
      <trkpt lat="48.26162" lon="7.28148">
        <ele>406.7749023</ele>
        <time>2012-02-11T08:17:41Z</time>
      </trkpt>
      <trkpt lat="48.26156" lon="7.28145">
        <ele>408.217041</ele>
        <time>2012-02-11T08:18:02Z</time>
      </trkpt>
      <trkpt lat="48.26151" lon="7.28134">
        <ele>408.217041</ele>
        <time>2012-02-11T08:18:24Z</time>
      </trkpt>
      <trkpt lat="48.26144" lon="7.28116">
        <ele>411.581665</ele>
        <time>2012-02-11T08:18:47Z</time>
      </trkpt>
      <trkpt lat="48.26136" lon="7.2809">
        <ele>413.5042725</ele>
        <time>2012-02-11T08:19:04Z</time>
      </trkpt>
      <trkpt lat="48.26133" lon="7.28076">
        <ele>416.3881836</ele>
        <time>2012-02-11T08:19:19Z</time>
      </trkpt>
      <trkpt lat="48.26128" lon="7.28059">
        <ele>418.7915039</ele>
        <time>2012-02-11T08:19:39Z</time>
      </trkpt>
      <trkpt lat="48.26119" lon="7.2804">
        <ele>421.675415</ele>
        <time>2012-02-11T08:19:42Z</time>
      </trkpt>
      <trkpt lat="48.26113" lon="7.28025">
        <ele>424.0787354</ele>
        <time>2012-02-11T08:19:49Z</time>
      </trkpt>
      <trkpt lat="48.26107" lon="7.2801">
        <ele>425.0401611</ele>
        <time>2012-02-11T08:20:03Z</time>
      </trkpt>
      <trkpt lat="48.261" lon="7.27991">
        <ele>427.9239502</ele>
        <time>2012-02-11T08:20:20Z</time>
      </trkpt>
      <trkpt lat="48.26101" lon="7.27989">
        <ele>427.9239502</ele>
        <time>2012-02-11T08:20:41Z</time>
      </trkpt>
      <trkpt lat="48.26096" lon="7.27981">
        <ele>428.4046631</ele>
        <time>2012-02-11T08:21:01Z</time>
      </trkpt>
      <trkpt lat="48.26094" lon="7.27972">
        <ele>430.3272705</ele>
        <time>2012-02-11T08:21:27Z</time>
      </trkpt>
      <trkpt lat="48.26088" lon="7.27953">
        <ele>431.769165</ele>
        <time>2012-02-11T08:21:44Z</time>
      </trkpt>
      <trkpt lat="48.26083" lon="7.27931">
        <ele>434.6533203</ele>
        <time>2012-02-11T08:22:01Z</time>
      </trkpt>
      <trkpt lat="48.26079" lon="7.27915">
        <ele>436.5759277</ele>
        <time>2012-02-11T08:22:15Z</time>
      </trkpt>
      <trkpt lat="48.26077" lon="7.279">
        <ele>438.979126</ele>
        <time>2012-02-11T08:22:37Z</time>
      </trkpt>
      <trkpt lat="48.26072" lon="7.27887">
        <ele>441.8631592</ele>
        <time>2012-02-11T08:23:26Z</time>
      </trkpt>
      <trkpt lat="48.26067" lon="7.27874">
        <ele>445.2276611</ele>
        <time>2012-02-11T08:23:28Z</time>
      </trkpt>
      <trkpt lat="48.26063" lon="7.27863">
        <ele>445.708374</ele>
        <time>2012-02-11T08:23:49Z</time>
      </trkpt>
      <trkpt lat="48.26064" lon="7.27854">
        <ele>447.6309814</ele>
        <time>2012-02-11T08:24:07Z</time>
      </trkpt>
      <trkpt lat="48.26064" lon="7.27854">
        <ele>445.708374</ele>
        <time>2012-02-11T08:24:20Z</time>
      </trkpt>
      <trkpt lat="48.26064" lon="7.27854">
        <ele>447.1502686</ele>
        <time>2012-02-11T08:24:23Z</time>
      </trkpt>
      <trkpt lat="48.26057" lon="7.27842">
        <ele>450.0344238</ele>
        <time>2012-02-11T08:24:42Z</time>
      </trkpt>
      <trkpt lat="48.26045" lon="7.27821">
        <ele>452.9182129</ele>
        <time>2012-02-11T08:24:55Z</time>
      </trkpt>
      <trkpt lat="48.26039" lon="7.27806">
        <ele>453.8796387</ele>
        <time>2012-02-11T08:25:10Z</time>
      </trkpt>
      <trkpt lat="48.26036" lon="7.27803">
        <ele>453.8796387</ele>
        <time>2012-02-11T08:25:30Z</time>
      </trkpt>
      <trkpt lat="48.26025" lon="7.27783">
        <ele>454.3602295</ele>
        <time>2012-02-11T08:25:49Z</time>
      </trkpt>
      <trkpt lat="48.26016" lon="7.2777">
        <ele>455.3215332</ele>
        <time>2012-02-11T08:26:06Z</time>
      </trkpt>
      <trkpt lat="48.26009" lon="7.27755">
        <ele>456.7635498</ele>
        <time>2012-02-11T08:26:25Z</time>
      </trkpt>
      <trkpt lat="48.26001" lon="7.27741">
        <ele>459.1668701</ele>
        <time>2012-02-11T08:26:50Z</time>
      </trkpt>
      <trkpt lat="48.25994" lon="7.27729">
        <ele>461.5701904</ele>
        <time>2012-02-11T08:27:04Z</time>
      </trkpt>
      <trkpt lat="48.25987" lon="7.27729">
        <ele>463.9733887</ele>
        <time>2012-02-11T08:27:21Z</time>
      </trkpt>
      <trkpt lat="48.25978" lon="7.27728">
        <ele>466.8574219</ele>
        <time>2012-02-11T08:27:42Z</time>
      </trkpt>
      <trkpt lat="48.25966" lon="7.27729">
        <ele>469.2607422</ele>
        <time>2012-02-11T08:28:02Z</time>
      </trkpt>
      <trkpt lat="48.25956" lon="7.27729">
        <ele>472.1446533</ele>
        <time>2012-02-11T08:28:19Z</time>
      </trkpt>
      <trkpt lat="48.25948" lon="7.27728">
        <ele>473.5866699</ele>
        <time>2012-02-11T08:28:38Z</time>
      </trkpt>
      <trkpt lat="48.25938" lon="7.27728">
        <ele>476.4705811</ele>
        <time>2012-02-11T08:28:59Z</time>
      </trkpt>
      <trkpt lat="48.25929" lon="7.27725">
        <ele>478.8739014</ele>
        <time>2012-02-11T08:29:23Z</time>
      </trkpt>
      <trkpt lat="48.25918" lon="7.27726">
        <ele>480.315918</ele>
        <time>2012-02-11T08:29:39Z</time>
      </trkpt>
      <trkpt lat="48.25907" lon="7.27724">
        <ele>482.7192383</ele>
        <time>2012-02-11T08:29:50Z</time>
      </trkpt>
      <trkpt lat="48.25902" lon="7.27723">
        <ele>483.6804199</ele>
        <time>2012-02-11T08:30:14Z</time>
      </trkpt>
      <trkpt lat="48.25888" lon="7.27718">
        <ele>486.0837402</ele>
        <time>2012-02-11T08:30:31Z</time>
      </trkpt>
      <trkpt lat="48.2588" lon="7.27725">
        <ele>486.5644531</ele>
        <time>2012-02-11T08:30:50Z</time>
      </trkpt>
      <trkpt lat="48.25875" lon="7.27737">
        <ele>487.5256348</ele>
        <time>2012-02-11T08:30:55Z</time>
      </trkpt>
      <trkpt lat="48.25858" lon="7.2776">
        <ele>488.0064697</ele>
        <time>2012-02-11T08:31:15Z</time>
      </trkpt>
      <trkpt lat="48.25843" lon="7.27764">
        <ele>488.0064697</ele>
        <time>2012-02-11T08:31:25Z</time>
      </trkpt>
      <trkpt lat="48.25823" lon="7.27758">
        <ele>488.4871826</ele>
        <time>2012-02-11T08:31:44Z</time>
      </trkpt>
      <trkpt lat="48.25818" lon="7.27757">
        <ele>488.0064697</ele>
        <time>2012-02-11T08:31:47Z</time>
      </trkpt>
      <trkpt lat="48.258" lon="7.27748">
        <ele>488.9677734</ele>
        <time>2012-02-11T08:32:06Z</time>
      </trkpt>
      <trkpt lat="48.2579" lon="7.27748">
        <ele>488.4871826</ele>
        <time>2012-02-11T08:32:25Z</time>
      </trkpt>
      <trkpt lat="48.25775" lon="7.27764">
        <ele>488.9677734</ele>
        <time>2012-02-11T08:32:50Z</time>
      </trkpt>
      <trkpt lat="48.25774" lon="7.27769">
        <ele>488.0064697</ele>
        <time>2012-02-11T08:33:12Z</time>
      </trkpt>
      <trkpt lat="48.25768" lon="7.278">
        <ele>488.4871826</ele>
        <time>2012-02-11T08:33:16Z</time>
      </trkpt>
      <trkpt lat="48.25764" lon="7.27831">
        <ele>489.4483643</ele>
        <time>2012-02-11T08:33:37Z</time>
      </trkpt>
      <trkpt lat="48.25748" lon="7.27869">
        <ele>490.8903809</ele>
        <time>2012-02-11T08:33:52Z</time>
      </trkpt>
      <trkpt lat="48.25726" lon="7.27883">
        <ele>491.8516846</ele>
        <time>2012-02-11T08:34:13Z</time>
      </trkpt>
      <trkpt lat="48.25722" lon="7.27885">
        <ele>492.3323975</ele>
        <time>2012-02-11T08:34:36Z</time>
      </trkpt>
      <trkpt lat="48.25703" lon="7.27889">
        <ele>493.2935791</ele>
        <time>2012-02-11T08:35:06Z</time>
      </trkpt>
      <trkpt lat="48.25691" lon="7.27879">
        <ele>494.7355957</ele>
        <time>2012-02-11T08:35:09Z</time>
      </trkpt>
      <trkpt lat="48.25678" lon="7.27866">
        <ele>497.6196289</ele>
        <time>2012-02-11T08:35:26Z</time>
      </trkpt>
      <trkpt lat="48.25664" lon="7.27862">
        <ele>500.0229492</ele>
        <time>2012-02-11T08:35:44Z</time>
      </trkpt>
      <trkpt lat="48.25654" lon="7.27876">
        <ele>501.4648438</ele>
        <time>2012-02-11T08:35:58Z</time>
      </trkpt>
      <trkpt lat="48.25651" lon="7.2788">
        <ele>501.9455566</ele>
        <time>2012-02-11T08:36:16Z</time>
      </trkpt>
      <trkpt lat="48.25636" lon="7.27894">
        <ele>504.348877</ele>
        <time>2012-02-11T08:36:32Z</time>
      </trkpt>
      <trkpt lat="48.25625" lon="7.27905">
        <ele>505.7908936</ele>
        <time>2012-02-11T08:36:53Z</time>
      </trkpt>
      <trkpt lat="48.25615" lon="7.2792">
        <ele>507.2327881</ele>
        <time>2012-02-11T08:37:10Z</time>
      </trkpt>
      <trkpt lat="48.25607" lon="7.27939">
        <ele>509.1553955</ele>
        <time>2012-02-11T08:37:19Z</time>
      </trkpt>
      <trkpt lat="48.25602" lon="7.27951">
        <ele>510.1166992</ele>
        <time>2012-02-11T08:37:35Z</time>
      </trkpt>
      <trkpt lat="48.25592" lon="7.27977">
        <ele>511.5587158</ele>
        <time>2012-02-11T08:37:53Z</time>
      </trkpt>
      <trkpt lat="48.25585" lon="7.27993">
        <ele>513.0007324</ele>
        <time>2012-02-11T08:38:15Z</time>
      </trkpt>
      <trkpt lat="48.25586" lon="7.28009">
        <ele>513.4814453</ele>
        <time>2012-02-11T08:38:37Z</time>
      </trkpt>
      <trkpt lat="48.25593" lon="7.28031">
        <ele>515.4040527</ele>
        <time>2012-02-11T08:40:15Z</time>
      </trkpt>
      <trkpt lat="48.256" lon="7.28058">
        <ele>517.3266602</ele>
        <time>2012-02-11T08:40:33Z</time>
      </trkpt>
      <trkpt lat="48.25609" lon="7.28088">
        <ele>519.2492676</ele>
        <time>2012-02-11T08:40:49Z</time>
      </trkpt>
      <trkpt lat="48.25615" lon="7.28094">
        <ele>520.2105713</ele>
        <time>2012-02-11T08:41:08Z</time>
      </trkpt>
      <trkpt lat="48.25614" lon="7.281">
        <ele>521.6525879</ele>
        <time>2012-02-11T08:41:26Z</time>
      </trkpt>
      <trkpt lat="48.25618" lon="7.28119">
        <ele>523.0946045</ele>
        <time>2012-02-11T08:41:47Z</time>
      </trkpt>
      <trkpt lat="48.25627" lon="7.28133">
        <ele>525.0172119</ele>
        <time>2012-02-11T08:42:10Z</time>
      </trkpt>
      <trkpt lat="48.25645" lon="7.28146">
        <ele>526.4591064</ele>
        <time>2012-02-11T08:42:27Z</time>
      </trkpt>
      <trkpt lat="48.25661" lon="7.28158">
        <ele>528.3818359</ele>
        <time>2012-02-11T08:42:45Z</time>
      </trkpt>
      <trkpt lat="48.25668" lon="7.2818">
        <ele>530.3044434</ele>
        <time>2012-02-11T08:43:07Z</time>
      </trkpt>
      <trkpt lat="48.25685" lon="7.28201">
        <ele>533.6689453</ele>
        <time>2012-02-11T08:43:36Z</time>
      </trkpt>
      <trkpt lat="48.25693" lon="7.28218">
        <ele>536.0723877</ele>
        <time>2012-02-11T08:43:56Z</time>
      </trkpt>
      <trkpt lat="48.25696" lon="7.28232">
        <ele>537.9949951</ele>
        <time>2012-02-11T08:44:16Z</time>
      </trkpt>
      <trkpt lat="48.25702" lon="7.28253">
        <ele>539.9176025</ele>
        <time>2012-02-11T08:44:35Z</time>
      </trkpt>
      <trkpt lat="48.25704" lon="7.28288">
        <ele>543.2821045</ele>
        <time>2012-02-11T08:44:52Z</time>
      </trkpt>
      <trkpt lat="48.25694" lon="7.28312">
        <ele>545.204834</ele>
        <time>2012-02-11T08:45:11Z</time>
      </trkpt>
      <trkpt lat="48.25686" lon="7.28334">
        <ele>547.6081543</ele>
        <time>2012-02-11T08:45:27Z</time>
      </trkpt>
      <trkpt lat="48.25679" lon="7.28361">
        <ele>549.0500488</ele>
        <time>2012-02-11T08:45:44Z</time>
      </trkpt>
      <trkpt lat="48.25672" lon="7.2838">
        <ele>551.4533691</ele>
        <time>2012-02-11T08:45:46Z</time>
      </trkpt>
      <trkpt lat="48.25668" lon="7.284">
        <ele>552.4145508</ele>
        <time>2012-02-11T08:46:01Z</time>
      </trkpt>
      <trkpt lat="48.25661" lon="7.28417">
        <ele>554.8178711</ele>
        <time>2012-02-11T08:46:16Z</time>
      </trkpt>
      <trkpt lat="48.25653" lon="7.28423">
        <ele>556.2600098</ele>
        <time>2012-02-11T08:46:33Z</time>
      </trkpt>
      <trkpt lat="48.2565" lon="7.28426">
        <ele>556.2600098</ele>
        <time>2012-02-11T08:46:47Z</time>
      </trkpt>
      <trkpt lat="48.25639" lon="7.28417">
        <ele>558.1828613</ele>
        <time>2012-02-11T08:47:02Z</time>
      </trkpt>
      <trkpt lat="48.25633" lon="7.28401">
        <ele>560.5859375</ele>
        <time>2012-02-11T08:47:07Z</time>
      </trkpt>
      <trkpt lat="48.25626" lon="7.28384">
        <ele>561.5473633</ele>
        <time>2012-02-11T08:47:29Z</time>
      </trkpt>
      <trkpt lat="48.25619" lon="7.28371">
        <ele>563.4699707</ele>
        <time>2012-02-11T08:47:50Z</time>
      </trkpt>
      <trkpt lat="48.25612" lon="7.28358">
        <ele>564.4311523</ele>
        <time>2012-02-11T08:48:09Z</time>
      </trkpt>
      <trkpt lat="48.25609" lon="7.28351">
        <ele>564.9118652</ele>
        <time>2012-02-11T08:48:21Z</time>
      </trkpt>
      <trkpt lat="48.25594" lon="7.28327">
        <ele>565.873291</ele>
        <time>2012-02-11T08:48:33Z</time>
      </trkpt>
      <trkpt lat="48.2558" lon="7.28305">
        <ele>566.8344727</ele>
        <time>2012-02-11T08:48:36Z</time>
      </trkpt>
      <trkpt lat="48.25566" lon="7.28296">
        <ele>568.7570801</ele>
        <time>2012-02-11T08:48:56Z</time>
      </trkpt>
      <trkpt lat="48.25556" lon="7.28288">
        <ele>569.237793</ele>
        <time>2012-02-11T08:49:12Z</time>
      </trkpt>
      <trkpt lat="48.25546" lon="7.2828">
        <ele>570.6796875</ele>
        <time>2012-02-11T08:49:28Z</time>
      </trkpt>
      <trkpt lat="48.25544" lon="7.28278">
        <ele>570.6796875</ele>
        <time>2012-02-11T08:49:36Z</time>
      </trkpt>
      <trkpt lat="48.25528" lon="7.28259">
        <ele>571.6408691</ele>
        <time>2012-02-11T08:49:46Z</time>
      </trkpt>
      <trkpt lat="48.2552" lon="7.28248">
        <ele>573.083252</ele>
        <time>2012-02-11T08:49:58Z</time>
      </trkpt>
      <trkpt lat="48.25508" lon="7.28236">
        <ele>574.0444336</ele>
        <time>2012-02-11T08:50:01Z</time>
      </trkpt>
      <trkpt lat="48.25503" lon="7.28231">
        <ele>575.0058594</ele>
        <time>2012-02-11T08:50:15Z</time>
      </trkpt>
      <trkpt lat="48.25496" lon="7.28226">
        <ele>575.967041</ele>
        <time>2012-02-11T08:50:25Z</time>
      </trkpt>
      <trkpt lat="48.25486" lon="7.28218">
        <ele>576.4477539</ele>
        <time>2012-02-11T08:50:40Z</time>
      </trkpt>
      <trkpt lat="48.25483" lon="7.28217">
        <ele>576.9284668</ele>
        <time>2012-02-11T08:50:52Z</time>
      </trkpt>
      <trkpt lat="48.25471" lon="7.28212">
        <ele>577.8896484</ele>
        <time>2012-02-11T08:51:08Z</time>
      </trkpt>
      <trkpt lat="48.25462" lon="7.28208">
        <ele>578.3703613</ele>
        <time>2012-02-11T08:51:27Z</time>
      </trkpt>
      <trkpt lat="48.25457" lon="7.28205">
        <ele>579.331543</ele>
        <time>2012-02-11T08:51:47Z</time>
      </trkpt>
      <trkpt lat="48.25451" lon="7.282">
        <ele>579.331543</ele>
        <time>2012-02-11T08:52:04Z</time>
      </trkpt>
      <trkpt lat="48.25443" lon="7.28189">
        <ele>582.2155762</ele>
        <time>2012-02-11T08:52:17Z</time>
      </trkpt>
      <trkpt lat="48.25434" lon="7.28179">
        <ele>583.6574707</ele>
        <time>2012-02-11T08:52:33Z</time>
      </trkpt>
      <trkpt lat="48.25426" lon="7.2817">
        <ele>586.060791</ele>
        <time>2012-02-11T08:52:45Z</time>
      </trkpt>
      <trkpt lat="48.25415" lon="7.28156">
        <ele>587.5026855</ele>
        <time>2012-02-11T08:53:07Z</time>
      </trkpt>
      <trkpt lat="48.25407" lon="7.28158">
        <ele>588.9450684</ele>
        <time>2012-02-11T08:53:26Z</time>
      </trkpt>
      <trkpt lat="48.25397" lon="7.28158">
        <ele>590.8674316</ele>
        <time>2012-02-11T08:53:50Z</time>
      </trkpt>
      <trkpt lat="48.2539" lon="7.2816">
        <ele>592.3095703</ele>
        <time>2012-02-11T08:54:09Z</time>
      </trkpt>
      <trkpt lat="48.25381" lon="7.28157">
        <ele>593.7514648</ele>
        <time>2012-02-11T08:54:27Z</time>
      </trkpt>
      <trkpt lat="48.25367" lon="7.28152">
        <ele>596.635498</ele>
        <time>2012-02-11T08:54:44Z</time>
      </trkpt>
      <trkpt lat="48.25361" lon="7.28148">
        <ele>599.0385742</ele>
        <time>2012-02-11T08:55:01Z</time>
      </trkpt>
      <trkpt lat="48.25352" lon="7.28139">
        <ele>601.9226074</ele>
        <time>2012-02-11T08:55:15Z</time>
      </trkpt>
      <trkpt lat="48.25344" lon="7.28128">
        <ele>605.2873535</ele>
        <time>2012-02-11T08:55:33Z</time>
      </trkpt>
      <trkpt lat="48.25339" lon="7.28121">
        <ele>606.729248</ele>
        <time>2012-02-11T08:55:51Z</time>
      </trkpt>
      <trkpt lat="48.2533" lon="7.28114">
        <ele>609.1325684</ele>
        <time>2012-02-11T08:56:12Z</time>
      </trkpt>
      <trkpt lat="48.25329" lon="7.2811">
        <ele>610.09375</ele>
        <time>2012-02-11T08:56:46Z</time>
      </trkpt>
      <trkpt lat="48.25321" lon="7.28106">
        <ele>612.4970703</ele>
        <time>2012-02-11T08:57:07Z</time>
      </trkpt>
      <trkpt lat="48.25317" lon="7.28101">
        <ele>615.3811035</ele>
        <time>2012-02-11T08:57:16Z</time>
      </trkpt>
      <trkpt lat="48.25304" lon="7.28099">
        <ele>617.7841797</ele>
        <time>2012-02-11T08:57:38Z</time>
      </trkpt>
      <trkpt lat="48.253" lon="7.28097">
        <ele>621.1491699</ele>
        <time>2012-02-11T08:57:58Z</time>
      </trkpt>
      <trkpt lat="48.25287" lon="7.28087">
        <ele>623.5524902</ele>
        <time>2012-02-11T08:58:16Z</time>
      </trkpt>
      <trkpt lat="48.25288" lon="7.28087">
        <ele>623.5524902</ele>
        <time>2012-02-11T08:58:32Z</time>
      </trkpt>
      <trkpt lat="48.25273" lon="7.28075">
        <ele>625.9555664</ele>
        <time>2012-02-11T08:58:51Z</time>
      </trkpt>
      <trkpt lat="48.25267" lon="7.28075">
        <ele>627.3977051</ele>
        <time>2012-02-11T08:59:06Z</time>
      </trkpt>
      <trkpt lat="48.2526" lon="7.28074">
        <ele>628.8395996</ele>
        <time>2012-02-11T08:59:25Z</time>
      </trkpt>
      <trkpt lat="48.25253" lon="7.28065">
        <ele>631.2429199</ele>
        <time>2012-02-11T08:59:39Z</time>
      </trkpt>
      <trkpt lat="48.25241" lon="7.28061">
        <ele>634.126709</ele>
        <time>2012-02-11T08:59:50Z</time>
      </trkpt>
      <trkpt lat="48.25231" lon="7.28059">
        <ele>636.0495605</ele>
        <time>2012-02-11T09:00:05Z</time>
      </trkpt>
      <trkpt lat="48.25219" lon="7.28057">
        <ele>638.4528809</ele>
        <time>2012-02-11T09:00:20Z</time>
      </trkpt>
      <trkpt lat="48.2521" lon="7.28059">
        <ele>639.4140625</ele>
        <time>2012-02-11T09:00:38Z</time>
      </trkpt>
      <trkpt lat="48.25201" lon="7.28059">
        <ele>640.3754883</ele>
        <time>2012-02-11T09:00:58Z</time>
      </trkpt>
      <trkpt lat="48.2519" lon="7.28056">
        <ele>642.2980957</ele>
        <time>2012-02-11T09:01:16Z</time>
      </trkpt>
      <trkpt lat="48.25179" lon="7.28055">
        <ele>643.7399902</ele>
        <time>2012-02-11T09:02:45Z</time>
      </trkpt>
      <trkpt lat="48.25167" lon="7.28061">
        <ele>645.1818848</ele>
        <time>2012-02-11T09:03:03Z</time>
      </trkpt>
      <trkpt lat="48.25151" lon="7.28064">
        <ele>647.1044922</ele>
        <time>2012-02-11T09:03:19Z</time>
      </trkpt>
      <trkpt lat="48.25138" lon="7.28064">
        <ele>649.0270996</ele>
        <time>2012-02-11T09:03:24Z</time>
      </trkpt>
      <trkpt lat="48.25128" lon="7.28066">
        <ele>649.5078125</ele>
        <time>2012-02-11T09:03:40Z</time>
      </trkpt>
      <trkpt lat="48.25113" lon="7.28075">
        <ele>651.9111328</ele>
        <time>2012-02-11T09:03:59Z</time>
      </trkpt>
      <trkpt lat="48.25104" lon="7.2809">
        <ele>654.3146973</ele>
        <time>2012-02-11T09:04:13Z</time>
      </trkpt>
      <trkpt lat="48.25103" lon="7.28095">
        <ele>653.8339844</ele>
        <time>2012-02-11T09:04:35Z</time>
      </trkpt>
      <trkpt lat="48.25101" lon="7.28117">
        <ele>654.3146973</ele>
        <time>2012-02-11T09:04:52Z</time>
      </trkpt>
      <trkpt lat="48.2509" lon="7.28121">
        <ele>653.8339844</ele>
        <time>2012-02-11T09:05:08Z</time>
      </trkpt>
      <trkpt lat="48.25079" lon="7.28119">
        <ele>655.2758789</ele>
        <time>2012-02-11T09:05:23Z</time>
      </trkpt>
      <trkpt lat="48.25071" lon="7.2812">
        <ele>656.2370605</ele>
        <time>2012-02-11T09:05:40Z</time>
      </trkpt>
      <trkpt lat="48.25068" lon="7.28122">
        <ele>656.2370605</ele>
        <time>2012-02-11T09:05:56Z</time>
      </trkpt>
      <trkpt lat="48.25056" lon="7.28124">
        <ele>658.6403809</ele>
        <time>2012-02-11T09:06:16Z</time>
      </trkpt>
      <trkpt lat="48.25043" lon="7.28126">
        <ele>659.6018066</ele>
        <time>2012-02-11T09:06:29Z</time>
      </trkpt>
      <trkpt lat="48.25028" lon="7.28132">
        <ele>662.005127</ele>
        <time>2012-02-11T09:06:41Z</time>
      </trkpt>
      <trkpt lat="48.25017" lon="7.2814">
        <ele>663.4470215</ele>
        <time>2012-02-11T09:06:57Z</time>
      </trkpt>
      <trkpt lat="48.25002" lon="7.28144">
        <ele>664.4082031</ele>
        <time>2012-02-11T09:07:15Z</time>
      </trkpt>
      <trkpt lat="48.24994" lon="7.28147">
        <ele>666.3308105</ele>
        <time>2012-02-11T09:07:33Z</time>
      </trkpt>
      <trkpt lat="48.24989" lon="7.28147">
        <ele>666.8115234</ele>
        <time>2012-02-11T09:07:48Z</time>
      </trkpt>
      <trkpt lat="48.24978" lon="7.28149">
        <ele>668.734375</ele>
        <time>2012-02-11T09:08:02Z</time>
      </trkpt>
      <trkpt lat="48.24965" lon="7.28152">
        <ele>670.6569824</ele>
        <time>2012-02-11T09:08:18Z</time>
      </trkpt>
      <trkpt lat="48.24952" lon="7.28152">
        <ele>671.6181641</ele>
        <time>2012-02-11T09:08:36Z</time>
      </trkpt>
      <trkpt lat="48.2494" lon="7.28152">
        <ele>673.0603027</ele>
        <time>2012-02-11T09:08:42Z</time>
      </trkpt>
      <trkpt lat="48.24932" lon="7.28154">
        <ele>674.5021973</ele>
        <time>2012-02-11T09:08:55Z</time>
      </trkpt>
      <trkpt lat="48.24922" lon="7.28156">
        <ele>675.4633789</ele>
        <time>2012-02-11T09:09:12Z</time>
      </trkpt>
      <trkpt lat="48.24912" lon="7.28153">
        <ele>675.9440918</ele>
        <time>2012-02-11T09:09:28Z</time>
      </trkpt>
      <trkpt lat="48.24908" lon="7.28153">
        <ele>675.9440918</ele>
        <time>2012-02-11T09:09:46Z</time>
      </trkpt>
      <trkpt lat="48.24901" lon="7.28155">
        <ele>677.3862305</ele>
        <time>2012-02-11T09:10:05Z</time>
      </trkpt>
      <trkpt lat="48.2489" lon="7.28147">
        <ele>678.828125</ele>
        <time>2012-02-11T09:10:20Z</time>
      </trkpt>
      <trkpt lat="48.2488" lon="7.28134">
        <ele>680.2700195</ele>
        <time>2012-02-11T09:10:32Z</time>
      </trkpt>
      <trkpt lat="48.24874" lon="7.28123">
        <ele>680.7507324</ele>
        <time>2012-02-11T09:10:49Z</time>
      </trkpt>
      <trkpt lat="48.24866" lon="7.28105">
        <ele>683.1538086</ele>
        <time>2012-02-11T09:11:08Z</time>
      </trkpt>
      <trkpt lat="48.24861" lon="7.28095">
        <ele>684.1154785</ele>
        <time>2012-02-11T09:11:24Z</time>
      </trkpt>
      <trkpt lat="48.24857" lon="7.28086">
        <ele>685.0769043</ele>
        <time>2012-02-11T09:11:44Z</time>
      </trkpt>
      <trkpt lat="48.2485" lon="7.28071">
        <ele>686.0380859</ele>
        <time>2012-02-11T09:12:02Z</time>
      </trkpt>
      <trkpt lat="48.24843" lon="7.28057">
        <ele>687.4799805</ele>
        <time>2012-02-11T09:12:21Z</time>
      </trkpt>
      <trkpt lat="48.24836" lon="7.28044">
        <ele>689.4025879</ele>
        <time>2012-02-11T09:12:41Z</time>
      </trkpt>
      <trkpt lat="48.24827" lon="7.28029">
        <ele>690.8444824</ele>
        <time>2012-02-11T09:12:58Z</time>
      </trkpt>
      <trkpt lat="48.24815" lon="7.28023">
        <ele>692.767334</ele>
        <time>2012-02-11T09:13:15Z</time>
      </trkpt>
      <trkpt lat="48.24802" lon="7.2802">
        <ele>694.2092285</ele>
        <time>2012-02-11T09:13:36Z</time>
      </trkpt>
      <trkpt lat="48.24789" lon="7.28019">
        <ele>696.1318359</ele>
        <time>2012-02-11T09:13:54Z</time>
      </trkpt>
      <trkpt lat="48.2478" lon="7.28027">
        <ele>696.1318359</ele>
        <time>2012-02-11T09:14:17Z</time>
      </trkpt>
      <trkpt lat="48.24769" lon="7.28035">
        <ele>698.0544434</ele>
        <time>2012-02-11T09:14:36Z</time>
      </trkpt>
      <trkpt lat="48.24755" lon="7.28046">
        <ele>700.4580078</ele>
        <time>2012-02-11T09:14:56Z</time>
      </trkpt>
      <trkpt lat="48.24739" lon="7.28051">
        <ele>702.3803711</ele>
        <time>2012-02-11T09:15:12Z</time>
      </trkpt>
      <trkpt lat="48.24722" lon="7.28065">
        <ele>704.3032227</ele>
        <time>2012-02-11T09:15:33Z</time>
      </trkpt>
      <trkpt lat="48.24711" lon="7.28081">
        <ele>705.7451172</ele>
        <time>2012-02-11T09:15:52Z</time>
      </trkpt>
      <trkpt lat="48.24698" lon="7.28086">
        <ele>707.1870117</ele>
        <time>2012-02-11T09:16:16Z</time>
      </trkpt>
      <trkpt lat="48.24687" lon="7.2809">
        <ele>709.1096191</ele>
        <time>2012-02-11T09:16:40Z</time>
      </trkpt>
      <trkpt lat="48.24672" lon="7.28102">
        <ele>710.0708008</ele>
        <time>2012-02-11T09:17:01Z</time>
      </trkpt>
      <trkpt lat="48.24659" lon="7.2811">
        <ele>712.4741211</ele>
        <time>2012-02-11T09:17:21Z</time>
      </trkpt>
      <trkpt lat="48.24643" lon="7.28125">
        <ele>714.8774414</ele>
        <time>2012-02-11T09:17:42Z</time>
      </trkpt>
      <trkpt lat="48.24626" lon="7.28135">
        <ele>715.8388672</ele>
        <time>2012-02-11T09:18:02Z</time>
      </trkpt>
      <trkpt lat="48.24614" lon="7.28141">
        <ele>717.2810059</ele>
        <time>2012-02-11T09:18:18Z</time>
      </trkpt>
      <trkpt lat="48.24602" lon="7.28145">
        <ele>719.6843262</ele>
        <time>2012-02-11T09:18:34Z</time>
      </trkpt>
      <trkpt lat="48.24592" lon="7.28153">
        <ele>721.1262207</ele>
        <time>2012-02-11T09:18:55Z</time>
      </trkpt>
      <trkpt lat="48.24578" lon="7.28165">
        <ele>722.5681152</ele>
        <time>2012-02-11T09:19:14Z</time>
      </trkpt>
      <trkpt lat="48.24568" lon="7.28167">
        <ele>724.0100098</ele>
        <time>2012-02-11T09:19:31Z</time>
      </trkpt>
      <trkpt lat="48.24557" lon="7.28163">
        <ele>725.4519043</ele>
        <time>2012-02-11T09:19:50Z</time>
      </trkpt>
      <trkpt lat="48.24542" lon="7.28165">
        <ele>727.3747559</ele>
        <time>2012-02-11T09:20:07Z</time>
      </trkpt>
      <trkpt lat="48.24532" lon="7.28171">
        <ele>729.2971191</ele>
        <time>2012-02-11T09:20:26Z</time>
      </trkpt>
      <trkpt lat="48.2452" lon="7.28165">
        <ele>730.2585449</ele>
        <time>2012-02-11T09:20:45Z</time>
      </trkpt>
      <trkpt lat="48.24504" lon="7.2816">
        <ele>731.2199707</ele>
        <time>2012-02-11T09:21:05Z</time>
      </trkpt>
      <trkpt lat="48.24488" lon="7.28162">
        <ele>733.1425781</ele>
        <time>2012-02-11T09:21:25Z</time>
      </trkpt>
      <trkpt lat="48.24472" lon="7.28168">
        <ele>733.1425781</ele>
        <time>2012-02-11T09:21:40Z</time>
      </trkpt>
      <trkpt lat="48.24457" lon="7.28174">
        <ele>735.0654297</ele>
        <time>2012-02-11T09:21:53Z</time>
      </trkpt>
      <trkpt lat="48.24443" lon="7.2818">
        <ele>735.5458984</ele>
        <time>2012-02-11T09:22:09Z</time>
      </trkpt>
      <trkpt lat="48.24425" lon="7.28179">
        <ele>736.0266113</ele>
        <time>2012-02-11T09:22:26Z</time>
      </trkpt>
      <trkpt lat="48.24417" lon="7.28175">
        <ele>736.5073242</ele>
        <time>2012-02-11T09:22:31Z</time>
      </trkpt>
      <trkpt lat="48.24415" lon="7.28156">
        <ele>737.4685059</ele>
        <time>2012-02-11T09:22:53Z</time>
      </trkpt>
      <trkpt lat="48.24408" lon="7.28143">
        <ele>738.4299316</ele>
        <time>2012-02-11T09:23:19Z</time>
      </trkpt>
      <trkpt lat="48.24412" lon="7.28146">
        <ele>737.9492188</ele>
        <time>2012-02-11T09:24:00Z</time>
      </trkpt>
      <trkpt lat="48.24411" lon="7.28146">
        <ele>737.9492188</ele>
        <time>2012-02-11T09:24:10Z</time>
      </trkpt>
      <trkpt lat="48.24414" lon="7.28147">
        <ele>737.4685059</ele>
        <time>2012-02-11T09:24:12Z</time>
      </trkpt>
      <trkpt lat="48.24412" lon="7.28143">
        <ele>736.987793</ele>
        <time>2012-02-11T09:24:26Z</time>
      </trkpt>
      <trkpt lat="48.24404" lon="7.28145">
        <ele>737.4685059</ele>
        <time>2012-02-11T09:24:43Z</time>
      </trkpt>
      <trkpt lat="48.24404" lon="7.28145">
        <ele>736.987793</ele>
        <time>2012-02-11T09:25:00Z</time>
      </trkpt>
      <trkpt lat="48.24406" lon="7.28141">
        <ele>736.987793</ele>
        <time>2012-02-11T09:25:15Z</time>
      </trkpt>
      <trkpt lat="48.24404" lon="7.28119">
        <ele>737.9492188</ele>
        <time>2012-02-11T09:25:28Z</time>
      </trkpt>
      <trkpt lat="48.24401" lon="7.28088">
        <ele>738.4299316</ele>
        <time>2012-02-11T09:25:48Z</time>
      </trkpt>
      <trkpt lat="48.24396" lon="7.28065">
        <ele>740.3525391</ele>
        <time>2012-02-11T09:25:58Z</time>
      </trkpt>
      <trkpt lat="48.24394" lon="7.28042">
        <ele>741.7944336</ele>
        <time>2012-02-11T09:26:15Z</time>
      </trkpt>
      <trkpt lat="48.2439" lon="7.28021">
        <ele>743.2363281</ele>
        <time>2012-02-11T09:26:30Z</time>
      </trkpt>
      <trkpt lat="48.24389" lon="7.28017">
        <ele>745.1589355</ele>
        <time>2012-02-11T09:26:44Z</time>
      </trkpt>
      <trkpt lat="48.24394" lon="7.28004">
        <ele>745.1589355</ele>
        <time>2012-02-11T09:27:01Z</time>
      </trkpt>
      <trkpt lat="48.24398" lon="7.27984">
        <ele>747.081543</ele>
        <time>2012-02-11T09:27:16Z</time>
      </trkpt>
      <trkpt lat="48.244" lon="7.27955">
        <ele>748.5236816</ele>
        <time>2012-02-11T09:27:17Z</time>
      </trkpt>
      <trkpt lat="48.24404" lon="7.27936">
        <ele>749.4851074</ele>
        <time>2012-02-11T09:27:35Z</time>
      </trkpt>
      <trkpt lat="48.24405" lon="7.27913">
        <ele>751.4077148</ele>
        <time>2012-02-11T09:27:48Z</time>
      </trkpt>
      <trkpt lat="48.24407" lon="7.27893">
        <ele>752.8496094</ele>
        <time>2012-02-11T09:28:01Z</time>
      </trkpt>
      <trkpt lat="48.24407" lon="7.27891">
        <ele>752.8496094</ele>
        <time>2012-02-11T09:28:04Z</time>
      </trkpt>
      <trkpt lat="48.24408" lon="7.27865">
        <ele>754.7722168</ele>
        <time>2012-02-11T09:28:19Z</time>
      </trkpt>
      <trkpt lat="48.24408" lon="7.27845">
        <ele>755.7336426</ele>
        <time>2012-02-11T09:28:20Z</time>
      </trkpt>
      <trkpt lat="48.24404" lon="7.2783">
        <ele>757.1755371</ele>
        <time>2012-02-11T09:28:38Z</time>
      </trkpt>
      <trkpt lat="48.24405" lon="7.27825">
        <ele>757.1755371</ele>
        <time>2012-02-11T09:28:53Z</time>
      </trkpt>
      <trkpt lat="48.24406" lon="7.27806">
        <ele>758.6174316</ele>
        <time>2012-02-11T09:28:57Z</time>
      </trkpt>
      <trkpt lat="48.24404" lon="7.27806">
        <ele>758.6174316</ele>
        <time>2012-02-11T09:29:13Z</time>
      </trkpt>
      <trkpt lat="48.24398" lon="7.27782">
        <ele>760.5400391</ele>
        <time>2012-02-11T09:29:24Z</time>
      </trkpt>
      <trkpt lat="48.2439" lon="7.27764">
        <ele>762.4626465</ele>
        <time>2012-02-11T09:29:40Z</time>
      </trkpt>
      <trkpt lat="48.24389" lon="7.2776">
        <ele>762.4626465</ele>
        <time>2012-02-11T09:29:58Z</time>
      </trkpt>
      <trkpt lat="48.24385" lon="7.2774">
        <ele>763.904541</ele>
        <time>2012-02-11T09:30:19Z</time>
      </trkpt>
      <trkpt lat="48.24379" lon="7.27728">
        <ele>764.385498</ele>
        <time>2012-02-11T09:30:33Z</time>
      </trkpt>
      <trkpt lat="48.24376" lon="7.2771">
        <ele>765.8276367</ele>
        <time>2012-02-11T09:30:47Z</time>
      </trkpt>
      <trkpt lat="48.24368" lon="7.27691">
        <ele>767.2695313</ele>
        <time>2012-02-11T09:30:59Z</time>
      </trkpt>
      <trkpt lat="48.24357" lon="7.27669">
        <ele>768.7114258</ele>
        <time>2012-02-11T09:31:12Z</time>
      </trkpt>
      <trkpt lat="48.24349" lon="7.27658">
        <ele>770.1533203</ele>
        <time>2012-02-11T09:31:27Z</time>
      </trkpt>
      <trkpt lat="48.24341" lon="7.27645">
        <ele>771.1147461</ele>
        <time>2012-02-11T09:31:42Z</time>
      </trkpt>
      <trkpt lat="48.24334" lon="7.27634">
        <ele>772.5566406</ele>
        <time>2012-02-11T09:31:47Z</time>
      </trkpt>
      <trkpt lat="48.24328" lon="7.27623">
        <ele>773.9985352</ele>
        <time>2012-02-11T09:32:04Z</time>
      </trkpt>
      <trkpt lat="48.24317" lon="7.27608">
        <ele>774.9599609</ele>
        <time>2012-02-11T09:32:19Z</time>
      </trkpt>
      <trkpt lat="48.24309" lon="7.27596">
        <ele>775.9211426</ele>
        <time>2012-02-11T09:32:34Z</time>
      </trkpt>
      <trkpt lat="48.24304" lon="7.27591">
        <ele>776.4018555</ele>
        <time>2012-02-11T09:32:49Z</time>
      </trkpt>
      <trkpt lat="48.24292" lon="7.27582">
        <ele>778.3244629</ele>
        <time>2012-02-11T09:33:05Z</time>
      </trkpt>
      <trkpt lat="48.24284" lon="7.27572">
        <ele>779.7663574</ele>
        <time>2012-02-11T09:33:25Z</time>
      </trkpt>
      <trkpt lat="48.24277" lon="7.27564">
        <ele>781.2087402</ele>
        <time>2012-02-11T09:33:42Z</time>
      </trkpt>
      <trkpt lat="48.24264" lon="7.27549">
        <ele>782.6506348</ele>
        <time>2012-02-11T09:33:58Z</time>
      </trkpt>
      <trkpt lat="48.24257" lon="7.27546">
        <ele>783.6118164</ele>
        <time>2012-02-11T09:34:13Z</time>
      </trkpt>
      <trkpt lat="48.24251" lon="7.27542">
        <ele>784.5732422</ele>
        <time>2012-02-11T09:34:25Z</time>
      </trkpt>
      <trkpt lat="48.24244" lon="7.27538">
        <ele>784.5732422</ele>
        <time>2012-02-11T09:34:40Z</time>
      </trkpt>
      <trkpt lat="48.24241" lon="7.27531">
        <ele>785.0539551</ele>
        <time>2012-02-11T09:38:44Z</time>
      </trkpt>
      <trkpt lat="48.24232" lon="7.27521">
        <ele>786.0151367</ele>
        <time>2012-02-11T09:39:05Z</time>
      </trkpt>
      <trkpt lat="48.24223" lon="7.27518">
        <ele>787.4570313</ele>
        <time>2012-02-11T09:39:29Z</time>
      </trkpt>
      <trkpt lat="48.24213" lon="7.2751">
        <ele>788.418457</ele>
        <time>2012-02-11T09:39:53Z</time>
      </trkpt>
      <trkpt lat="48.24206" lon="7.27505">
        <ele>787.9377441</ele>
        <time>2012-02-11T09:40:11Z</time>
      </trkpt>
      <trkpt lat="48.24194" lon="7.27499">
        <ele>789.8603516</ele>
        <time>2012-02-11T09:40:38Z</time>
      </trkpt>
      <trkpt lat="48.24186" lon="7.27494">
        <ele>790.8215332</ele>
        <time>2012-02-11T09:41:06Z</time>
      </trkpt>
      <trkpt lat="48.2418" lon="7.27491">
        <ele>791.3022461</ele>
        <time>2012-02-11T09:42:26Z</time>
      </trkpt>
      <trkpt lat="48.2417" lon="7.27483">
        <ele>792.7443848</ele>
        <time>2012-02-11T09:44:36Z</time>
      </trkpt>
      <trkpt lat="48.24152" lon="7.2747">
        <ele>794.666748</ele>
        <time>2012-02-11T09:46:18Z</time>
      </trkpt>
      <trkpt lat="48.24151" lon="7.27468">
        <ele>794.1862793</ele>
        <time>2012-02-11T09:46:39Z</time>
      </trkpt>
      <trkpt lat="48.2415" lon="7.27471">
        <ele>794.1862793</ele>
        <time>2012-02-11T09:46:53Z</time>
      </trkpt>
      <trkpt lat="48.24152" lon="7.27471">
        <ele>794.666748</ele>
        <time>2012-02-11T09:46:57Z</time>
      </trkpt>
      <trkpt lat="48.24138" lon="7.27446">
        <ele>796.1091309</ele>
        <time>2012-02-11T09:47:15Z</time>
      </trkpt>
      <trkpt lat="48.24122" lon="7.27421">
        <ele>798.512207</ele>
        <time>2012-02-11T09:47:34Z</time>
      </trkpt>
      <trkpt lat="48.24112" lon="7.27407">
        <ele>799.9543457</ele>
        <time>2012-02-11T09:47:55Z</time>
      </trkpt>
      <trkpt lat="48.24107" lon="7.27402">
        <ele>799.9543457</ele>
        <time>2012-02-11T09:48:13Z</time>
      </trkpt>
      <trkpt lat="48.24099" lon="7.27389">
        <ele>802.3574219</ele>
        <time>2012-02-11T09:48:38Z</time>
      </trkpt>
      <trkpt lat="48.24086" lon="7.27371">
        <ele>803.7995605</ele>
        <time>2012-02-11T09:48:59Z</time>
      </trkpt>
      <trkpt lat="48.24076" lon="7.27353">
        <ele>804.7607422</ele>
        <time>2012-02-11T09:49:20Z</time>
      </trkpt>
      <trkpt lat="48.2407" lon="7.27331">
        <ele>806.6833496</ele>
        <time>2012-02-11T09:49:44Z</time>
      </trkpt>
      <trkpt lat="48.24062" lon="7.27302">
        <ele>809.0866699</ele>
        <time>2012-02-11T09:50:01Z</time>
      </trkpt>
      <trkpt lat="48.24058" lon="7.27287">
        <ele>809.5673828</ele>
        <time>2012-02-11T09:50:24Z</time>
      </trkpt>
      <trkpt lat="48.24058" lon="7.27288">
        <ele>808.605957</ele>
        <time>2012-02-11T09:50:43Z</time>
      </trkpt>
      <trkpt lat="48.24047" lon="7.2726">
        <ele>810.0478516</ele>
        <time>2012-02-11T09:51:03Z</time>
      </trkpt>
      <trkpt lat="48.24041" lon="7.27243">
        <ele>812.451416</ele>
        <time>2012-02-11T09:51:23Z</time>
      </trkpt>
      <trkpt lat="48.24032" lon="7.27221">
        <ele>814.3740234</ele>
        <time>2012-02-11T09:51:40Z</time>
      </trkpt>
      <trkpt lat="48.24029" lon="7.27204">
        <ele>815.8161621</ele>
        <time>2012-02-11T09:52:06Z</time>
      </trkpt>
      <trkpt lat="48.24022" lon="7.27178">
        <ele>817.2580566</ele>
        <time>2012-02-11T09:52:29Z</time>
      </trkpt>
      <trkpt lat="48.24015" lon="7.27155">
        <ele>819.1806641</ele>
        <time>2012-02-11T09:52:48Z</time>
      </trkpt>
      <trkpt lat="48.2401" lon="7.27132">
        <ele>820.1418457</ele>
        <time>2012-02-11T09:53:14Z</time>
      </trkpt>
      <trkpt lat="48.24008" lon="7.27097">
        <ele>822.0644531</ele>
        <time>2012-02-11T09:53:36Z</time>
      </trkpt>
      <trkpt lat="48.24006" lon="7.27064">
        <ele>823.5065918</ele>
        <time>2012-02-11T09:53:51Z</time>
      </trkpt>
      <trkpt lat="48.23996" lon="7.27041">
        <ele>825.4289551</ele>
        <time>2012-02-11T09:54:14Z</time>
      </trkpt>
      <trkpt lat="48.23982" lon="7.27007">
        <ele>826.8710938</ele>
        <time>2012-02-11T09:54:37Z</time>
      </trkpt>
      <trkpt lat="48.23973" lon="7.26978">
        <ele>828.3132324</ele>
        <time>2012-02-11T09:54:58Z</time>
      </trkpt>
      <trkpt lat="48.23965" lon="7.26962">
        <ele>828.7939453</ele>
        <time>2012-02-11T09:55:12Z</time>
      </trkpt>
      <trkpt lat="48.23954" lon="7.2694">
        <ele>829.2744141</ele>
        <time>2012-02-11T09:55:31Z</time>
      </trkpt>
      <trkpt lat="48.23959" lon="7.26934">
        <ele>829.2744141</ele>
        <time>2012-02-11T09:55:48Z</time>
      </trkpt>
      <trkpt lat="48.2396" lon="7.26931">
        <ele>828.3132324</ele>
        <time>2012-02-11T09:56:06Z</time>
      </trkpt>
      <trkpt lat="48.23958" lon="7.26926">
        <ele>828.3132324</ele>
        <time>2012-02-11T09:56:41Z</time>
      </trkpt>
      <trkpt lat="48.23965" lon="7.26922">
        <ele>827.8322754</ele>
        <time>2012-02-11T09:57:02Z</time>
      </trkpt>
      <trkpt lat="48.2396" lon="7.26913">
        <ele>828.3132324</ele>
        <time>2012-02-11T09:57:24Z</time>
      </trkpt>
      <trkpt lat="48.23965" lon="7.26911">
        <ele>826.8710938</ele>
        <time>2012-02-11T09:57:45Z</time>
      </trkpt>
      <trkpt lat="48.23962" lon="7.26904">
        <ele>827.8322754</ele>
        <time>2012-02-11T09:58:00Z</time>
      </trkpt>
      <trkpt lat="48.23955" lon="7.26901">
        <ele>831.1972656</ele>
        <time>2012-02-11T09:58:21Z</time>
      </trkpt>
      <trkpt lat="48.23947" lon="7.26892">
        <ele>834.0810547</ele>
        <time>2012-02-11T09:58:47Z</time>
      </trkpt>
      <trkpt lat="48.23936" lon="7.26888">
        <ele>836.0036621</ele>
        <time>2012-02-11T09:58:58Z</time>
      </trkpt>
      <trkpt lat="48.23929" lon="7.26878">
        <ele>837.4455566</ele>
        <time>2012-02-11T09:59:24Z</time>
      </trkpt>
      <trkpt lat="48.23923" lon="7.26866">
        <ele>838.8876953</ele>
        <time>2012-02-11T09:59:53Z</time>
      </trkpt>
      <trkpt lat="48.23914" lon="7.26851">
        <ele>840.8100586</ele>
        <time>2012-02-11T10:00:24Z</time>
      </trkpt>
      <trkpt lat="48.2391" lon="7.2685">
        <ele>841.2907715</ele>
        <time>2012-02-11T10:00:49Z</time>
      </trkpt>
      <trkpt lat="48.2392" lon="7.26868">
        <ele>844.6555176</ele>
        <time>2012-02-11T10:01:16Z</time>
      </trkpt>
      <trkpt lat="48.23913" lon="7.2689">
        <ele>846.0976563</ele>
        <time>2012-02-11T10:01:36Z</time>
      </trkpt>
      <trkpt lat="48.23922" lon="7.26912">
        <ele>848.5007324</ele>
        <time>2012-02-11T10:01:59Z</time>
      </trkpt>
      <trkpt lat="48.23911" lon="7.26909">
        <ele>851.3847656</ele>
        <time>2012-02-11T10:02:32Z</time>
      </trkpt>
      <trkpt lat="48.23906" lon="7.26895">
        <ele>853.307373</ele>
        <time>2012-02-11T10:03:13Z</time>
      </trkpt>
      <trkpt lat="48.239" lon="7.26884">
        <ele>854.7492676</ele>
        <time>2012-02-11T10:03:27Z</time>
      </trkpt>
      <trkpt lat="48.23893" lon="7.26875">
        <ele>856.671875</ele>
        <time>2012-02-11T10:03:43Z</time>
      </trkpt>
      <trkpt lat="48.23893" lon="7.26888">
        <ele>859.5559082</ele>
        <time>2012-02-11T10:04:07Z</time>
      </trkpt>
      <trkpt lat="48.23895" lon="7.26918">
        <ele>862.9206543</ele>
        <time>2012-02-11T10:04:23Z</time>
      </trkpt>
      <trkpt lat="48.2389" lon="7.26905">
        <ele>862.9206543</ele>
        <time>2012-02-11T10:04:42Z</time>
      </trkpt>
      <trkpt lat="48.23887" lon="7.26893">
        <ele>863.8818359</ele>
        <time>2012-02-11T10:05:03Z</time>
      </trkpt>
      <trkpt lat="48.23882" lon="7.26879">
        <ele>866.7658691</ele>
        <time>2012-02-11T10:05:57Z</time>
      </trkpt>
      <trkpt lat="48.23878" lon="7.2687">
        <ele>868.2077637</ele>
        <time>2012-02-11T10:06:24Z</time>
      </trkpt>
      <trkpt lat="48.23873" lon="7.26863">
        <ele>869.6499023</ele>
        <time>2012-02-11T10:07:46Z</time>
      </trkpt>
      <trkpt lat="48.23875" lon="7.26874">
        <ele>871.0917969</ele>
        <time>2012-02-11T10:08:08Z</time>
      </trkpt>
      <trkpt lat="48.23877" lon="7.26889">
        <ele>873.9755859</ele>
        <time>2012-02-11T10:08:28Z</time>
      </trkpt>
      <trkpt lat="48.23875" lon="7.26903">
        <ele>876.8598633</ele>
        <time>2012-02-11T10:08:52Z</time>
      </trkpt>
      <trkpt lat="48.23866" lon="7.2689">
        <ele>878.7824707</ele>
        <time>2012-02-11T10:09:15Z</time>
      </trkpt>
      <trkpt lat="48.23855" lon="7.26876">
        <ele>881.185791</ele>
        <time>2012-02-11T10:09:36Z</time>
      </trkpt>
      <trkpt lat="48.23848" lon="7.26866">
        <ele>882.6276855</ele>
        <time>2012-02-11T10:10:06Z</time>
      </trkpt>
      <trkpt lat="48.23841" lon="7.26862">
        <ele>885.0310059</ele>
        <time>2012-02-11T10:10:37Z</time>
      </trkpt>
      <trkpt lat="48.23834" lon="7.26851">
        <ele>885.5114746</ele>
        <time>2012-02-11T10:11:19Z</time>
      </trkpt>
      <trkpt lat="48.23832" lon="7.26845">
        <ele>887.434082</ele>
        <time>2012-02-11T10:11:52Z</time>
      </trkpt>
      <trkpt lat="48.23824" lon="7.26832">
        <ele>890.3181152</ele>
        <time>2012-02-11T10:12:15Z</time>
      </trkpt>
      <trkpt lat="48.23821" lon="7.26824">
        <ele>891.7600098</ele>
        <time>2012-02-11T10:12:52Z</time>
      </trkpt>
      <trkpt lat="48.23817" lon="7.26814">
        <ele>894.1635742</ele>
        <time>2012-02-11T10:13:10Z</time>
      </trkpt>
      <trkpt lat="48.23804" lon="7.26834">
        <ele>897.0473633</ele>
        <time>2012-02-11T10:13:53Z</time>
      </trkpt>
      <trkpt lat="48.23801" lon="7.26851">
        <ele>898.0087891</ele>
        <time>2012-02-11T10:14:26Z</time>
      </trkpt>
      <trkpt lat="48.23791" lon="7.26866">
        <ele>898.9699707</ele>
        <time>2012-02-11T10:14:55Z</time>
      </trkpt>
      <trkpt lat="48.23798" lon="7.26871">
        <ele>902.3344727</ele>
        <time>2012-02-11T10:15:23Z</time>
      </trkpt>
      <trkpt lat="48.23794" lon="7.26858">
        <ele>905.2185059</ele>
        <time>2012-02-11T10:16:04Z</time>
      </trkpt>
      <trkpt lat="48.23783" lon="7.2684">
        <ele>908.1027832</ele>
        <time>2012-02-11T10:16:29Z</time>
      </trkpt>
      <trkpt lat="48.23775" lon="7.26816">
        <ele>911.4672852</ele>
        <time>2012-02-11T10:17:01Z</time>
      </trkpt>
      <trkpt lat="48.23763" lon="7.26796">
        <ele>913.3898926</ele>
        <time>2012-02-11T10:18:16Z</time>
      </trkpt>
      <trkpt lat="48.23753" lon="7.26769">
        <ele>916.2736816</ele>
        <time>2012-02-11T10:18:52Z</time>
      </trkpt>
      <trkpt lat="48.23752" lon="7.26764">
        <ele>919.1577148</ele>
        <time>2012-02-11T10:19:17Z</time>
      </trkpt>
      <trkpt lat="48.23749" lon="7.26751">
        <ele>920.5996094</ele>
        <time>2012-02-11T10:21:00Z</time>
      </trkpt>
      <trkpt lat="48.23747" lon="7.26761">
        <ele>923.4836426</ele>
        <time>2012-02-11T10:21:20Z</time>
      </trkpt>
      <trkpt lat="48.23743" lon="7.26777">
        <ele>926.8483887</ele>
        <time>2012-02-11T10:21:47Z</time>
      </trkpt>
      <trkpt lat="48.23741" lon="7.26778">
        <ele>927.8095703</ele>
        <time>2012-02-11T10:22:14Z</time>
      </trkpt>
      <trkpt lat="48.23729" lon="7.26763">
        <ele>931.1743164</ele>
        <time>2012-02-11T10:22:37Z</time>
      </trkpt>
      <trkpt lat="48.23724" lon="7.26759">
        <ele>934.0581055</ele>
        <time>2012-02-11T10:22:57Z</time>
      </trkpt>
      <trkpt lat="48.23713" lon="7.26747">
        <ele>937.4226074</ele>
        <time>2012-02-11T10:23:08Z</time>
      </trkpt>
      <trkpt lat="48.23702" lon="7.26721">
        <ele>937.4226074</ele>
        <time>2012-02-11T10:23:23Z</time>
      </trkpt>
      <trkpt lat="48.23688" lon="7.26707">
        <ele>937.9033203</ele>
        <time>2012-02-11T10:24:11Z</time>
      </trkpt>
      <trkpt lat="48.2368" lon="7.267">
        <ele>937.4226074</ele>
        <time>2012-02-11T10:24:45Z</time>
      </trkpt>
      <trkpt lat="48.23673" lon="7.26698">
        <ele>937.9033203</ele>
        <time>2012-02-11T10:25:00Z</time>
      </trkpt>
      <trkpt lat="48.23667" lon="7.26701">
        <ele>938.8647461</ele>
        <time>2012-02-11T10:25:13Z</time>
      </trkpt>
      <trkpt lat="48.2367" lon="7.26701">
        <ele>937.9033203</ele>
        <time>2012-02-11T10:25:29Z</time>
      </trkpt>
      <trkpt lat="48.23674" lon="7.26712">
        <ele>938.8647461</ele>
        <time>2012-02-11T10:25:42Z</time>
      </trkpt>
      <trkpt lat="48.23673" lon="7.2673">
        <ele>940.3068848</ele>
        <time>2012-02-11T10:25:53Z</time>
      </trkpt>
      <trkpt lat="48.23667" lon="7.26749">
        <ele>940.3068848</ele>
        <time>2012-02-11T10:25:57Z</time>
      </trkpt>
      <trkpt lat="48.23655" lon="7.26766">
        <ele>940.3068848</ele>
        <time>2012-02-11T10:26:00Z</time>
      </trkpt>
      <trkpt lat="48.23649" lon="7.26783">
        <ele>941.7487793</ele>
        <time>2012-02-11T10:26:08Z</time>
      </trkpt>
      <trkpt lat="48.23641" lon="7.26791">
        <ele>941.2680664</ele>
        <time>2012-02-11T10:26:19Z</time>
      </trkpt>
      <trkpt lat="48.23645" lon="7.26797">
        <ele>941.7487793</ele>
        <time>2012-02-11T10:26:35Z</time>
      </trkpt>
      <trkpt lat="48.23646" lon="7.26802">
        <ele>941.7487793</ele>
        <time>2012-02-11T10:26:50Z</time>
      </trkpt>
      <trkpt lat="48.23643" lon="7.2681">
        <ele>942.2294922</ele>
        <time>2012-02-11T10:27:01Z</time>
      </trkpt>
      <trkpt lat="48.23634" lon="7.26825">
        <ele>943.1906738</ele>
        <time>2012-02-11T10:27:16Z</time>
      </trkpt>
      <trkpt lat="48.23624" lon="7.26839">
        <ele>943.1906738</ele>
        <time>2012-02-11T10:27:24Z</time>
      </trkpt>
      <trkpt lat="48.23613" lon="7.26844">
        <ele>942.7102051</ele>
        <time>2012-02-11T10:27:32Z</time>
      </trkpt>
      <trkpt lat="48.23604" lon="7.26844">
        <ele>942.2294922</ele>
        <time>2012-02-11T10:27:39Z</time>
      </trkpt>
      <trkpt lat="48.23601" lon="7.26865">
        <ele>942.7102051</ele>
        <time>2012-02-11T10:27:53Z</time>
      </trkpt>
      <trkpt lat="48.23601" lon="7.26876">
        <ele>942.7102051</ele>
        <time>2012-02-11T10:28:01Z</time>
      </trkpt>
      <trkpt lat="48.23604" lon="7.26886">
        <ele>942.7102051</ele>
        <time>2012-02-11T10:28:16Z</time>
      </trkpt>
      <trkpt lat="48.23603" lon="7.26897">
        <ele>943.1906738</ele>
        <time>2012-02-11T10:28:19Z</time>
      </trkpt>
      <trkpt lat="48.236" lon="7.26919">
        <ele>943.6713867</ele>
        <time>2012-02-11T10:28:37Z</time>
      </trkpt>
      <trkpt lat="48.23599" lon="7.26927">
        <ele>944.1520996</ele>
        <time>2012-02-11T10:28:54Z</time>
      </trkpt>
      <trkpt lat="48.23593" lon="7.26949">
        <ele>945.1132813</ele>
        <time>2012-02-11T10:29:43Z</time>
      </trkpt>
      <trkpt lat="48.23594" lon="7.26952">
        <ele>945.1132813</ele>
        <time>2012-02-11T10:30:04Z</time>
      </trkpt>
      <trkpt lat="48.23595" lon="7.26978">
        <ele>945.5939941</ele>
        <time>2012-02-11T10:30:12Z</time>
      </trkpt>
      <trkpt lat="48.23597" lon="7.2699">
        <ele>945.5939941</ele>
        <time>2012-02-11T10:30:25Z</time>
      </trkpt>
      <trkpt lat="48.23597" lon="7.26987">
        <ele>945.5939941</ele>
        <time>2012-02-11T10:30:33Z</time>
      </trkpt>
      <trkpt lat="48.23599" lon="7.26992">
        <ele>945.1132813</ele>
        <time>2012-02-11T10:30:35Z</time>
      </trkpt>
      <trkpt lat="48.23604" lon="7.27005">
        <ele>943.6713867</ele>
        <time>2012-02-11T10:30:50Z</time>
      </trkpt>
      <trkpt lat="48.23604" lon="7.27006">
        <ele>943.6713867</ele>
        <time>2012-02-11T10:30:53Z</time>
      </trkpt>
      <trkpt lat="48.23603" lon="7.27012">
        <ele>943.6713867</ele>
        <time>2012-02-11T10:31:16Z</time>
      </trkpt>
      <trkpt lat="48.23601" lon="7.27014">
        <ele>942.7102051</ele>
        <time>2012-02-11T10:31:50Z</time>
      </trkpt>
      <trkpt lat="48.23596" lon="7.27037">
        <ele>942.7102051</ele>
        <time>2012-02-11T10:32:08Z</time>
      </trkpt>
      <trkpt lat="48.23596" lon="7.27042">
        <ele>943.1906738</ele>
        <time>2012-02-11T10:32:12Z</time>
      </trkpt>
      <trkpt lat="48.23595" lon="7.27049">
        <ele>943.1906738</ele>
        <time>2012-02-11T10:32:15Z</time>
      </trkpt>
      <trkpt lat="48.23595" lon="7.27049">
        <ele>942.7102051</ele>
        <time>2012-02-11T10:32:17Z</time>
      </trkpt>
      <trkpt lat="48.23595" lon="7.27077">
        <ele>942.7102051</ele>
        <time>2012-02-11T10:32:24Z</time>
      </trkpt>
      <trkpt lat="48.23592" lon="7.27082">
        <ele>943.1906738</ele>
        <time>2012-02-11T10:32:37Z</time>
      </trkpt>
      <trkpt lat="48.23589" lon="7.27085">
        <ele>942.7102051</ele>
        <time>2012-02-11T10:32:42Z</time>
      </trkpt>
      <trkpt lat="48.23588" lon="7.27087">
        <ele>942.2294922</ele>
        <time>2012-02-11T10:32:59Z</time>
      </trkpt>
      <trkpt lat="48.23584" lon="7.27097">
        <ele>942.2294922</ele>
        <time>2012-02-11T10:33:11Z</time>
      </trkpt>
      <trkpt lat="48.23584" lon="7.27113">
        <ele>942.2294922</ele>
        <time>2012-02-11T10:33:24Z</time>
      </trkpt>
      <trkpt lat="48.23581" lon="7.2712">
        <ele>942.2294922</ele>
        <time>2012-02-11T10:33:56Z</time>
      </trkpt>
      <trkpt lat="48.23581" lon="7.27134">
        <ele>943.1906738</ele>
        <time>2012-02-11T10:34:10Z</time>
      </trkpt>
      <trkpt lat="48.2358" lon="7.27141">
        <ele>942.7102051</ele>
        <time>2012-02-11T10:34:29Z</time>
      </trkpt>
      <trkpt lat="48.23577" lon="7.27152">
        <ele>942.7102051</ele>
        <time>2012-02-11T10:40:15Z</time>
      </trkpt>
      <trkpt lat="48.23578" lon="7.27146">
        <ele>942.7102051</ele>
        <time>2012-02-11T10:40:28Z</time>
      </trkpt>
      <trkpt lat="48.23589" lon="7.2715">
        <ele>943.1906738</ele>
        <time>2012-02-11T10:40:38Z</time>
      </trkpt>
      <trkpt lat="48.23597" lon="7.27158">
        <ele>944.1520996</ele>
        <time>2012-02-11T10:40:48Z</time>
      </trkpt>
      <trkpt lat="48.236" lon="7.27163">
        <ele>945.1132813</ele>
        <time>2012-02-11T10:40:50Z</time>
      </trkpt>
      <trkpt lat="48.23593" lon="7.27164">
        <ele>945.1132813</ele>
        <time>2012-02-11T10:40:56Z</time>
      </trkpt>
      <trkpt lat="48.23592" lon="7.27173">
        <ele>944.1520996</ele>
        <time>2012-02-11T10:41:08Z</time>
      </trkpt>
      <trkpt lat="48.23594" lon="7.27185">
        <ele>944.1520996</ele>
        <time>2012-02-11T10:41:12Z</time>
      </trkpt>
      <trkpt lat="48.23596" lon="7.27187">
        <ele>944.1520996</ele>
        <time>2012-02-11T10:41:21Z</time>
      </trkpt>
      <trkpt lat="48.23601" lon="7.27198">
        <ele>944.6325684</ele>
        <time>2012-02-11T10:41:36Z</time>
      </trkpt>
      <trkpt lat="48.23606" lon="7.27212">
        <ele>944.1520996</ele>
        <time>2012-02-11T10:41:52Z</time>
      </trkpt>
      <trkpt lat="48.2361" lon="7.27216">
        <ele>944.1520996</ele>
        <time>2012-02-11T10:42:06Z</time>
      </trkpt>
      <trkpt lat="48.23619" lon="7.27218">
        <ele>944.1520996</ele>
        <time>2012-02-11T10:42:21Z</time>
      </trkpt>
      <trkpt lat="48.23632" lon="7.27213">
        <ele>945.1132813</ele>
        <time>2012-02-11T10:42:36Z</time>
      </trkpt>
      <trkpt lat="48.23646" lon="7.2722">
        <ele>945.1132813</ele>
        <time>2012-02-11T10:42:38Z</time>
      </trkpt>
      <trkpt lat="48.23651" lon="7.27234">
        <ele>943.1906738</ele>
        <time>2012-02-11T10:42:49Z</time>
      </trkpt>
      <trkpt lat="48.23648" lon="7.27254">
        <ele>941.7487793</ele>
        <time>2012-02-11T10:43:04Z</time>
      </trkpt>
      <trkpt lat="48.23642" lon="7.27273">
        <ele>939.8259277</ele>
        <time>2012-02-11T10:43:17Z</time>
      </trkpt>
      <trkpt lat="48.23641" lon="7.27274">
        <ele>939.8259277</ele>
        <time>2012-02-11T10:43:19Z</time>
      </trkpt>
      <trkpt lat="48.23638" lon="7.27293">
        <ele>939.3452148</ele>
        <time>2012-02-11T10:43:21Z</time>
      </trkpt>
      <trkpt lat="48.23631" lon="7.27314">
        <ele>937.9033203</ele>
        <time>2012-02-11T10:43:34Z</time>
      </trkpt>
      <trkpt lat="48.2363" lon="7.27319">
        <ele>936.9418945</ele>
        <time>2012-02-11T10:43:48Z</time>
      </trkpt>
      <trkpt lat="48.23629" lon="7.27323">
        <ele>936.4614258</ele>
        <time>2012-02-11T10:44:11Z</time>
      </trkpt>
      <trkpt lat="48.23628" lon="7.27328">
        <ele>936.4614258</ele>
        <time>2012-02-11T10:44:38Z</time>
      </trkpt>
      <trkpt lat="48.23624" lon="7.27344">
        <ele>935.5</ele>
        <time>2012-02-11T10:45:00Z</time>
      </trkpt>
      <trkpt lat="48.23616" lon="7.27374">
        <ele>933.5773926</ele>
        <time>2012-02-11T10:45:22Z</time>
      </trkpt>
      <trkpt lat="48.23608" lon="7.27415">
        <ele>934.0581055</ele>
        <time>2012-02-11T10:45:49Z</time>
      </trkpt>
      <trkpt lat="48.23603" lon="7.27446">
        <ele>933.5773926</ele>
        <time>2012-02-11T10:46:08Z</time>
      </trkpt>
      <trkpt lat="48.23598" lon="7.27484">
        <ele>933.0966797</ele>
        <time>2012-02-11T10:46:35Z</time>
      </trkpt>
      <trkpt lat="48.23588" lon="7.2751">
        <ele>933.5773926</ele>
        <time>2012-02-11T10:46:55Z</time>
      </trkpt>
      <trkpt lat="48.23574" lon="7.2754">
        <ele>932.6162109</ele>
        <time>2012-02-11T10:47:20Z</time>
      </trkpt>
      <trkpt lat="48.23564" lon="7.27566">
        <ele>932.6162109</ele>
        <time>2012-02-11T10:47:48Z</time>
      </trkpt>
      <trkpt lat="48.23551" lon="7.27601">
        <ele>932.135498</ele>
        <time>2012-02-11T10:48:11Z</time>
      </trkpt>
      <trkpt lat="48.23543" lon="7.27629">
        <ele>930.6936035</ele>
        <time>2012-02-11T10:48:35Z</time>
      </trkpt>
      <trkpt lat="48.23538" lon="7.27652">
        <ele>930.6936035</ele>
        <time>2012-02-11T10:49:01Z</time>
      </trkpt>
      <trkpt lat="48.23519" lon="7.27689">
        <ele>927.8095703</ele>
        <time>2012-02-11T10:49:23Z</time>
      </trkpt>
      <trkpt lat="48.23509" lon="7.27726">
        <ele>925.8869629</ele>
        <time>2012-02-11T10:49:38Z</time>
      </trkpt>
      <trkpt lat="48.2349" lon="7.27755">
        <ele>923.9641113</ele>
        <time>2012-02-11T10:49:58Z</time>
      </trkpt>
      <trkpt lat="48.23471" lon="7.27782">
        <ele>922.5222168</ele>
        <time>2012-02-11T10:50:21Z</time>
      </trkpt>
      <trkpt lat="48.23459" lon="7.27806">
        <ele>921.0803223</ele>
        <time>2012-02-11T10:52:05Z</time>
      </trkpt>
      <trkpt lat="48.23454" lon="7.27827">
        <ele>918.677002</ele>
        <time>2012-02-11T10:52:41Z</time>
      </trkpt>
      <trkpt lat="48.23447" lon="7.27829">
        <ele>918.1962891</ele>
        <time>2012-02-11T10:53:00Z</time>
      </trkpt>
      <trkpt lat="48.23446" lon="7.27833">
        <ele>918.1962891</ele>
        <time>2012-02-11T10:53:24Z</time>
      </trkpt>
      <trkpt lat="48.23419" lon="7.2781">
        <ele>916.2736816</ele>
        <time>2012-02-11T10:54:29Z</time>
      </trkpt>
      <trkpt lat="48.23377" lon="7.27796">
        <ele>914.3510742</ele>
        <time>2012-02-11T10:55:00Z</time>
      </trkpt>
      <trkpt lat="48.23358" lon="7.278">
        <ele>911.4672852</ele>
        <time>2012-02-11T10:56:33Z</time>
      </trkpt>
      <trkpt lat="48.23345" lon="7.27819">
        <ele>912.4284668</ele>
        <time>2012-02-11T10:57:03Z</time>
      </trkpt>
      <trkpt lat="48.23345" lon="7.27822">
        <ele>912.4284668</ele>
        <time>2012-02-11T10:57:34Z</time>
      </trkpt>
      <trkpt lat="48.23329" lon="7.27859">
        <ele>912.4284668</ele>
        <time>2012-02-11T10:58:03Z</time>
      </trkpt>
      <trkpt lat="48.23308" lon="7.27896">
        <ele>913.8703613</ele>
        <time>2012-02-11T10:58:29Z</time>
      </trkpt>
      <trkpt lat="48.23277" lon="7.27938">
        <ele>912.9091797</ele>
        <time>2012-02-11T10:58:53Z</time>
      </trkpt>
      <trkpt lat="48.23245" lon="7.27957">
        <ele>911.4672852</ele>
        <time>2012-02-11T10:59:20Z</time>
      </trkpt>
      <trkpt lat="48.23212" lon="7.27987">
        <ele>911.4672852</ele>
        <time>2012-02-11T10:59:46Z</time>
      </trkpt>
      <trkpt lat="48.23189" lon="7.28001">
        <ele>913.3898926</ele>
        <time>2012-02-11T11:00:11Z</time>
      </trkpt>
      <trkpt lat="48.23162" lon="7.28026">
        <ele>914.3510742</ele>
        <time>2012-02-11T11:00:35Z</time>
      </trkpt>
      <trkpt lat="48.23138" lon="7.28058">
        <ele>913.8703613</ele>
        <time>2012-02-11T11:00:58Z</time>
      </trkpt>
      <trkpt lat="48.23109" lon="7.28089">
        <ele>911.4672852</ele>
        <time>2012-02-11T11:01:20Z</time>
      </trkpt>
      <trkpt lat="48.23081" lon="7.28094">
        <ele>911.4672852</ele>
        <time>2012-02-11T11:01:48Z</time>
      </trkpt>
      <trkpt lat="48.23057" lon="7.28099">
        <ele>911.947998</ele>
        <time>2012-02-11T11:02:20Z</time>
      </trkpt>
      <trkpt lat="48.23029" lon="7.28099">
        <ele>912.4284668</ele>
        <time>2012-02-11T11:02:48Z</time>
      </trkpt>
      <trkpt lat="48.23004" lon="7.28102">
        <ele>912.4284668</ele>
        <time>2012-02-11T11:03:35Z</time>
      </trkpt>
      <trkpt lat="48.22977" lon="7.2812">
        <ele>914.8317871</ele>
        <time>2012-02-11T11:04:41Z</time>
      </trkpt>
      <trkpt lat="48.22964" lon="7.28123">
        <ele>915.3125</ele>
        <time>2012-02-11T11:04:59Z</time>
      </trkpt>
      <trkpt lat="48.22964" lon="7.28119">
        <ele>915.7932129</ele>
        <time>2012-02-11T11:05:23Z</time>
      </trkpt>
      <trkpt lat="48.22965" lon="7.28126">
        <ele>915.3125</ele>
        <time>2012-02-11T11:05:44Z</time>
      </trkpt>
      <trkpt lat="48.22948" lon="7.28083">
        <ele>912.4284668</ele>
        <time>2012-02-11T11:06:06Z</time>
      </trkpt>
      <trkpt lat="48.22926" lon="7.28089">
        <ele>910.0251465</ele>
        <time>2012-02-11T11:06:36Z</time>
      </trkpt>
      <trkpt lat="48.22898" lon="7.28097">
        <ele>906.6604004</ele>
        <time>2012-02-11T11:07:05Z</time>
      </trkpt>
      <trkpt lat="48.22867" lon="7.28098">
        <ele>903.7766113</ele>
        <time>2012-02-11T11:07:43Z</time>
      </trkpt>
      <trkpt lat="48.22842" lon="7.28096">
        <ele>900.4121094</ele>
        <time>2012-02-11T11:08:15Z</time>
      </trkpt>
      <trkpt lat="48.2281" lon="7.28092">
        <ele>897.0473633</ele>
        <time>2012-02-11T11:08:40Z</time>
      </trkpt>
      <trkpt lat="48.22795" lon="7.28083">
        <ele>896.0861816</ele>
        <time>2012-02-11T11:09:00Z</time>
      </trkpt>
      <trkpt lat="48.22798" lon="7.28089">
        <ele>896.0861816</ele>
        <time>2012-02-11T11:09:20Z</time>
      </trkpt>
      <trkpt lat="48.22778" lon="7.28088">
        <ele>892.7216797</ele>
        <time>2012-02-11T11:09:40Z</time>
      </trkpt>
      <trkpt lat="48.22758" lon="7.28083">
        <ele>890.798584</ele>
        <time>2012-02-11T11:10:02Z</time>
      </trkpt>
      <trkpt lat="48.22739" lon="7.28075">
        <ele>887.434082</ele>
        <time>2012-02-11T11:10:20Z</time>
      </trkpt>
      <trkpt lat="48.22716" lon="7.28069">
        <ele>884.550293</ele>
        <time>2012-02-11T11:10:44Z</time>
      </trkpt>
      <trkpt lat="48.22692" lon="7.2806">
        <ele>881.185791</ele>
        <time>2012-02-11T11:11:08Z</time>
      </trkpt>
      <trkpt lat="48.22665" lon="7.28061">
        <ele>878.3017578</ele>
        <time>2012-02-11T11:11:30Z</time>
      </trkpt>
      <trkpt lat="48.22644" lon="7.28054">
        <ele>874.9370117</ele>
        <time>2012-02-11T11:11:46Z</time>
      </trkpt>
      <trkpt lat="48.22622" lon="7.28057">
        <ele>872.0529785</ele>
        <time>2012-02-11T11:12:14Z</time>
      </trkpt>
      <trkpt lat="48.22623" lon="7.28103">
        <ele>868.6884766</ele>
        <time>2012-02-11T11:12:37Z</time>
      </trkpt>
      <trkpt lat="48.22624" lon="7.28143">
        <ele>865.8046875</ele>
        <time>2012-02-11T11:12:56Z</time>
      </trkpt>
      <trkpt lat="48.22622" lon="7.28179">
        <ele>862.4399414</ele>
        <time>2012-02-11T11:13:12Z</time>
      </trkpt>
      <trkpt lat="48.22623" lon="7.28223">
        <ele>859.0751953</ele>
        <time>2012-02-11T11:13:35Z</time>
      </trkpt>
      <trkpt lat="48.2262" lon="7.28268">
        <ele>856.1911621</ele>
        <time>2012-02-11T11:14:06Z</time>
      </trkpt>
      <trkpt lat="48.22622" lon="7.28302">
        <ele>853.7880859</ele>
        <time>2012-02-11T11:14:26Z</time>
      </trkpt>
      <trkpt lat="48.22618" lon="7.28335">
        <ele>850.9040527</ele>
        <time>2012-02-11T11:14:47Z</time>
      </trkpt>
      <trkpt lat="48.22611" lon="7.28364">
        <ele>847.5395508</ele>
        <time>2012-02-11T11:15:03Z</time>
      </trkpt>
      <trkpt lat="48.22606" lon="7.28398">
        <ele>844.1750488</ele>
        <time>2012-02-11T11:15:09Z</time>
      </trkpt>
      <trkpt lat="48.22595" lon="7.28437">
        <ele>840.8100586</ele>
        <time>2012-02-11T11:15:29Z</time>
      </trkpt>
      <trkpt lat="48.2259" lon="7.28464">
        <ele>838.8876953</ele>
        <time>2012-02-11T11:15:50Z</time>
      </trkpt>
      <trkpt lat="48.22576" lon="7.28486">
        <ele>836.0036621</ele>
        <time>2012-02-11T11:15:54Z</time>
      </trkpt>
      <trkpt lat="48.22573" lon="7.28496">
        <ele>835.5229492</ele>
        <time>2012-02-11T11:16:16Z</time>
      </trkpt>
      <trkpt lat="48.22558" lon="7.28526">
        <ele>832.1584473</ele>
        <time>2012-02-11T11:16:41Z</time>
      </trkpt>
      <trkpt lat="48.22541" lon="7.28558">
        <ele>829.2744141</ele>
        <time>2012-02-11T11:17:07Z</time>
      </trkpt>
      <trkpt lat="48.22537" lon="7.28563">
        <ele>828.3132324</ele>
        <time>2012-02-11T11:17:29Z</time>
      </trkpt>
      <trkpt lat="48.22519" lon="7.2859">
        <ele>825.909668</ele>
        <time>2012-02-11T11:17:48Z</time>
      </trkpt>
      <trkpt lat="48.22496" lon="7.28621">
        <ele>823.0258789</ele>
        <time>2012-02-11T11:18:12Z</time>
      </trkpt>
      <trkpt lat="48.22485" lon="7.28635">
        <ele>820.6225586</ele>
        <time>2012-02-11T11:18:32Z</time>
      </trkpt>
      <trkpt lat="48.22467" lon="7.28659">
        <ele>817.7385254</ele>
        <time>2012-02-11T11:18:58Z</time>
      </trkpt>
      <trkpt lat="48.22447" lon="7.28677">
        <ele>814.3740234</ele>
        <time>2012-02-11T11:19:25Z</time>
      </trkpt>
      <trkpt lat="48.22423" lon="7.28704">
        <ele>811.4899902</ele>
        <time>2012-02-11T11:19:51Z</time>
      </trkpt>
      <trkpt lat="48.22404" lon="7.28726">
        <ele>808.1254883</ele>
        <time>2012-02-11T11:20:17Z</time>
      </trkpt>
      <trkpt lat="48.2238" lon="7.28756">
        <ele>804.7607422</ele>
        <time>2012-02-11T11:20:37Z</time>
      </trkpt>
      <trkpt lat="48.22352" lon="7.2877">
        <ele>801.8769531</ele>
        <time>2012-02-11T11:21:11Z</time>
      </trkpt>
      <trkpt lat="48.22336" lon="7.28791">
        <ele>798.512207</ele>
        <time>2012-02-11T11:21:33Z</time>
      </trkpt>
      <trkpt lat="48.22313" lon="7.28818">
        <ele>795.1474609</ele>
        <time>2012-02-11T11:22:00Z</time>
      </trkpt>
      <trkpt lat="48.22288" lon="7.28832">
        <ele>792.2636719</ele>
        <time>2012-02-11T11:22:26Z</time>
      </trkpt>
      <trkpt lat="48.22256" lon="7.28843">
        <ele>788.8991699</ele>
        <time>2012-02-11T11:22:45Z</time>
      </trkpt>
      <trkpt lat="48.22229" lon="7.28855">
        <ele>786.0151367</ele>
        <time>2012-02-11T11:23:10Z</time>
      </trkpt>
      <trkpt lat="48.22205" lon="7.28863">
        <ele>783.1311035</ele>
        <time>2012-02-11T11:23:30Z</time>
      </trkpt>
      <trkpt lat="48.22177" lon="7.28861">
        <ele>779.7663574</ele>
        <time>2012-02-11T11:23:53Z</time>
      </trkpt>
      <trkpt lat="48.22157" lon="7.28846">
        <ele>776.8825684</ele>
        <time>2012-02-11T11:24:14Z</time>
      </trkpt>
      <trkpt lat="48.22133" lon="7.28833">
        <ele>773.9985352</ele>
        <time>2012-02-11T11:24:36Z</time>
      </trkpt>
      <trkpt lat="48.22111" lon="7.28823">
        <ele>770.6340332</ele>
        <time>2012-02-11T11:24:55Z</time>
      </trkpt>
      <trkpt lat="48.22083" lon="7.28819">
        <ele>768.2307129</ele>
        <time>2012-02-11T11:25:14Z</time>
      </trkpt>
      <trkpt lat="48.22057" lon="7.28814">
        <ele>764.8662109</ele>
        <time>2012-02-11T11:25:34Z</time>
      </trkpt>
      <trkpt lat="48.2203" lon="7.28808">
        <ele>761.5014648</ele>
        <time>2012-02-11T11:25:46Z</time>
      </trkpt>
      <trkpt lat="48.22008" lon="7.2881">
        <ele>758.6174316</ele>
        <time>2012-02-11T11:26:08Z</time>
      </trkpt>
      <trkpt lat="48.21981" lon="7.28801">
        <ele>755.7336426</ele>
        <time>2012-02-11T11:26:35Z</time>
      </trkpt>
      <trkpt lat="48.21959" lon="7.28812">
        <ele>752.3688965</ele>
        <time>2012-02-11T11:26:49Z</time>
      </trkpt>
      <trkpt lat="48.21947" lon="7.2882">
        <ele>750.927002</ele>
        <time>2012-02-11T11:27:12Z</time>
      </trkpt>
      <trkpt lat="48.21933" lon="7.28844">
        <ele>747.5622559</ele>
        <time>2012-02-11T11:27:31Z</time>
      </trkpt>
      <trkpt lat="48.21897" lon="7.28863">
        <ele>744.1977539</ele>
        <time>2012-02-11T11:27:49Z</time>
      </trkpt>
      <trkpt lat="48.21887" lon="7.28866">
        <ele>741.3137207</ele>
        <time>2012-02-11T11:28:19Z</time>
      </trkpt>
      <trkpt lat="48.21861" lon="7.28867">
        <ele>737.9492188</ele>
        <time>2012-02-11T11:28:39Z</time>
      </trkpt>
      <trkpt lat="48.2183" lon="7.28887">
        <ele>734.5847168</ele>
        <time>2012-02-11T11:29:01Z</time>
      </trkpt>
      <trkpt lat="48.21813" lon="7.28875">
        <ele>731.7004395</ele>
        <time>2012-02-11T11:29:24Z</time>
      </trkpt>
      <trkpt lat="48.21786" lon="7.28857">
        <ele>728.3359375</ele>
        <time>2012-02-11T11:29:44Z</time>
      </trkpt>
      <trkpt lat="48.21761" lon="7.28858">
        <ele>724.9714355</ele>
        <time>2012-02-11T11:30:01Z</time>
      </trkpt>
      <trkpt lat="48.21739" lon="7.28879">
        <ele>722.0874023</ele>
        <time>2012-02-11T11:30:22Z</time>
      </trkpt>
      <trkpt lat="48.21715" lon="7.28899">
        <ele>718.7229004</ele>
        <time>2012-02-11T11:30:43Z</time>
      </trkpt>
      <trkpt lat="48.21693" lon="7.28911">
        <ele>715.8388672</ele>
        <time>2012-02-11T11:31:02Z</time>
      </trkpt>
      <trkpt lat="48.21674" lon="7.28918">
        <ele>712.4741211</ele>
        <time>2012-02-11T11:31:25Z</time>
      </trkpt>
      <trkpt lat="48.21648" lon="7.28923">
        <ele>709.1096191</ele>
        <time>2012-02-11T11:31:46Z</time>
      </trkpt>
      <trkpt lat="48.21629" lon="7.28893">
        <ele>705.7451172</ele>
        <time>2012-02-11T11:32:26Z</time>
      </trkpt>
      <trkpt lat="48.21613" lon="7.28882">
        <ele>702.861084</ele>
        <time>2012-02-11T11:33:08Z</time>
      </trkpt>
      <trkpt lat="48.21591" lon="7.28897">
        <ele>699.4963379</ele>
        <time>2012-02-11T11:33:42Z</time>
      </trkpt>
      <trkpt lat="48.21575" lon="7.28897">
        <ele>699.9770508</ele>
        <time>2012-02-11T11:39:19Z</time>
      </trkpt>
      <trkpt lat="48.21573" lon="7.28899">
        <ele>699.4963379</ele>
        <time>2012-02-11T11:39:44Z</time>
      </trkpt>
      <trkpt lat="48.21568" lon="7.289">
        <ele>698.5349121</ele>
        <time>2012-02-11T11:40:14Z</time>
      </trkpt>
      <trkpt lat="48.21572" lon="7.28898">
        <ele>699.4963379</ele>
        <time>2012-02-11T11:41:24Z</time>
      </trkpt>
      <trkpt lat="48.21567" lon="7.28904">
        <ele>699.9770508</ele>
        <time>2012-02-11T11:41:58Z</time>
      </trkpt>
      <trkpt lat="48.21573" lon="7.28907">
        <ele>699.9770508</ele>
        <time>2012-02-11T11:42:38Z</time>
      </trkpt>
      <trkpt lat="48.21571" lon="7.28908">
        <ele>700.4580078</ele>
        <time>2012-02-11T11:43:15Z</time>
      </trkpt>
      <trkpt lat="48.21569" lon="7.28905">
        <ele>699.9770508</ele>
        <time>2012-02-11T11:43:54Z</time>
      </trkpt>
      <trkpt lat="48.21566" lon="7.28907">
        <ele>700.4580078</ele>
        <time>2012-02-11T11:44:43Z</time>
      </trkpt>
      <trkpt lat="48.21565" lon="7.28911">
        <ele>699.9770508</ele>
        <time>2012-02-11T11:45:04Z</time>
      </trkpt>
      <trkpt lat="48.21568" lon="7.28914">
        <ele>700.9384766</ele>
        <time>2012-02-11T11:45:23Z</time>
      </trkpt>
      <trkpt lat="48.21569" lon="7.28918">
        <ele>700.9384766</ele>
        <time>2012-02-11T11:45:43Z</time>
      </trkpt>
      <trkpt lat="48.21563" lon="7.28919">
        <ele>701.8999023</ele>
        <time>2012-02-11T11:46:01Z</time>
      </trkpt>
      <trkpt lat="48.21542" lon="7.28916">
        <ele>699.4963379</ele>
        <time>2012-02-11T11:46:18Z</time>
      </trkpt>
      <trkpt lat="48.21518" lon="7.28927">
        <ele>696.1318359</ele>
        <time>2012-02-11T11:46:34Z</time>
      </trkpt>
      <trkpt lat="48.21501" lon="7.28952">
        <ele>693.2478027</ele>
        <time>2012-02-11T11:46:35Z</time>
      </trkpt>
      <trkpt lat="48.21487" lon="7.28953">
        <ele>693.7285156</ele>
        <time>2012-02-11T11:46:44Z</time>
      </trkpt>
      <trkpt lat="48.21492" lon="7.28958">
        <ele>691.3251953</ele>
        <time>2012-02-11T11:46:57Z</time>
      </trkpt>
      <trkpt lat="48.21499" lon="7.28984">
        <ele>688.4414063</ele>
        <time>2012-02-11T11:47:18Z</time>
      </trkpt>
      <trkpt lat="48.215" lon="7.28986">
        <ele>688.4414063</ele>
        <time>2012-02-11T11:47:42Z</time>
      </trkpt>
      <trkpt lat="48.21503" lon="7.29007">
        <ele>685.557373</ele>
        <time>2012-02-11T11:48:01Z</time>
      </trkpt>
      <trkpt lat="48.21512" lon="7.2903">
        <ele>684.5961914</ele>
        <time>2012-02-11T11:48:13Z</time>
      </trkpt>
      <trkpt lat="48.21527" lon="7.29066">
        <ele>681.2314453</ele>
        <time>2012-02-11T11:48:23Z</time>
      </trkpt>
      <trkpt lat="48.21545" lon="7.29103">
        <ele>677.8666992</ele>
        <time>2012-02-11T11:48:34Z</time>
      </trkpt>
      <trkpt lat="48.21554" lon="7.29133">
        <ele>674.9829102</ele>
        <time>2012-02-11T11:48:59Z</time>
      </trkpt>
      <trkpt lat="48.21561" lon="7.29151">
        <ele>672.5795898</ele>
        <time>2012-02-11T11:49:17Z</time>
      </trkpt>
      <trkpt lat="48.21566" lon="7.2917">
        <ele>670.6569824</ele>
        <time>2012-02-11T11:49:36Z</time>
      </trkpt>
      <trkpt lat="48.2157" lon="7.29188">
        <ele>668.734375</ele>
        <time>2012-02-11T11:49:56Z</time>
      </trkpt>
      <trkpt lat="48.21586" lon="7.29227">
        <ele>665.3696289</ele>
        <time>2012-02-11T11:50:24Z</time>
      </trkpt>
      <trkpt lat="48.21603" lon="7.29249">
        <ele>662.4855957</ele>
        <time>2012-02-11T11:50:44Z</time>
      </trkpt>
      <trkpt lat="48.21602" lon="7.29286">
        <ele>660.0822754</ele>
        <time>2012-02-11T11:50:47Z</time>
      </trkpt>
      <trkpt lat="48.21598" lon="7.2931">
        <ele>657.1984863</ele>
        <time>2012-02-11T11:51:13Z</time>
      </trkpt>
      <trkpt lat="48.21588" lon="7.2933">
        <ele>654.795166</ele>
        <time>2012-02-11T11:51:28Z</time>
      </trkpt>
      <trkpt lat="48.21579" lon="7.29367">
        <ele>651.4304199</ele>
        <time>2012-02-11T11:51:29Z</time>
      </trkpt>
      <trkpt lat="48.21578" lon="7.29373">
        <ele>650.4692383</ele>
        <time>2012-02-11T11:51:37Z</time>
      </trkpt>
      <trkpt lat="48.21566" lon="7.29419">
        <ele>647.5852051</ele>
        <time>2012-02-11T11:51:55Z</time>
      </trkpt>
      <trkpt lat="48.21565" lon="7.2944">
        <ele>643.2592773</ele>
        <time>2012-02-11T11:52:07Z</time>
      </trkpt>
      <trkpt lat="48.21565" lon="7.2944">
        <ele>643.7399902</ele>
        <time>2012-02-11T11:52:15Z</time>
      </trkpt>
      <trkpt lat="48.21563" lon="7.29455">
        <ele>642.2980957</ele>
        <time>2012-02-11T11:52:20Z</time>
      </trkpt>
      <trkpt lat="48.21561" lon="7.29494">
        <ele>638.9335938</ele>
        <time>2012-02-11T11:52:29Z</time>
      </trkpt>
      <trkpt lat="48.2156" lon="7.29519">
        <ele>637.972168</ele>
        <time>2012-02-11T11:52:47Z</time>
      </trkpt>
      <trkpt lat="48.2156" lon="7.29536">
        <ele>635.5686035</ele>
        <time>2012-02-11T11:53:13Z</time>
      </trkpt>
      <trkpt lat="48.2156" lon="7.29542">
        <ele>634.6074219</ele>
        <time>2012-02-11T11:54:22Z</time>
      </trkpt>
      <trkpt lat="48.21559" lon="7.2956">
        <ele>633.1652832</ele>
        <time>2012-02-11T11:54:51Z</time>
      </trkpt>
      <trkpt lat="48.21544" lon="7.2958">
        <ele>630.2814941</ele>
        <time>2012-02-11T11:54:59Z</time>
      </trkpt>
      <trkpt lat="48.2153" lon="7.29572">
        <ele>631.2429199</ele>
        <time>2012-02-11T11:55:23Z</time>
      </trkpt>
      <trkpt lat="48.21522" lon="7.29571">
        <ele>631.2429199</ele>
        <time>2012-02-11T11:55:46Z</time>
      </trkpt>
      <trkpt lat="48.21504" lon="7.29575">
        <ele>628.8395996</ele>
        <time>2012-02-11T11:56:11Z</time>
      </trkpt>
      <trkpt lat="48.21494" lon="7.29578">
        <ele>626.9169922</ele>
        <time>2012-02-11T11:56:48Z</time>
      </trkpt>
      <trkpt lat="48.21471" lon="7.2961">
        <ele>623.5524902</ele>
        <time>2012-02-11T11:57:15Z</time>
      </trkpt>
      <trkpt lat="48.2146" lon="7.29646">
        <ele>620.668457</ele>
        <time>2012-02-11T11:57:51Z</time>
      </trkpt>
      <trkpt lat="48.21445" lon="7.29694">
        <ele>617.7841797</ele>
        <time>2012-02-11T11:58:11Z</time>
      </trkpt>
      <trkpt lat="48.21426" lon="7.29755">
        <ele>614.4196777</ele>
        <time>2012-02-11T11:58:33Z</time>
      </trkpt>
      <trkpt lat="48.21406" lon="7.29799">
        <ele>612.4970703</ele>
        <time>2012-02-11T11:58:58Z</time>
      </trkpt>
      <trkpt lat="48.21387" lon="7.29861">
        <ele>611.0551758</ele>
        <time>2012-02-11T11:59:20Z</time>
      </trkpt>
      <trkpt lat="48.21379" lon="7.29892">
        <ele>610.5744629</ele>
        <time>2012-02-11T11:59:48Z</time>
      </trkpt>
      <trkpt lat="48.21366" lon="7.29926">
        <ele>611.0551758</ele>
        <time>2012-02-11T12:00:18Z</time>
      </trkpt>
      <trkpt lat="48.21348" lon="7.29941">
        <ele>610.5744629</ele>
        <time>2012-02-11T12:00:45Z</time>
      </trkpt>
      <trkpt lat="48.21336" lon="7.29953">
        <ele>611.5358887</ele>
        <time>2012-02-11T12:01:15Z</time>
      </trkpt>
      <trkpt lat="48.21307" lon="7.29935">
        <ele>612.9777832</ele>
        <time>2012-02-11T12:01:49Z</time>
      </trkpt>
      <trkpt lat="48.21278" lon="7.29931">
        <ele>615.3811035</ele>
        <time>2012-02-11T12:02:18Z</time>
      </trkpt>
      <trkpt lat="48.21241" lon="7.29946">
        <ele>614.4196777</ele>
        <time>2012-02-11T12:02:54Z</time>
      </trkpt>
      <trkpt lat="48.21204" lon="7.29969">
        <ele>614.9003906</ele>
        <time>2012-02-11T12:03:14Z</time>
      </trkpt>
      <trkpt lat="48.2117" lon="7.29986">
        <ele>616.3422852</ele>
        <time>2012-02-11T12:03:48Z</time>
      </trkpt>
      <trkpt lat="48.21136" lon="7.29994">
        <ele>617.3037109</ele>
        <time>2012-02-11T12:04:05Z</time>
      </trkpt>
      <trkpt lat="48.21099" lon="7.29995">
        <ele>619.2263184</ele>
        <time>2012-02-11T12:04:15Z</time>
      </trkpt>
      <trkpt lat="48.2108" lon="7.30002">
        <ele>622.1103516</ele>
        <time>2012-02-11T12:04:46Z</time>
      </trkpt>
      <trkpt lat="48.21055" lon="7.30017">
        <ele>623.5524902</ele>
        <time>2012-02-11T12:05:41Z</time>
      </trkpt>
      <trkpt lat="48.21038" lon="7.30026">
        <ele>627.3977051</ele>
        <time>2012-02-11T12:06:02Z</time>
      </trkpt>
      <trkpt lat="48.21028" lon="7.30031">
        <ele>624.032959</ele>
        <time>2012-02-11T12:06:25Z</time>
      </trkpt>
      <trkpt lat="48.21032" lon="7.30039">
        <ele>625.4748535</ele>
        <time>2012-02-11T12:06:52Z</time>
      </trkpt>
      <trkpt lat="48.21033" lon="7.30036">
        <ele>624.5136719</ele>
        <time>2012-02-11T12:07:10Z</time>
      </trkpt>
      <trkpt lat="48.21016" lon="7.30052">
        <ele>621.1491699</ele>
        <time>2012-02-11T12:07:34Z</time>
      </trkpt>
      <trkpt lat="48.20994" lon="7.30068">
        <ele>618.2648926</ele>
        <time>2012-02-11T12:08:12Z</time>
      </trkpt>
      <trkpt lat="48.20971" lon="7.30103">
        <ele>613.9389648</ele>
        <time>2012-02-11T12:08:33Z</time>
      </trkpt>
      <trkpt lat="48.20954" lon="7.3012">
        <ele>611.0551758</ele>
        <time>2012-02-11T12:08:58Z</time>
      </trkpt>
      <trkpt lat="48.20932" lon="7.30151">
        <ele>608.1713867</ele>
        <time>2012-02-11T12:09:03Z</time>
      </trkpt>
      <trkpt lat="48.20899" lon="7.30183">
        <ele>605.2873535</ele>
        <time>2012-02-11T12:09:31Z</time>
      </trkpt>
      <trkpt lat="48.20874" lon="7.302">
        <ele>601.9226074</ele>
        <time>2012-02-11T12:10:02Z</time>
      </trkpt>
      <trkpt lat="48.20851" lon="7.30224">
        <ele>600.4807129</ele>
        <time>2012-02-11T12:10:07Z</time>
      </trkpt>
      <trkpt lat="48.20846" lon="7.30229">
        <ele>600</ele>
        <time>2012-02-11T12:10:31Z</time>
      </trkpt>
      <trkpt lat="48.20818" lon="7.30252">
        <ele>599.5192871</ele>
        <time>2012-02-11T12:10:41Z</time>
      </trkpt>
      <trkpt lat="48.20796" lon="7.30286">
        <ele>597.5966797</ele>
        <time>2012-02-11T12:11:22Z</time>
      </trkpt>
      <trkpt lat="48.20791" lon="7.30293">
        <ele>595.6740723</ele>
        <time>2012-02-11T12:11:46Z</time>
      </trkpt>
      <trkpt lat="48.20779" lon="7.30331">
        <ele>592.3095703</ele>
        <time>2012-02-11T12:12:02Z</time>
      </trkpt>
      <trkpt lat="48.2078" lon="7.30349">
        <ele>591.3481445</ele>
        <time>2012-02-11T12:12:13Z</time>
      </trkpt>
      <trkpt lat="48.2077" lon="7.30405">
        <ele>590.8674316</ele>
        <time>2012-02-11T12:12:32Z</time>
      </trkpt>
      <trkpt lat="48.20752" lon="7.30431">
        <ele>591.8288574</ele>
        <time>2012-02-11T12:13:04Z</time>
      </trkpt>
      <trkpt lat="48.20743" lon="7.30448">
        <ele>595.1933594</ele>
        <time>2012-02-11T12:13:37Z</time>
      </trkpt>
      <trkpt lat="48.20736" lon="7.30452">
        <ele>597.5966797</ele>
        <time>2012-02-11T12:13:58Z</time>
      </trkpt>
      <trkpt lat="48.20721" lon="7.30454">
        <ele>601.4418945</ele>
        <time>2012-02-11T12:14:21Z</time>
      </trkpt>
      <trkpt lat="48.2071" lon="7.30456">
        <ele>602.4030762</ele>
        <time>2012-02-11T12:14:49Z</time>
      </trkpt>
      <trkpt lat="48.20696" lon="7.30464">
        <ele>603.8452148</ele>
        <time>2012-02-11T12:15:25Z</time>
      </trkpt>
      <trkpt lat="48.20686" lon="7.30467">
        <ele>607.2099609</ele>
        <time>2012-02-11T12:15:51Z</time>
      </trkpt>
      <trkpt lat="48.20668" lon="7.30468">
        <ele>609.1325684</ele>
        <time>2012-02-11T12:16:01Z</time>
      </trkpt>
      <trkpt lat="48.20646" lon="7.30474">
        <ele>611.5358887</ele>
        <time>2012-02-11T12:16:36Z</time>
      </trkpt>
      <trkpt lat="48.20637" lon="7.30478">
        <ele>614.9003906</ele>
        <time>2012-02-11T12:17:22Z</time>
      </trkpt>
      <trkpt lat="48.20611" lon="7.30492">
        <ele>616.822998</ele>
        <time>2012-02-11T12:17:56Z</time>
      </trkpt>
      <trkpt lat="48.2061" lon="7.30496">
        <ele>614.9003906</ele>
        <time>2012-02-11T12:18:58Z</time>
      </trkpt>
      <trkpt lat="48.2061" lon="7.30495">
        <ele>616.3422852</ele>
        <time>2012-02-11T12:19:26Z</time>
      </trkpt>
      <trkpt lat="48.20606" lon="7.30491">
        <ele>616.3422852</ele>
        <time>2012-02-11T12:19:48Z</time>
      </trkpt>
      <trkpt lat="48.2059" lon="7.30502">
        <ele>616.822998</ele>
        <time>2012-02-11T12:20:30Z</time>
      </trkpt>
      <trkpt lat="48.20576" lon="7.30521">
        <ele>620.1877441</ele>
        <time>2012-02-11T12:21:13Z</time>
      </trkpt>
      <trkpt lat="48.20583" lon="7.30532">
        <ele>623.0717773</ele>
        <time>2012-02-11T12:21:54Z</time>
      </trkpt>
      <trkpt lat="48.20593" lon="7.30535">
        <ele>626.4362793</ele>
        <time>2012-02-11T12:22:28Z</time>
      </trkpt>
      <trkpt lat="48.20595" lon="7.30544">
        <ele>629.3200684</ele>
        <time>2012-02-11T12:22:57Z</time>
      </trkpt>
      <trkpt lat="48.20587" lon="7.30551">
        <ele>629.3200684</ele>
        <time>2012-02-11T12:23:06Z</time>
      </trkpt>
      <trkpt lat="48.2059" lon="7.30539">
        <ele>625.9555664</ele>
        <time>2012-02-11T12:23:28Z</time>
      </trkpt>
      <trkpt lat="48.20577" lon="7.30536">
        <ele>622.5910645</ele>
        <time>2012-02-11T12:23:46Z</time>
      </trkpt>
      <trkpt lat="48.20555" lon="7.30563">
        <ele>622.5910645</ele>
        <time>2012-02-11T12:24:12Z</time>
      </trkpt>
      <trkpt lat="48.20554" lon="7.30571">
        <ele>619.7070313</ele>
        <time>2012-02-11T12:24:29Z</time>
      </trkpt>
      <trkpt lat="48.20536" lon="7.30576">
        <ele>616.822998</ele>
        <time>2012-02-11T12:24:46Z</time>
      </trkpt>
      <trkpt lat="48.20538" lon="7.30596">
        <ele>612.9777832</ele>
        <time>2012-02-11T12:25:08Z</time>
      </trkpt>
      <trkpt lat="48.20546" lon="7.30621">
        <ele>609.6132813</ele>
        <time>2012-02-11T12:25:18Z</time>
      </trkpt>
      <trkpt lat="48.2055" lon="7.30631">
        <ele>606.2485352</ele>
        <time>2012-02-11T12:25:39Z</time>
      </trkpt>
      <trkpt lat="48.20528" lon="7.30633">
        <ele>602.8837891</ele>
        <time>2012-02-11T12:26:12Z</time>
      </trkpt>
      <trkpt lat="48.20521" lon="7.30608">
        <ele>601.4418945</ele>
        <time>2012-02-11T12:27:33Z</time>
      </trkpt>
      <trkpt lat="48.20517" lon="7.30597">
        <ele>599.5192871</ele>
        <time>2012-02-11T12:27:52Z</time>
      </trkpt>
      <trkpt lat="48.205" lon="7.30579">
        <ele>598.0773926</ele>
        <time>2012-02-11T12:28:12Z</time>
      </trkpt>
      <trkpt lat="48.20493" lon="7.30577">
        <ele>597.1159668</ele>
        <time>2012-02-11T12:28:34Z</time>
      </trkpt>
      <trkpt lat="48.20486" lon="7.30564">
        <ele>595.1933594</ele>
        <time>2012-02-11T12:28:51Z</time>
      </trkpt>
      <trkpt lat="48.20488" lon="7.30572">
        <ele>591.8288574</ele>
        <time>2012-02-11T12:29:05Z</time>
      </trkpt>
      <trkpt lat="48.20494" lon="7.30588">
        <ele>590.8674316</ele>
        <time>2012-02-11T12:29:36Z</time>
      </trkpt>
      <trkpt lat="48.20502" lon="7.3061">
        <ele>587.5026855</ele>
        <time>2012-02-11T12:30:01Z</time>
      </trkpt>
      <trkpt lat="48.20501" lon="7.30604">
        <ele>584.6188965</ele>
        <time>2012-02-11T12:30:19Z</time>
      </trkpt>
      <trkpt lat="48.2049" lon="7.306">
        <ele>581.2543945</ele>
        <time>2012-02-11T12:30:37Z</time>
      </trkpt>
      <trkpt lat="48.2047" lon="7.30574">
        <ele>577.8896484</ele>
        <time>2012-02-11T12:30:51Z</time>
      </trkpt>
      <trkpt lat="48.20456" lon="7.30551">
        <ele>574.5251465</ele>
        <time>2012-02-11T12:31:09Z</time>
      </trkpt>
      <trkpt lat="48.2045" lon="7.30531">
        <ele>571.6408691</ele>
        <time>2012-02-11T12:31:34Z</time>
      </trkpt>
      <trkpt lat="48.20446" lon="7.30528">
        <ele>568.2763672</ele>
        <time>2012-02-11T12:32:04Z</time>
      </trkpt>
      <trkpt lat="48.20446" lon="7.30548">
        <ele>565.3925781</ele>
        <time>2012-02-11T12:32:17Z</time>
      </trkpt>
      <trkpt lat="48.20448" lon="7.30571">
        <ele>563.4699707</ele>
        <time>2012-02-11T12:32:35Z</time>
      </trkpt>
      <trkpt lat="48.20452" lon="7.30612">
        <ele>561.0666504</ele>
        <time>2012-02-11T12:32:53Z</time>
      </trkpt>
      <trkpt lat="48.20463" lon="7.30629">
        <ele>558.1828613</ele>
        <time>2012-02-11T12:33:12Z</time>
      </trkpt>
      <trkpt lat="48.20458" lon="7.30631">
        <ele>555.298584</ele>
        <time>2012-02-11T12:33:29Z</time>
      </trkpt>
      <trkpt lat="48.20445" lon="7.30609">
        <ele>551.4533691</ele>
        <time>2012-02-11T12:33:44Z</time>
      </trkpt>
      <trkpt lat="48.20433" lon="7.30596">
        <ele>548.5693359</ele>
        <time>2012-02-11T12:33:57Z</time>
      </trkpt>
      <trkpt lat="48.20424" lon="7.30594">
        <ele>545.6855469</ele>
        <time>2012-02-11T12:34:22Z</time>
      </trkpt>
      <trkpt lat="48.20424" lon="7.30598">
        <ele>542.8015137</ele>
        <time>2012-02-11T12:34:36Z</time>
      </trkpt>
      <trkpt lat="48.20419" lon="7.30597">
        <ele>539.4368896</ele>
        <time>2012-02-11T12:34:58Z</time>
      </trkpt>
      <trkpt lat="48.20406" lon="7.30592">
        <ele>535.5915527</ele>
        <time>2012-02-11T12:35:13Z</time>
      </trkpt>
      <trkpt lat="48.20394" lon="7.30568">
        <ele>535.1109619</ele>
        <time>2012-02-11T12:35:21Z</time>
      </trkpt>
      <trkpt lat="48.20392" lon="7.30559">
        <ele>531.7463379</ele>
        <time>2012-02-11T12:35:41Z</time>
      </trkpt>
      <trkpt lat="48.20392" lon="7.30561">
        <ele>528.3818359</ele>
        <time>2012-02-11T12:35:43Z</time>
      </trkpt>
      <trkpt lat="48.20387" lon="7.30558">
        <ele>525.0172119</ele>
        <time>2012-02-11T12:35:57Z</time>
      </trkpt>
      <trkpt lat="48.20378" lon="7.30557">
        <ele>523.0946045</ele>
        <time>2012-02-11T12:36:27Z</time>
      </trkpt>
      <trkpt lat="48.20362" lon="7.30548">
        <ele>520.2105713</ele>
        <time>2012-02-11T12:37:01Z</time>
      </trkpt>
      <trkpt lat="48.2036" lon="7.30547">
        <ele>519.2492676</ele>
        <time>2012-02-11T12:37:33Z</time>
      </trkpt>
      <trkpt lat="48.20347" lon="7.30537">
        <ele>516.3652344</ele>
        <time>2012-02-11T12:38:07Z</time>
      </trkpt>
      <trkpt lat="48.20356" lon="7.30532">
        <ele>515.4040527</ele>
        <time>2012-02-11T12:38:40Z</time>
      </trkpt>
      <trkpt lat="48.20364" lon="7.30557">
        <ele>514.9233398</ele>
        <time>2012-02-11T12:39:15Z</time>
      </trkpt>
      <trkpt lat="48.20387" lon="7.30595">
        <ele>514.442627</ele>
        <time>2012-02-11T12:39:46Z</time>
      </trkpt>
      <trkpt lat="48.20385" lon="7.30632">
        <ele>514.442627</ele>
        <time>2012-02-11T12:40:16Z</time>
      </trkpt>
      <trkpt lat="48.2037" lon="7.30676">
        <ele>515.4040527</ele>
        <time>2012-02-11T12:40:32Z</time>
      </trkpt>
      <trkpt lat="48.2036" lon="7.30729">
        <ele>515.8846436</ele>
        <time>2012-02-11T12:40:47Z</time>
      </trkpt>
      <trkpt lat="48.20371" lon="7.30757">
        <ele>517.3266602</ele>
        <time>2012-02-11T12:41:06Z</time>
      </trkpt>
      <trkpt lat="48.20394" lon="7.30795">
        <ele>513.9620361</ele>
        <time>2012-02-11T12:41:19Z</time>
      </trkpt>
      <trkpt lat="48.20389" lon="7.30816">
        <ele>511.0780029</ele>
        <time>2012-02-11T12:41:30Z</time>
      </trkpt>
      <trkpt lat="48.20394" lon="7.30831">
        <ele>507.713501</ele>
        <time>2012-02-11T12:41:44Z</time>
      </trkpt>
      <trkpt lat="48.204" lon="7.30853">
        <ele>504.8294678</ele>
        <time>2012-02-11T12:41:57Z</time>
      </trkpt>
      <trkpt lat="48.20401" lon="7.30869">
        <ele>501.4648438</ele>
        <time>2012-02-11T12:42:15Z</time>
      </trkpt>
      <trkpt lat="48.20405" lon="7.30882">
        <ele>498.5809326</ele>
        <time>2012-02-11T12:42:34Z</time>
      </trkpt>
      <trkpt lat="48.20407" lon="7.30897">
        <ele>495.2161865</ele>
        <time>2012-02-11T12:42:49Z</time>
      </trkpt>
      <trkpt lat="48.20411" lon="7.30911">
        <ele>492.3323975</ele>
        <time>2012-02-11T12:43:04Z</time>
      </trkpt>
      <trkpt lat="48.20415" lon="7.30929">
        <ele>488.9677734</ele>
        <time>2012-02-11T12:43:20Z</time>
      </trkpt>
      <trkpt lat="48.20423" lon="7.30952">
        <ele>485.6030273</ele>
        <time>2012-02-11T12:43:37Z</time>
      </trkpt>
      <trkpt lat="48.20434" lon="7.3096">
        <ele>482.2385254</ele>
        <time>2012-02-11T12:43:50Z</time>
      </trkpt>
      <trkpt lat="48.20448" lon="7.30968">
        <ele>481.2772217</ele>
        <time>2012-02-11T12:44:00Z</time>
      </trkpt>
      <trkpt lat="48.20458" lon="7.30977">
        <ele>477.9124756</ele>
        <time>2012-02-11T12:44:14Z</time>
      </trkpt>
      <trkpt lat="48.20461" lon="7.30986">
        <ele>474.5479736</ele>
        <time>2012-02-11T12:44:21Z</time>
      </trkpt>
      <trkpt lat="48.20452" lon="7.30997">
        <ele>471.1833496</ele>
        <time>2012-02-11T12:44:34Z</time>
      </trkpt>
      <trkpt lat="48.20444" lon="7.31007">
        <ele>469.2607422</ele>
        <time>2012-02-11T12:44:45Z</time>
      </trkpt>
      <trkpt lat="48.20434" lon="7.31016">
        <ele>465.8961182</ele>
        <time>2012-02-11T12:44:46Z</time>
      </trkpt>
      <trkpt lat="48.20426" lon="7.31025">
        <ele>464.4541016</ele>
        <time>2012-02-11T12:45:06Z</time>
      </trkpt>
      <trkpt lat="48.20415" lon="7.31036">
        <ele>461.5701904</ele>
        <time>2012-02-11T12:45:18Z</time>
      </trkpt>
      <trkpt lat="48.20406" lon="7.31043">
        <ele>457.7249756</ele>
        <time>2012-02-11T12:45:29Z</time>
      </trkpt>
      <trkpt lat="48.20405" lon="7.31044">
        <ele>457.7249756</ele>
        <time>2012-02-11T12:45:56Z</time>
      </trkpt>
      <trkpt lat="48.20395" lon="7.31039">
        <ele>453.8796387</ele>
        <time>2012-02-11T12:46:04Z</time>
      </trkpt>
      <trkpt lat="48.20389" lon="7.31047">
        <ele>450.5150146</ele>
        <time>2012-02-11T12:46:12Z</time>
      </trkpt>
      <trkpt lat="48.20381" lon="7.31054">
        <ele>447.6309814</ele>
        <time>2012-02-11T12:46:17Z</time>
      </trkpt>
      <trkpt lat="48.20373" lon="7.31063">
        <ele>444.2664795</ele>
        <time>2012-02-11T12:46:25Z</time>
      </trkpt>
      <trkpt lat="48.20368" lon="7.31057">
        <ele>441.8631592</ele>
        <time>2012-02-11T12:46:39Z</time>
      </trkpt>
      <trkpt lat="48.20363" lon="7.31061">
        <ele>439.4597168</ele>
        <time>2012-02-11T12:46:55Z</time>
      </trkpt>
      <trkpt lat="48.2036" lon="7.31063">
        <ele>438.0178223</ele>
        <time>2012-02-11T12:47:12Z</time>
      </trkpt>
      <trkpt lat="48.20352" lon="7.31066">
        <ele>435.614502</ele>
        <time>2012-02-11T12:47:26Z</time>
      </trkpt>
      <trkpt lat="48.20341" lon="7.31069">
        <ele>432.7307129</ele>
        <time>2012-02-11T12:47:56Z</time>
      </trkpt>
      <trkpt lat="48.2033" lon="7.31075">
        <ele>428.885376</ele>
        <time>2012-02-11T12:48:21Z</time>
      </trkpt>
      <trkpt lat="48.20316" lon="7.31078">
        <ele>425.520752</ele>
        <time>2012-02-11T12:48:44Z</time>
      </trkpt>
      <trkpt lat="48.20305" lon="7.31079">
        <ele>421.675415</ele>
        <time>2012-02-11T12:48:59Z</time>
      </trkpt>
      <trkpt lat="48.20294" lon="7.31083">
        <ele>418.7915039</ele>
        <time>2012-02-11T12:49:22Z</time>
      </trkpt>
      <trkpt lat="48.20279" lon="7.31086">
        <ele>415.4268799</ele>
        <time>2012-02-11T12:49:42Z</time>
      </trkpt>
      <trkpt lat="48.20258" lon="7.31072">
        <ele>412.0622559</ele>
        <time>2012-02-11T12:49:59Z</time>
      </trkpt>
      <trkpt lat="48.20249" lon="7.31095">
        <ele>409.1783447</ele>
        <time>2012-02-11T12:50:15Z</time>
      </trkpt>
      <trkpt lat="48.20228" lon="7.31094">
        <ele>407.2556152</ele>
        <time>2012-02-11T12:50:33Z</time>
      </trkpt>
      <trkpt lat="48.20225" lon="7.3106">
        <ele>404.3717041</ele>
        <time>2012-02-11T12:50:43Z</time>
      </trkpt>
      <trkpt lat="48.20215" lon="7.31044">
        <ele>401.0070801</ele>
        <time>2012-02-11T12:51:17Z</time>
      </trkpt>
      <trkpt lat="48.20203" lon="7.31027">
        <ele>397.6424561</ele>
        <time>2012-02-11T12:54:38Z</time>
      </trkpt>
      <trkpt lat="48.20192" lon="7.31015">
        <ele>394.2779541</ele>
        <time>2012-02-11T12:55:28Z</time>
      </trkpt>
      <trkpt lat="48.20184" lon="7.31013">
        <ele>390.913208</ele>
        <time>2012-02-11T12:57:17Z</time>
      </trkpt>
      <trkpt lat="48.20179" lon="7.31005">
        <ele>390.4326172</ele>
        <time>2012-02-11T12:57:54Z</time>
      </trkpt>
      <trkpt lat="48.20189" lon="7.31002">
        <ele>390.913208</ele>
        <time>2012-02-11T13:00:06Z</time>
      </trkpt>
      <trkpt lat="48.20168" lon="7.30999">
        <ele>390.913208</ele>
        <time>2012-02-11T13:03:05Z</time>
      </trkpt>
      <trkpt lat="48.20186" lon="7.31013">
        <ele>392.3553467</ele>
        <time>2012-02-11T13:06:19Z</time>
      </trkpt>
      <trkpt lat="48.2018" lon="7.31006">
        <ele>392.3553467</ele>
        <time>2012-02-11T13:06:20Z</time>
      </trkpt>
      <trkpt lat="48.20191" lon="7.31011">
        <ele>394.2779541</ele>
        <time>2012-02-11T13:06:44Z</time>
      </trkpt>
      <trkpt lat="48.20189" lon="7.3101">
        <ele>397.1617432</ele>
        <time>2012-02-11T13:07:02Z</time>
      </trkpt>
      <trkpt lat="48.20158" lon="7.30996">
        <ele>396.6811523</ele>
        <time>2012-02-11T13:07:27Z</time>
      </trkpt>
      <trkpt lat="48.20156" lon="7.30996">
        <ele>395.2391357</ele>
        <time>2012-02-11T13:07:51Z</time>
      </trkpt>
      <trkpt lat="48.20122" lon="7.31003">
        <ele>392.8359375</ele>
        <time>2012-02-11T13:08:09Z</time>
      </trkpt>
      <trkpt lat="48.20102" lon="7.31007">
        <ele>389.4711914</ele>
        <time>2012-02-11T13:08:26Z</time>
      </trkpt>
      <trkpt lat="48.20079" lon="7.31002">
        <ele>386.1066895</ele>
        <time>2012-02-11T13:08:44Z</time>
      </trkpt>
      <trkpt lat="48.20065" lon="7.30996">
        <ele>384.184082</ele>
        <time>2012-02-11T13:08:57Z</time>
      </trkpt>
      <trkpt lat="48.20046" lon="7.30986">
        <ele>380.819458</ele>
        <time>2012-02-11T13:09:16Z</time>
      </trkpt>
      <trkpt lat="48.2003" lon="7.30996">
        <ele>377.454834</ele>
        <time>2012-02-11T13:09:38Z</time>
      </trkpt>
      <trkpt lat="48.20017" lon="7.31015">
        <ele>374.0900879</ele>
        <time>2012-02-11T13:09:56Z</time>
      </trkpt>
      <trkpt lat="48.20002" lon="7.31021">
        <ele>371.2062988</ele>
        <time>2012-02-11T13:10:09Z</time>
      </trkpt>
      <trkpt lat="48.19988" lon="7.31047">
        <ele>368.8029785</ele>
        <time>2012-02-11T13:10:24Z</time>
      </trkpt>
      <trkpt lat="48.19979" lon="7.31078">
        <ele>365.4383545</ele>
        <time>2012-02-11T13:10:39Z</time>
      </trkpt>
      <trkpt lat="48.19967" lon="7.31094">
        <ele>362.0737305</ele>
        <time>2012-02-11T13:10:50Z</time>
      </trkpt>
      <trkpt lat="48.19962" lon="7.31111">
        <ele>359.1896973</ele>
        <time>2012-02-11T13:11:01Z</time>
      </trkpt>
      <trkpt lat="48.19957" lon="7.31122">
        <ele>355.8251953</ele>
        <time>2012-02-11T13:11:17Z</time>
      </trkpt>
      <trkpt lat="48.19944" lon="7.3113">
        <ele>352.4605713</ele>
        <time>2012-02-11T13:11:18Z</time>
      </trkpt>
      <trkpt lat="48.19936" lon="7.31138">
        <ele>350.057251</ele>
        <time>2012-02-11T13:11:33Z</time>
      </trkpt>
      <trkpt lat="48.19926" lon="7.31146">
        <ele>347.6539307</ele>
        <time>2012-02-11T13:11:50Z</time>
      </trkpt>
      <trkpt lat="48.19914" lon="7.31154">
        <ele>344.2894287</ele>
        <time>2012-02-11T13:11:52Z</time>
      </trkpt>
      <trkpt lat="48.19914" lon="7.31154">
        <ele>344.2894287</ele>
        <time>2012-02-11T13:12:06Z</time>
      </trkpt>
      <trkpt lat="48.199" lon="7.31161">
        <ele>341.4052734</ele>
        <time>2012-02-11T13:12:07Z</time>
      </trkpt>
      <trkpt lat="48.1989" lon="7.31171">
        <ele>337.5600586</ele>
        <time>2012-02-11T13:12:20Z</time>
      </trkpt>
      <trkpt lat="48.19888" lon="7.3117">
        <ele>337.0794678</ele>
        <time>2012-02-11T13:12:35Z</time>
      </trkpt>
      <trkpt lat="48.19879" lon="7.31179">
        <ele>333.7147217</ele>
        <time>2012-02-11T13:12:47Z</time>
      </trkpt>
      <trkpt lat="48.19879" lon="7.31179">
        <ele>333.2341309</ele>
        <time>2012-02-11T13:12:51Z</time>
      </trkpt>
      <trkpt lat="48.1987" lon="7.31183">
        <ele>330.3502197</ele>
        <time>2012-02-11T13:13:09Z</time>
      </trkpt>
      <trkpt lat="48.19854" lon="7.31186">
        <ele>328.4276123</ele>
        <time>2012-02-11T13:13:31Z</time>
      </trkpt>
      <trkpt lat="48.19843" lon="7.31193">
        <ele>326.0241699</ele>
        <time>2012-02-11T13:14:12Z</time>
      </trkpt>
      <trkpt lat="48.19838" lon="7.31195">
        <ele>325.5435791</ele>
        <time>2012-02-11T13:14:38Z</time>
      </trkpt>
      <trkpt lat="48.19823" lon="7.31205">
        <ele>322.659668</ele>
        <time>2012-02-11T13:15:00Z</time>
      </trkpt>
      <trkpt lat="48.19815" lon="7.3121">
        <ele>322.1789551</ele>
        <time>2012-02-11T13:15:16Z</time>
      </trkpt>
      <trkpt lat="48.19811" lon="7.31232">
        <ele>319.2950439</ele>
        <time>2012-02-11T13:15:29Z</time>
      </trkpt>
      <trkpt lat="48.19806" lon="7.31245">
        <ele>316.8917236</ele>
        <time>2012-02-11T13:15:49Z</time>
      </trkpt>
      <trkpt lat="48.19804" lon="7.31259">
        <ele>315.4498291</ele>
        <time>2012-02-11T13:16:04Z</time>
      </trkpt>
      <trkpt lat="48.19808" lon="7.31274">
        <ele>312.0852051</ele>
        <time>2012-02-11T13:16:21Z</time>
      </trkpt>
      <trkpt lat="48.19805" lon="7.31291">
        <ele>310.1624756</ele>
        <time>2012-02-11T13:16:31Z</time>
      </trkpt>
      <trkpt lat="48.1981" lon="7.31316">
        <ele>306.3172607</ele>
        <time>2012-02-11T13:16:46Z</time>
      </trkpt>
      <trkpt lat="48.19812" lon="7.31339">
        <ele>302.4719238</ele>
        <time>2012-02-11T13:17:00Z</time>
      </trkpt>
      <trkpt lat="48.1982" lon="7.3136">
        <ele>299.5880127</ele>
        <time>2012-02-11T13:17:01Z</time>
      </trkpt>
      <trkpt lat="48.1982" lon="7.31373">
        <ele>297.1846924</ele>
        <time>2012-02-11T13:17:15Z</time>
      </trkpt>
      <trkpt lat="48.1982" lon="7.31396">
        <ele>294.3007813</ele>
        <time>2012-02-11T13:17:17Z</time>
      </trkpt>
      <trkpt lat="48.19824" lon="7.31416">
        <ele>290.4555664</ele>
        <time>2012-02-11T13:17:25Z</time>
      </trkpt>
      <trkpt lat="48.19824" lon="7.31418">
        <ele>290.4555664</ele>
        <time>2012-02-11T13:17:41Z</time>
      </trkpt>
      <trkpt lat="48.19825" lon="7.31437">
        <ele>287.0908203</ele>
        <time>2012-02-11T13:17:46Z</time>
      </trkpt>
      <trkpt lat="48.19823" lon="7.3144">
        <ele>286.6102295</ele>
        <time>2012-02-11T13:18:09Z</time>
      </trkpt>
      <trkpt lat="48.19817" lon="7.3145">
        <ele>283.2456055</ele>
        <time>2012-02-11T13:18:32Z</time>
      </trkpt>
      <trkpt lat="48.19816" lon="7.31463">
        <ele>282.7650146</ele>
        <time>2012-02-11T13:18:51Z</time>
      </trkpt>
      <trkpt lat="48.19818" lon="7.31468">
        <ele>280.8424072</ele>
        <time>2012-02-11T13:19:09Z</time>
      </trkpt>
      <trkpt lat="48.19841" lon="7.31468">
        <ele>277.958252</ele>
        <time>2012-02-11T13:19:32Z</time>
      </trkpt>
      <trkpt lat="48.19864" lon="7.31477">
        <ele>274.59375</ele>
        <time>2012-02-11T13:20:00Z</time>
      </trkpt>
      <trkpt lat="48.19896" lon="7.31507">
        <ele>271.229126</ele>
        <time>2012-02-11T13:20:02Z</time>
      </trkpt>
      <trkpt lat="48.19903" lon="7.31539">
        <ele>272.1904297</ele>
        <time>2012-02-11T13:20:27Z</time>
      </trkpt>
      <trkpt lat="48.19878" lon="7.31566">
        <ele>272.1904297</ele>
        <time>2012-02-11T13:20:48Z</time>
      </trkpt>
      <trkpt lat="48.19858" lon="7.31606">
        <ele>269.7871094</ele>
        <time>2012-02-11T13:20:54Z</time>
      </trkpt>
      <trkpt lat="48.19855" lon="7.31607">
        <ele>268.8258057</ele>
        <time>2012-02-11T13:21:08Z</time>
      </trkpt>
      <trkpt lat="48.19833" lon="7.31633">
        <ele>266.9031982</ele>
        <time>2012-02-11T13:21:33Z</time>
      </trkpt>
      <trkpt lat="48.19822" lon="7.31663">
        <ele>266.9031982</ele>
        <time>2012-02-11T13:22:02Z</time>
      </trkpt>
      <trkpt lat="48.19822" lon="7.31663">
        <ele>266.4224854</ele>
        <time>2012-02-11T13:22:10Z</time>
      </trkpt>
      <trkpt lat="48.19812" lon="7.31673">
        <ele>264.0192871</ele>
        <time>2012-02-11T13:22:31Z</time>
      </trkpt>
      <trkpt lat="48.19794" lon="7.31697">
        <ele>261.1352539</ele>
        <time>2012-02-11T13:22:51Z</time>
      </trkpt>
      <trkpt lat="48.19767" lon="7.31718">
        <ele>259.6933594</ele>
        <time>2012-02-11T13:23:11Z</time>
      </trkpt>
      <trkpt lat="48.19759" lon="7.31722">
        <ele>258.7319336</ele>
        <time>2012-02-11T13:23:38Z</time>
      </trkpt>
      <trkpt lat="48.19742" lon="7.31743">
        <ele>257.2900391</ele>
        <time>2012-02-11T13:24:02Z</time>
      </trkpt>
      <trkpt lat="48.19723" lon="7.31766">
        <ele>256.3287354</ele>
        <time>2012-02-11T13:24:24Z</time>
      </trkpt>
      <trkpt lat="48.19706" lon="7.31778">
        <ele>255.3673096</ele>
        <time>2012-02-11T13:24:31Z</time>
      </trkpt>
      <trkpt lat="48.19675" lon="7.3181">
        <ele>252.9639893</ele>
        <time>2012-02-11T13:25:03Z</time>
      </trkpt>
      <trkpt lat="48.19652" lon="7.31822">
        <ele>251.0413818</ele>
        <time>2012-02-11T13:25:24Z</time>
      </trkpt>
      <trkpt lat="48.19643" lon="7.31852">
        <ele>248.1575928</ele>
        <time>2012-02-11T13:25:57Z</time>
      </trkpt>
      <trkpt lat="48.19641" lon="7.31861">
        <ele>247.1960449</ele>
        <time>2012-02-11T13:26:27Z</time>
      </trkpt>
      <trkpt lat="48.19623" lon="7.31901">
        <ele>245.2734375</ele>
        <time>2012-02-11T13:26:44Z</time>
      </trkpt>
      <trkpt lat="48.19599" lon="7.3191">
        <ele>243.3508301</ele>
        <time>2012-02-11T13:27:23Z</time>
      </trkpt>
      <trkpt lat="48.19586" lon="7.31876">
        <ele>241.4282227</ele>
        <time>2012-02-11T13:27:43Z</time>
      </trkpt>
      <trkpt lat="48.19563" lon="7.31845">
        <ele>240.9476318</ele>
        <time>2012-02-11T13:28:23Z</time>
      </trkpt>
      <trkpt lat="48.19551" lon="7.31827">
        <ele>240.467041</ele>
        <time>2012-02-11T13:28:49Z</time>
      </trkpt>
      <trkpt lat="48.19551" lon="7.31825">
        <ele>240.9476318</ele>
        <time>2012-02-11T13:29:22Z</time>
      </trkpt>
      <trkpt lat="48.19549" lon="7.31841">
        <ele>240.467041</ele>
        <time>2012-02-11T13:29:45Z</time>
      </trkpt>
      <trkpt lat="48.19523" lon="7.3187">
        <ele>239.0249023</ele>
        <time>2012-02-11T13:30:08Z</time>
      </trkpt>
      <trkpt lat="48.1952" lon="7.31892">
        <ele>238.5443115</ele>
        <time>2012-02-11T13:30:29Z</time>
      </trkpt>
      <trkpt lat="48.19533" lon="7.31907">
        <ele>239.5054932</ele>
        <time>2012-02-11T13:56:52Z</time>
      </trkpt>
      <trkpt lat="48.19518" lon="7.31931">
        <ele>238.5443115</ele>
        <time>2012-02-11T13:57:32Z</time>
      </trkpt>
      <trkpt lat="48.1951" lon="7.31923">
        <ele>238.5443115</ele>
        <time>2012-02-11T13:59:12Z</time>
      </trkpt>
      <trkpt lat="48.19501" lon="7.31951">
        <ele>237.1022949</ele>
        <time>2012-02-11T13:59:38Z</time>
      </trkpt>
      <trkpt lat="48.19485" lon="7.31971">
        <ele>251.6</ele>
        <time>2012-02-11T13:59:58Z</time>
      </trkpt>
      <trkpt lat="48.19477" lon="7.32004">
        <ele>251.2</ele>
        <time>2012-02-11T14:00:15Z</time>
      </trkpt>
      <trkpt lat="48.19456" lon="7.32049">
        <ele>251.2</ele>
        <time>2012-02-11T14:00:40Z</time>
      </trkpt>
      <trkpt lat="48.19445" lon="7.3209">
        <ele>250.7</ele>
        <time>2012-02-11T14:00:57Z</time>
      </trkpt>
      <trkpt lat="48.19434" lon="7.3213">
        <ele>250.4</ele>
        <time>2012-02-11T14:01:05Z</time>
      </trkpt>
      <trkpt lat="48.1941" lon="7.32196">
        <ele>248</ele>
        <time>2012-02-11T14:01:28Z</time>
      </trkpt>
      <trkpt lat="48.19402" lon="7.32219">
        <ele>233.2570801</ele>
        <time>2012-02-11T14:02:30Z</time>
      </trkpt>
      <trkpt lat="48.19395" lon="7.32224">
        <ele>232.7764893</ele>
        <time>2012-02-11T14:02:33Z</time>
      </trkpt>
      <trkpt lat="48.19379" lon="7.32217">
        <ele>232.2957764</ele>
        <time>2012-02-11T14:08:47Z</time>
      </trkpt>
      <trkpt lat="48.19354" lon="7.32193">
        <ele>234.2183838</ele>
        <time>2012-02-11T14:08:58Z</time>
      </trkpt>
      <trkpt lat="48.19335" lon="7.32186">
        <ele>234.2183838</ele>
        <time>2012-02-11T14:09:21Z</time>
      </trkpt>
      <trkpt lat="48.19307" lon="7.32151">
        <ele>233.2570801</ele>
        <time>2012-02-11T14:09:38Z</time>
      </trkpt>
      <trkpt lat="48.19306" lon="7.32151">
        <ele>234.2183838</ele>
        <time>2012-02-11T14:11:00Z</time>
      </trkpt>
      <trkpt lat="48.19312" lon="7.3214">
        <ele>234.2183838</ele>
        <time>2012-02-11T14:11:20Z</time>
      </trkpt>
      <trkpt lat="48.19308" lon="7.3215">
        <ele>234.2183838</ele>
        <time>2012-02-11T14:11:40Z</time>
      </trkpt>
      <trkpt lat="48.19303" lon="7.32148">
        <ele>233.7376709</ele>
        <time>2012-02-11T14:11:54Z</time>
      </trkpt>
      <trkpt lat="48.19295" lon="7.32146">
        <ele>233.7376709</ele>
        <time>2012-02-11T14:12:15Z</time>
      </trkpt>
      <trkpt lat="48.19295" lon="7.32146">
        <ele>235.6602783</ele>
        <time>2012-02-11T14:12:36Z</time>
      </trkpt>
      <trkpt lat="48.19275" lon="7.32124">
        <ele>250.1</ele>
        <time>2012-02-11T14:12:59Z</time>
      </trkpt>
      <trkpt lat="48.19294" lon="7.32035">
        <ele>254.7</ele>
        <time>2012-02-11T14:13:27Z</time>
      </trkpt>
      <trkpt lat="48.19303" lon="7.31969">
        <ele>258.1</ele>
        <time>2012-02-11T14:13:50Z</time>
      </trkpt>
      <trkpt lat="48.19291" lon="7.31948">
        <ele>258.9</ele>
        <time>2012-02-11T14:14:09Z</time>
      </trkpt>
      <trkpt lat="48.19261" lon="7.31925">
        <ele>261.8</ele>
        <time>2012-02-11T14:14:36Z</time>
      </trkpt>
      <trkpt lat="48.19261" lon="7.31905">
        <ele>256.8093262</ele>
        <time>2012-02-11T14:15:05Z</time>
      </trkpt>
      <trkpt lat="48.19264" lon="7.31884">
        <ele>258.7319336</ele>
        <time>2012-02-11T14:15:34Z</time>
      </trkpt>
      <trkpt lat="48.19272" lon="7.31854">
        <ele>259.6933594</ele>
        <time>2012-02-11T14:16:42Z</time>
      </trkpt>
      <trkpt lat="48.1928" lon="7.3183">
        <ele>260.654541</ele>
        <time>2012-02-11T14:19:23Z</time>
      </trkpt>
      <trkpt lat="48.19299" lon="7.31756">
        <ele>264.0192871</ele>
        <time>2012-02-11T14:19:47Z</time>
      </trkpt>
      <trkpt lat="48.19301" lon="7.31726">
        <ele>264.0192871</ele>
        <time>2012-02-11T14:19:57Z</time>
      </trkpt>
      <trkpt lat="48.19307" lon="7.31693">
        <ele>264.9805908</ele>
        <time>2012-02-11T14:20:21Z</time>
      </trkpt>
      <trkpt lat="48.19314" lon="7.31669">
        <ele>265.9418945</ele>
        <time>2012-02-11T14:20:47Z</time>
      </trkpt>
      <trkpt lat="48.19316" lon="7.31639">
        <ele>266.9031982</ele>
        <time>2012-02-11T14:21:02Z</time>
      </trkpt>
      <trkpt lat="48.19323" lon="7.31617">
        <ele>267.3839111</ele>
        <time>2012-02-11T14:21:26Z</time>
      </trkpt>
      <trkpt lat="48.1933" lon="7.31591">
        <ele>265.9418945</ele>
        <time>2012-02-11T14:21:36Z</time>
      </trkpt>
      <trkpt lat="48.19337" lon="7.31542">
        <ele>266.9031982</ele>
        <time>2012-02-11T14:21:53Z</time>
      </trkpt>
      <trkpt lat="48.19347" lon="7.31497">
        <ele>265.4613037</ele>
        <time>2012-02-11T14:22:08Z</time>
      </trkpt>
      <trkpt lat="48.19355" lon="7.31463">
        <ele>263.0578613</ele>
        <time>2012-02-11T14:22:12Z</time>
      </trkpt>
      <trkpt lat="48.19363" lon="7.3144">
        <ele>263.5385742</ele>
        <time>2012-02-11T14:22:20Z</time>
      </trkpt>
      <trkpt lat="48.19386" lon="7.31409">
        <ele>261.6159668</ele>
        <time>2012-02-11T14:22:33Z</time>
      </trkpt>
      <trkpt lat="48.19391" lon="7.31385">
        <ele>262.0965576</ele>
        <time>2012-02-11T14:22:51Z</time>
      </trkpt>
      <trkpt lat="48.19391" lon="7.31383">
        <ele>262.0965576</ele>
        <time>2012-02-11T14:22:56Z</time>
      </trkpt>
      <trkpt lat="48.19376" lon="7.31376">
        <ele>262.0965576</ele>
        <time>2012-02-11T14:23:10Z</time>
      </trkpt>
      <trkpt lat="48.19354" lon="7.31345">
        <ele>264.4998779</ele>
        <time>2012-02-11T14:23:27Z</time>
      </trkpt>
      <trkpt lat="48.1934" lon="7.31331">
        <ele>265.4613037</ele>
        <time>2012-02-11T14:23:39Z</time>
      </trkpt>
      <trkpt lat="48.19314" lon="7.31315">
        <ele>267.864502</ele>
        <time>2012-02-11T14:24:01Z</time>
      </trkpt>
      <trkpt lat="48.19288" lon="7.31286">
        <ele>270.7484131</ele>
        <time>2012-02-11T14:24:23Z</time>
      </trkpt>
      <trkpt lat="48.19274" lon="7.31264">
        <ele>271.229126</ele>
        <time>2012-02-11T14:24:35Z</time>
      </trkpt>
      <trkpt lat="48.19253" lon="7.31228">
        <ele>272.6711426</ele>
        <time>2012-02-11T14:24:37Z</time>
      </trkpt>
      <trkpt lat="48.1924" lon="7.3122">
        <ele>274.1130371</ele>
        <time>2012-02-11T14:24:38Z</time>
      </trkpt>
      <trkpt lat="48.19221" lon="7.31213">
        <ele>276.0356445</ele>
        <time>2012-02-11T14:24:42Z</time>
      </trkpt>
      <trkpt lat="48.19201" lon="7.31202">
        <ele>276.5163574</ele>
        <time>2012-02-11T14:24:44Z</time>
      </trkpt>
      <trkpt lat="48.19197" lon="7.31199">
        <ele>276.0356445</ele>
        <time>2012-02-11T14:24:47Z</time>
      </trkpt>
      <trkpt lat="48.19187" lon="7.31193">
        <ele>276.9970703</ele>
        <time>2012-02-11T14:24:50Z</time>
      </trkpt>
      <trkpt lat="48.19172" lon="7.31185">
        <ele>277.958252</ele>
        <time>2012-02-11T14:24:52Z</time>
      </trkpt>
      <trkpt lat="48.19152" lon="7.3117">
        <ele>279.8808594</ele>
        <time>2012-02-11T14:25:09Z</time>
      </trkpt>
      <trkpt lat="48.19146" lon="7.31167">
        <ele>280.8424072</ele>
        <time>2012-02-11T14:25:27Z</time>
      </trkpt>
      <trkpt lat="48.19129" lon="7.3116">
        <ele>282.7650146</ele>
        <time>2012-02-11T14:26:06Z</time>
      </trkpt>
      <trkpt lat="48.19112" lon="7.31146">
        <ele>284.6876221</ele>
        <time>2012-02-11T14:26:13Z</time>
      </trkpt>
      <trkpt lat="48.19103" lon="7.31142">
        <ele>286.6102295</ele>
        <time>2012-02-11T14:26:32Z</time>
      </trkpt>
      <trkpt lat="48.19093" lon="7.31138">
        <ele>287.0908203</ele>
        <time>2012-02-11T14:26:47Z</time>
      </trkpt>
      <trkpt lat="48.19069" lon="7.31122">
        <ele>289.0135498</ele>
        <time>2012-02-11T14:26:50Z</time>
      </trkpt>
      <trkpt lat="48.19057" lon="7.31118">
        <ele>290.9361572</ele>
        <time>2012-02-11T14:27:00Z</time>
      </trkpt>
      <trkpt lat="48.19054" lon="7.31117">
        <ele>292.3781738</ele>
        <time>2012-02-11T14:27:16Z</time>
      </trkpt>
      <trkpt lat="48.19053" lon="7.31116">
        <ele>292.3781738</ele>
        <time>2012-02-11T14:28:26Z</time>
      </trkpt>
      <trkpt lat="48.19048" lon="7.31117">
        <ele>292.3781738</ele>
        <time>2012-02-11T14:28:30Z</time>
      </trkpt>
      <trkpt lat="48.19046" lon="7.31117">
        <ele>292.3781738</ele>
        <time>2012-02-11T14:28:45Z</time>
      </trkpt>
      <trkpt lat="48.19042" lon="7.31116">
        <ele>292.8587646</ele>
        <time>2012-02-11T14:29:14Z</time>
      </trkpt>
      <trkpt lat="48.1904" lon="7.31115">
        <ele>293.8200684</ele>
        <time>2012-02-11T14:29:31Z</time>
      </trkpt>
      <trkpt lat="48.19039" lon="7.31115">
        <ele>294.3007813</ele>
        <time>2012-02-11T14:30:28Z</time>
      </trkpt>
      <trkpt lat="48.19018" lon="7.31112">
        <ele>296.7041016</ele>
        <time>2012-02-11T14:30:43Z</time>
      </trkpt>
      <trkpt lat="48.19006" lon="7.31108">
        <ele>298.1461182</ele>
        <time>2012-02-11T14:31:04Z</time>
      </trkpt>
      <trkpt lat="48.18999" lon="7.31114">
        <ele>299.5880127</ele>
        <time>2012-02-11T14:31:19Z</time>
      </trkpt>
      <trkpt lat="48.18993" lon="7.31117">
        <ele>301.0299072</ele>
        <time>2012-02-11T14:31:37Z</time>
      </trkpt>
      <trkpt lat="48.18968" lon="7.31115">
        <ele>301.991333</ele>
        <time>2012-02-11T14:31:52Z</time>
      </trkpt>
      <trkpt lat="48.18949" lon="7.3111">
        <ele>302.9525146</ele>
        <time>2012-02-11T14:32:06Z</time>
      </trkpt>
      <trkpt lat="48.18947" lon="7.31111">
        <ele>302.4719238</ele>
        <time>2012-02-11T14:32:18Z</time>
      </trkpt>
      <trkpt lat="48.18935" lon="7.31107">
        <ele>302.4719238</ele>
        <time>2012-02-11T14:32:33Z</time>
      </trkpt>
      <trkpt lat="48.18926" lon="7.31109">
        <ele>301.991333</ele>
        <time>2012-02-11T14:32:47Z</time>
      </trkpt>
      <trkpt lat="48.18921" lon="7.3111">
        <ele>301.991333</ele>
        <time>2012-02-11T14:33:21Z</time>
      </trkpt>
      <trkpt lat="48.18914" lon="7.31108">
        <ele>301.991333</ele>
        <time>2012-02-11T14:33:27Z</time>
      </trkpt>
      <trkpt lat="48.18892" lon="7.31104">
        <ele>301.5106201</ele>
        <time>2012-02-11T14:33:30Z</time>
      </trkpt>
      <trkpt lat="48.18891" lon="7.31105">
        <ele>301.5106201</ele>
        <time>2012-02-11T14:33:52Z</time>
      </trkpt>
      <trkpt lat="48.18884" lon="7.31098">
        <ele>301.0299072</ele>
        <time>2012-02-11T14:34:08Z</time>
      </trkpt>
      <trkpt lat="48.1887" lon="7.31089">
        <ele>300.5493164</ele>
        <time>2012-02-11T14:34:43Z</time>
      </trkpt>
      <trkpt lat="48.18851" lon="7.31087">
        <ele>300.0687256</ele>
        <time>2012-02-11T14:34:48Z</time>
      </trkpt>
      <trkpt lat="48.18828" lon="7.31075">
        <ele>299.1072998</ele>
        <time>2012-02-11T14:35:01Z</time>
      </trkpt>
      <trkpt lat="48.18811" lon="7.31063">
        <ele>297.6654053</ele>
        <time>2012-02-11T14:35:25Z</time>
      </trkpt>
      <trkpt lat="48.18788" lon="7.31058">
        <ele>295.7426758</ele>
        <time>2012-02-11T14:35:40Z</time>
      </trkpt>
      <trkpt lat="48.18771" lon="7.31051">
        <ele>294.7813721</ele>
        <time>2012-02-11T14:35:48Z</time>
      </trkpt>
      <trkpt lat="48.18753" lon="7.31048">
        <ele>294.3007813</ele>
        <time>2012-02-11T14:36:01Z</time>
      </trkpt>
      <trkpt lat="48.18739" lon="7.31042">
        <ele>293.3393555</ele>
        <time>2012-02-11T14:36:11Z</time>
      </trkpt>
      <trkpt lat="48.18719" lon="7.31036">
        <ele>292.8587646</ele>
        <time>2012-02-11T14:36:30Z</time>
      </trkpt>
      <trkpt lat="48.18708" lon="7.31034">
        <ele>292.3781738</ele>
        <time>2012-02-11T14:36:45Z</time>
      </trkpt>
      <trkpt lat="48.18691" lon="7.31028">
        <ele>292.3781738</ele>
        <time>2012-02-11T14:36:56Z</time>
      </trkpt>
      <trkpt lat="48.18683" lon="7.31024">
        <ele>292.3781738</ele>
        <time>2012-02-11T14:37:13Z</time>
      </trkpt>
      <trkpt lat="48.1868" lon="7.31025">
        <ele>292.8587646</ele>
        <time>2012-02-11T14:37:16Z</time>
      </trkpt>
      <trkpt lat="48.18655" lon="7.31015">
        <ele>292.8587646</ele>
        <time>2012-02-11T14:37:19Z</time>
      </trkpt>
      <trkpt lat="48.18646" lon="7.3102">
        <ele>290.9361572</ele>
        <time>2012-02-11T14:37:37Z</time>
      </trkpt>
      <trkpt lat="48.18649" lon="7.31017">
        <ele>292.8587646</ele>
        <time>2012-02-11T14:37:56Z</time>
      </trkpt>
      <trkpt lat="48.18653" lon="7.31015">
        <ele>292.3781738</ele>
        <time>2012-02-11T14:38:11Z</time>
      </trkpt>
      <trkpt lat="48.18662" lon="7.31009">
        <ele>292.8587646</ele>
        <time>2012-02-11T14:38:32Z</time>
      </trkpt>
      <trkpt lat="48.18659" lon="7.31016">
        <ele>292.8587646</ele>
        <time>2012-02-11T14:38:51Z</time>
      </trkpt>
      <trkpt lat="48.18647" lon="7.31015">
        <ele>293.3393555</ele>
        <time>2012-02-11T14:39:07Z</time>
      </trkpt>
      <trkpt lat="48.18646" lon="7.31016">
        <ele>293.3393555</ele>
        <time>2012-02-11T14:39:28Z</time>
      </trkpt>
      <trkpt lat="48.18633" lon="7.31015">
        <ele>294.3007813</ele>
        <time>2012-02-11T14:39:47Z</time>
      </trkpt>
      <trkpt lat="48.1862" lon="7.31013">
        <ele>294.3007813</ele>
        <time>2012-02-11T14:40:04Z</time>
      </trkpt>
      <trkpt lat="48.18597" lon="7.31008">
        <ele>295.2619629</ele>
        <time>2012-02-11T14:40:22Z</time>
      </trkpt>
      <trkpt lat="48.18579" lon="7.31004">
        <ele>296.2235107</ele>
        <time>2012-02-11T14:40:40Z</time>
      </trkpt>
      <trkpt lat="48.18564" lon="7.31003">
        <ele>296.2235107</ele>
        <time>2012-02-11T14:40:56Z</time>
      </trkpt>
      <trkpt lat="48.18545" lon="7.30998">
        <ele>297.1846924</ele>
        <time>2012-02-11T14:41:11Z</time>
      </trkpt>
      <trkpt lat="48.18541" lon="7.30998">
        <ele>297.1846924</ele>
        <time>2012-02-11T14:41:50Z</time>
      </trkpt>
      <trkpt lat="48.18538" lon="7.30996">
        <ele>298.1461182</ele>
        <time>2012-02-11T14:42:46Z</time>
      </trkpt>
      <trkpt lat="48.1852" lon="7.30994">
        <ele>298.626709</ele>
        <time>2012-02-11T14:43:29Z</time>
      </trkpt>
      <trkpt lat="48.18499" lon="7.30987">
        <ele>297.1846924</ele>
        <time>2012-02-11T14:43:52Z</time>
      </trkpt>
      <trkpt lat="48.18484" lon="7.30981">
        <ele>296.7041016</ele>
        <time>2012-02-11T14:44:08Z</time>
      </trkpt>
      <trkpt lat="48.18458" lon="7.30961">
        <ele>294.7813721</ele>
        <time>2012-02-11T14:44:27Z</time>
      </trkpt>
      <trkpt lat="48.18437" lon="7.30947">
        <ele>293.3393555</ele>
        <time>2012-02-11T14:44:44Z</time>
      </trkpt>
      <trkpt lat="48.18422" lon="7.3094">
        <ele>292.8587646</ele>
        <time>2012-02-11T14:45:01Z</time>
      </trkpt>
      <trkpt lat="48.18398" lon="7.30926">
        <ele>291.416748</ele>
        <time>2012-02-11T14:45:19Z</time>
      </trkpt>
      <trkpt lat="48.18382" lon="7.30913">
        <ele>290.9361572</ele>
        <time>2012-02-11T14:45:38Z</time>
      </trkpt>
      <trkpt lat="48.18364" lon="7.30906">
        <ele>291.416748</ele>
        <time>2012-02-11T14:46:03Z</time>
      </trkpt>
      <trkpt lat="48.18342" lon="7.30895">
        <ele>290.4555664</ele>
        <time>2012-02-11T14:46:33Z</time>
      </trkpt>
      <trkpt lat="48.18322" lon="7.30883">
        <ele>289.9748535</ele>
        <time>2012-02-11T14:46:53Z</time>
      </trkpt>
      <trkpt lat="48.18304" lon="7.30874">
        <ele>289.9748535</ele>
        <time>2012-02-11T14:47:19Z</time>
      </trkpt>
      <trkpt lat="48.1829" lon="7.30878">
        <ele>289.9748535</ele>
        <time>2012-02-11T14:47:45Z</time>
      </trkpt>
      <trkpt lat="48.1829" lon="7.30875">
        <ele>288.532959</ele>
        <time>2012-02-11T14:48:07Z</time>
      </trkpt>
      <trkpt lat="48.18291" lon="7.30875">
        <ele>289.0135498</ele>
        <time>2012-02-11T14:48:22Z</time>
      </trkpt>
      <trkpt lat="48.18286" lon="7.30873">
        <ele>287.5714111</ele>
        <time>2012-02-11T14:48:46Z</time>
      </trkpt>
      <trkpt lat="48.18256" lon="7.30869">
        <ele>285.6488037</ele>
        <time>2012-02-11T14:49:00Z</time>
      </trkpt>
      <trkpt lat="48.18235" lon="7.30867">
        <ele>283.7261963</ele>
        <time>2012-02-11T14:49:25Z</time>
      </trkpt>
      <trkpt lat="48.18211" lon="7.30864">
        <ele>281.322998</ele>
        <time>2012-02-11T14:49:56Z</time>
      </trkpt>
      <trkpt lat="48.18192" lon="7.30865">
        <ele>280.8424072</ele>
        <time>2012-02-11T14:49:58Z</time>
      </trkpt>
      <trkpt lat="48.18172" lon="7.30861">
        <ele>279.8808594</ele>
        <time>2012-02-11T14:50:16Z</time>
      </trkpt>
      <trkpt lat="48.18152" lon="7.3086">
        <ele>279.4002686</ele>
        <time>2012-02-11T14:50:31Z</time>
      </trkpt>
      <trkpt lat="48.1813" lon="7.30859">
        <ele>277.958252</ele>
        <time>2012-02-11T14:50:55Z</time>
      </trkpt>
      <trkpt lat="48.18103" lon="7.30852">
        <ele>276.5163574</ele>
        <time>2012-02-11T14:50:57Z</time>
      </trkpt>
      <trkpt lat="48.1807" lon="7.30844">
        <ele>276.0356445</ele>
        <time>2012-02-11T14:51:19Z</time>
      </trkpt>
      <trkpt lat="48.18048" lon="7.3084">
        <ele>275.5550537</ele>
        <time>2012-02-11T14:51:24Z</time>
      </trkpt>
      <trkpt lat="48.18021" lon="7.30839">
        <ele>274.1130371</ele>
        <time>2012-02-11T14:51:42Z</time>
      </trkpt>
      <trkpt lat="48.18001" lon="7.30829">
        <ele>273.6324463</ele>
        <time>2012-02-11T14:51:58Z</time>
      </trkpt>
      <trkpt lat="48.17999" lon="7.30865">
        <ele>270.7484131</ele>
        <time>2012-02-11T14:52:14Z</time>
      </trkpt>
      <trkpt lat="48.18002" lon="7.30887">
        <ele>269.3065186</ele>
        <time>2012-02-11T14:52:17Z</time>
      </trkpt>
      <trkpt lat="48.18002" lon="7.30929">
        <ele>267.3839111</ele>
        <time>2012-02-11T14:52:35Z</time>
      </trkpt>
      <trkpt lat="48.18001" lon="7.30957">
        <ele>266.4224854</ele>
        <time>2012-02-11T14:53:00Z</time>
      </trkpt>
      <trkpt lat="48.18008" lon="7.30996">
        <ele>264.9805908</ele>
        <time>2012-02-11T14:53:41Z</time>
      </trkpt>
      <trkpt lat="48.17992" lon="7.31012">
        <ele>266.4224854</ele>
        <time>2012-02-11T14:54:09Z</time>
      </trkpt>
      <trkpt lat="48.17984" lon="7.31008">
        <ele>266.4224854</ele>
        <time>2012-02-11T14:54:42Z</time>
      </trkpt>
      <trkpt lat="48.17964" lon="7.31008">
        <ele>267.3839111</ele>
        <time>2012-02-11T14:54:58Z</time>
      </trkpt>
      <trkpt lat="48.17962" lon="7.30982">
        <ele>268.8258057</ele>
        <time>2012-02-11T14:55:01Z</time>
      </trkpt>
      <trkpt lat="48.17942" lon="7.30951">
        <ele>271.229126</ele>
        <time>2012-02-11T14:55:07Z</time>
      </trkpt>
      <trkpt lat="48.17943" lon="7.30948">
        <ele>271.229126</ele>
        <time>2012-02-11T14:55:26Z</time>
      </trkpt>
      <trkpt lat="48.17937" lon="7.30924">
        <ele>270.7484131</ele>
        <time>2012-02-11T14:55:51Z</time>
      </trkpt>
      <trkpt lat="48.17931" lon="7.30929">
        <ele>270.2677002</ele>
        <time>2012-02-11T14:56:16Z</time>
      </trkpt>
      <trkpt lat="48.1791" lon="7.3095">
        <ele>268.8258057</ele>
        <time>2012-02-11T14:56:48Z</time>
      </trkpt>
      <trkpt lat="48.17903" lon="7.30957">
        <ele>271.7097168</ele>
        <time>2012-02-11T14:57:24Z</time>
      </trkpt>
      <trkpt lat="48.17903" lon="7.30981">
        <ele>274.59375</ele>
        <time>2012-02-11T14:57:31Z</time>
      </trkpt>
      <trkpt lat="48.179" lon="7.30988">
        <ele>274.59375</ele>
        <time>2012-02-11T14:57:39Z</time>
      </trkpt>
      <trkpt lat="48.17895" lon="7.31024">
        <ele>276.9970703</ele>
        <time>2012-02-11T14:57:51Z</time>
      </trkpt>
      <trkpt lat="48.17895" lon="7.31038">
        <ele>278.4389648</ele>
        <time>2012-02-11T14:58:10Z</time>
      </trkpt>
      <trkpt lat="48.17897" lon="7.31035">
        <ele>277.958252</ele>
        <time>2012-02-11T14:58:25Z</time>
      </trkpt>
      <trkpt lat="48.17901" lon="7.31033">
        <ele>278.9196777</ele>
        <time>2012-02-11T14:58:41Z</time>
      </trkpt>
      <trkpt lat="48.17895" lon="7.31049">
        <ele>278.4389648</ele>
        <time>2012-02-11T14:58:58Z</time>
      </trkpt>
      <trkpt lat="48.17885" lon="7.31081">
        <ele>276.5163574</ele>
        <time>2012-02-11T14:59:00Z</time>
      </trkpt>
      <trkpt lat="48.17885" lon="7.31086">
        <ele>276.5163574</ele>
        <time>2012-02-11T14:59:19Z</time>
      </trkpt>
      <trkpt lat="48.17882" lon="7.31095">
        <ele>276.0356445</ele>
        <time>2012-02-11T15:00:07Z</time>
      </trkpt>
      <trkpt lat="48.17862" lon="7.31106">
        <ele>274.59375</ele>
        <time>2012-02-11T15:00:31Z</time>
      </trkpt>
      <trkpt lat="48.17835" lon="7.31111">
        <ele>273.6324463</ele>
        <time>2012-02-11T15:00:50Z</time>
      </trkpt>
      <trkpt lat="48.17808" lon="7.31097">
        <ele>274.59375</ele>
        <time>2012-02-11T15:00:54Z</time>
      </trkpt>
      <trkpt lat="48.17807" lon="7.31098">
        <ele>274.59375</ele>
        <time>2012-02-11T15:01:14Z</time>
      </trkpt>
      <trkpt lat="48.17807" lon="7.31094">
        <ele>274.1130371</ele>
        <time>2012-02-11T15:01:44Z</time>
      </trkpt>
      <trkpt lat="48.17806" lon="7.31093">
        <ele>274.59375</ele>
        <time>2012-02-11T15:02:13Z</time>
      </trkpt>
      <trkpt lat="48.17804" lon="7.31081">
        <ele>276.0356445</ele>
        <time>2012-02-11T15:02:15Z</time>
      </trkpt>
      <trkpt lat="48.17806" lon="7.31067">
        <ele>278.9196777</ele>
        <time>2012-02-11T15:02:37Z</time>
      </trkpt>
      <trkpt lat="48.17797" lon="7.31046">
        <ele>280.3616943</ele>
        <time>2012-02-11T15:02:56Z</time>
      </trkpt>
      <trkpt lat="48.17793" lon="7.31031">
        <ele>283.7261963</ele>
        <time>2012-02-11T15:03:08Z</time>
      </trkpt>
      <trkpt lat="48.17791" lon="7.31013">
        <ele>284.6876221</ele>
        <time>2012-02-11T15:03:11Z</time>
      </trkpt>
      <trkpt lat="48.17788" lon="7.31011">
        <ele>285.6488037</ele>
        <time>2012-02-11T15:03:22Z</time>
      </trkpt>
      <trkpt lat="48.17786" lon="7.31013">
        <ele>284.2069092</ele>
        <time>2012-02-11T15:03:38Z</time>
      </trkpt>
      <trkpt lat="48.17778" lon="7.31018">
        <ele>282.2843018</ele>
        <time>2012-02-11T15:03:55Z</time>
      </trkpt>
      <trkpt lat="48.17775" lon="7.31018">
        <ele>282.2843018</ele>
        <time>2012-02-11T15:04:09Z</time>
      </trkpt>
      <trkpt lat="48.1777" lon="7.31022">
        <ele>282.2843018</ele>
        <time>2012-02-11T15:04:30Z</time>
      </trkpt>
      <trkpt lat="48.17756" lon="7.31032">
        <ele>280.3616943</ele>
        <time>2012-02-11T15:04:32Z</time>
      </trkpt>
      <trkpt lat="48.1776" lon="7.31031">
        <ele>280.3616943</ele>
        <time>2012-02-11T15:04:35Z</time>
      </trkpt>
      <trkpt lat="48.17765" lon="7.31023">
        <ele>280.8424072</ele>
        <time>2012-02-11T15:04:49Z</time>
      </trkpt>
      <trkpt lat="48.17744" lon="7.31041">
        <ele>280.8424072</ele>
        <time>2012-02-11T15:05:05Z</time>
      </trkpt>
      <trkpt lat="48.17731" lon="7.3103">
        <ele>282.7650146</ele>
        <time>2012-02-11T15:05:22Z</time>
      </trkpt>
      <trkpt lat="48.17731" lon="7.31024">
        <ele>283.2456055</ele>
        <time>2012-02-11T15:05:36Z</time>
      </trkpt>
      <trkpt lat="48.1773" lon="7.3101">
        <ele>284.2069092</ele>
        <time>2012-02-11T15:05:39Z</time>
      </trkpt>
      <trkpt lat="48.17728" lon="7.31">
        <ele>286.6102295</ele>
        <time>2012-02-11T15:05:42Z</time>
      </trkpt>
      <trkpt lat="48.17721" lon="7.30985">
        <ele>289.0135498</ele>
        <time>2012-02-11T15:05:46Z</time>
      </trkpt>
      <trkpt lat="48.17719" lon="7.30982">
        <ele>288.532959</ele>
        <time>2012-02-11T15:06:07Z</time>
      </trkpt>
      <trkpt lat="48.17716" lon="7.30969">
        <ele>290.9361572</ele>
        <time>2012-02-11T15:06:16Z</time>
      </trkpt>
      <trkpt lat="48.1771" lon="7.3095">
        <ele>293.8200684</ele>
        <time>2012-02-11T15:06:34Z</time>
      </trkpt>
      <trkpt lat="48.17705" lon="7.30927">
        <ele>296.7041016</ele>
        <time>2012-02-11T15:06:42Z</time>
      </trkpt>
      <trkpt lat="48.17701" lon="7.30909">
        <ele>298.1461182</ele>
        <time>2012-02-11T15:06:58Z</time>
      </trkpt>
      <trkpt lat="48.17695" lon="7.30881">
        <ele>300.0687256</ele>
        <time>2012-02-11T15:07:16Z</time>
      </trkpt>
      <trkpt lat="48.17695" lon="7.30878">
        <ele>300.5493164</ele>
        <time>2012-02-11T15:07:18Z</time>
      </trkpt>
      <trkpt lat="48.17695" lon="7.30874">
        <ele>301.5106201</ele>
        <time>2012-02-11T15:07:22Z</time>
      </trkpt>
      <trkpt lat="48.17692" lon="7.30867">
        <ele>301.5106201</ele>
        <time>2012-02-11T15:07:39Z</time>
      </trkpt>
      <trkpt lat="48.17695" lon="7.30862">
        <ele>301.0299072</ele>
        <time>2012-02-11T15:07:55Z</time>
      </trkpt>
      <trkpt lat="48.17699" lon="7.30854">
        <ele>301.5106201</ele>
        <time>2012-02-11T15:08:13Z</time>
      </trkpt>
      <trkpt lat="48.177" lon="7.30852">
        <ele>301.991333</ele>
        <time>2012-02-11T15:08:34Z</time>
      </trkpt>
      <trkpt lat="48.17699" lon="7.30848">
        <ele>301.991333</ele>
        <time>2012-02-11T15:08:47Z</time>
      </trkpt>
      <trkpt lat="48.17698" lon="7.30844">
        <ele>301.991333</ele>
        <time>2012-02-11T15:09:00Z</time>
      </trkpt>
      <trkpt lat="48.17698" lon="7.30838">
        <ele>302.4719238</ele>
        <time>2012-02-11T15:09:02Z</time>
      </trkpt>
      <trkpt lat="48.1769" lon="7.30807">
        <ele>304.3946533</ele>
        <time>2012-02-11T15:09:05Z</time>
      </trkpt>
      <trkpt lat="48.17689" lon="7.30791">
        <ele>304.8752441</ele>
        <time>2012-02-11T15:09:15Z</time>
      </trkpt>
      <trkpt lat="48.17681" lon="7.30767">
        <ele>306.3172607</ele>
        <time>2012-02-11T15:09:23Z</time>
      </trkpt>
      <trkpt lat="48.17677" lon="7.30755">
        <ele>306.3172607</ele>
        <time>2012-02-11T15:09:39Z</time>
      </trkpt>
      <trkpt lat="48.17669" lon="7.30739">
        <ele>306.7978516</ele>
        <time>2012-02-11T15:09:57Z</time>
      </trkpt>
      <trkpt lat="48.17663" lon="7.30721">
        <ele>307.2785645</ele>
        <time>2012-02-11T15:10:11Z</time>
      </trkpt>
      <trkpt lat="48.17662" lon="7.30718">
        <ele>306.7978516</ele>
        <time>2012-02-11T15:10:25Z</time>
      </trkpt>
      <trkpt lat="48.1766" lon="7.30711">
        <ele>307.2785645</ele>
        <time>2012-02-11T15:10:48Z</time>
      </trkpt>
      <trkpt lat="48.17652" lon="7.30682">
        <ele>306.7978516</ele>
        <time>2012-02-11T15:11:07Z</time>
      </trkpt>
      <trkpt lat="48.17646" lon="7.30665">
        <ele>306.3172607</ele>
        <time>2012-02-11T15:11:12Z</time>
      </trkpt>
      <trkpt lat="48.17642" lon="7.30647">
        <ele>306.7978516</ele>
        <time>2012-02-11T15:11:32Z</time>
      </trkpt>
      <trkpt lat="48.17631" lon="7.30612">
        <ele>306.7978516</ele>
        <time>2012-02-11T15:11:50Z</time>
      </trkpt>
      <trkpt lat="48.17624" lon="7.3059">
        <ele>306.7978516</ele>
        <time>2012-02-11T15:12:13Z</time>
      </trkpt>
      <trkpt lat="48.17619" lon="7.30574">
        <ele>306.7978516</ele>
        <time>2012-02-11T15:12:30Z</time>
      </trkpt>
      <trkpt lat="48.17618" lon="7.30571">
        <ele>306.7978516</ele>
        <time>2012-02-11T15:12:47Z</time>
      </trkpt>
      <trkpt lat="48.17616" lon="7.30566">
        <ele>307.2785645</ele>
        <time>2012-02-11T15:13:07Z</time>
      </trkpt>
      <trkpt lat="48.17608" lon="7.30553">
        <ele>307.7592773</ele>
        <time>2012-02-11T15:13:25Z</time>
      </trkpt>
      <trkpt lat="48.17607" lon="7.3054">
        <ele>308.720459</ele>
        <time>2012-02-11T15:13:28Z</time>
      </trkpt>
      <trkpt lat="48.17603" lon="7.30517">
        <ele>308.720459</ele>
        <time>2012-02-11T15:13:31Z</time>
      </trkpt>
      <trkpt lat="48.176" lon="7.30486">
        <ele>310.6430664</ele>
        <time>2012-02-11T15:13:35Z</time>
      </trkpt>
      <trkpt lat="48.17599" lon="7.30464">
        <ele>311.1237793</ele>
        <time>2012-02-11T15:13:58Z</time>
      </trkpt>
      <trkpt lat="48.17597" lon="7.30446">
        <ele>311.1237793</ele>
        <time>2012-02-11T15:14:04Z</time>
      </trkpt>
      <trkpt lat="48.17597" lon="7.30438">
        <ele>311.1237793</ele>
        <time>2012-02-11T15:14:13Z</time>
      </trkpt>
      <trkpt lat="48.17594" lon="7.30405">
        <ele>311.1237793</ele>
        <time>2012-02-11T15:14:15Z</time>
      </trkpt>
      <trkpt lat="48.17591" lon="7.30398">
        <ele>311.6044922</ele>
        <time>2012-02-11T15:14:29Z</time>
      </trkpt>
      <trkpt lat="48.17582" lon="7.30365">
        <ele>312.5657959</ele>
        <time>2012-02-11T15:14:35Z</time>
      </trkpt>
      <trkpt lat="48.17569" lon="7.30341">
        <ele>314.0078125</ele>
        <time>2012-02-11T15:14:52Z</time>
      </trkpt>
      <trkpt lat="48.17561" lon="7.30303">
        <ele>315.9304199</ele>
        <time>2012-02-11T15:15:09Z</time>
      </trkpt>
      <trkpt lat="48.17558" lon="7.30283">
        <ele>316.8917236</ele>
        <time>2012-02-11T15:15:31Z</time>
      </trkpt>
      <trkpt lat="48.1755" lon="7.30259">
        <ele>320.2563477</ele>
        <time>2012-02-11T15:15:46Z</time>
      </trkpt>
      <trkpt lat="48.17537" lon="7.30231">
        <ele>323.1403809</ele>
        <time>2012-02-11T15:16:05Z</time>
      </trkpt>
      <trkpt lat="48.17524" lon="7.30216">
        <ele>324.5822754</ele>
        <time>2012-02-11T15:16:18Z</time>
      </trkpt>
      <trkpt lat="48.17524" lon="7.30211">
        <ele>325.0629883</ele>
        <time>2012-02-11T15:16:35Z</time>
      </trkpt>
      <trkpt lat="48.17524" lon="7.30206">
        <ele>326.0241699</ele>
        <time>2012-02-11T15:16:36Z</time>
      </trkpt>
      <trkpt lat="48.17527" lon="7.30201">
        <ele>326.0241699</ele>
        <time>2012-02-11T15:16:54Z</time>
      </trkpt>
      <trkpt lat="48.17538" lon="7.30168">
        <ele>326.9855957</ele>
        <time>2012-02-11T15:16:59Z</time>
      </trkpt>
      <trkpt lat="48.17541" lon="7.30158">
        <ele>326.5048828</ele>
        <time>2012-02-11T15:17:18Z</time>
      </trkpt>
      <trkpt lat="48.17543" lon="7.30147">
        <ele>328.9083252</ele>
        <time>2012-02-11T15:17:38Z</time>
      </trkpt>
      <trkpt lat="48.17544" lon="7.30144">
        <ele>327.4661865</ele>
        <time>2012-02-11T15:17:53Z</time>
      </trkpt>
      <trkpt lat="48.1755" lon="7.30126">
        <ele>329.8695068</ele>
        <time>2012-02-11T15:18:17Z</time>
      </trkpt>
      <trkpt lat="48.1755" lon="7.30124">
        <ele>330.3502197</ele>
        <time>2012-02-11T15:18:38Z</time>
      </trkpt>
      <trkpt lat="48.17559" lon="7.30095">
        <ele>332.75354</ele>
        <time>2012-02-11T15:18:54Z</time>
      </trkpt>
      <trkpt lat="48.17566" lon="7.30076">
        <ele>334.6761475</ele>
        <time>2012-02-11T15:19:12Z</time>
      </trkpt>
      <trkpt lat="48.17571" lon="7.30052">
        <ele>337.0794678</ele>
        <time>2012-02-11T15:19:30Z</time>
      </trkpt>
      <trkpt lat="48.17576" lon="7.30041">
        <ele>337.0794678</ele>
        <time>2012-02-11T15:19:51Z</time>
      </trkpt>
      <trkpt lat="48.17569" lon="7.30034">
        <ele>339.0020752</ele>
        <time>2012-02-11T15:20:07Z</time>
      </trkpt>
      <trkpt lat="48.17557" lon="7.30025">
        <ele>339.9633789</ele>
        <time>2012-02-11T15:20:25Z</time>
      </trkpt>
      <trkpt lat="48.17543" lon="7.30004">
        <ele>341.8859863</ele>
        <time>2012-02-11T15:20:43Z</time>
      </trkpt>
      <trkpt lat="48.17543" lon="7.30004">
        <ele>342.84729</ele>
        <time>2012-02-11T15:20:57Z</time>
      </trkpt>
      <trkpt lat="48.17532" lon="7.29981">
        <ele>345.7313232</ele>
        <time>2012-02-11T15:21:13Z</time>
      </trkpt>
      <trkpt lat="48.17529" lon="7.29974">
        <ele>346.692627</ele>
        <time>2012-02-11T15:21:26Z</time>
      </trkpt>
      <trkpt lat="48.17519" lon="7.29951">
        <ele>349.0958252</ele>
        <time>2012-02-11T15:21:45Z</time>
      </trkpt>
      <trkpt lat="48.17508" lon="7.29928">
        <ele>351.4991455</ele>
        <time>2012-02-11T15:22:00Z</time>
      </trkpt>
      <trkpt lat="48.17501" lon="7.2991">
        <ele>353.9025879</ele>
        <time>2012-02-11T15:22:24Z</time>
      </trkpt>
      <trkpt lat="48.17488" lon="7.29889">
        <ele>356.786377</ele>
        <time>2012-02-11T15:22:46Z</time>
      </trkpt>
      <trkpt lat="48.17476" lon="7.29866">
        <ele>359.6704102</ele>
        <time>2012-02-11T15:23:08Z</time>
      </trkpt>
      <trkpt lat="48.17471" lon="7.29856">
        <ele>360.6317139</ele>
        <time>2012-02-11T15:23:27Z</time>
      </trkpt>
      <trkpt lat="48.1746" lon="7.29839">
        <ele>363.5157471</ele>
        <time>2012-02-11T15:23:29Z</time>
      </trkpt>
      <trkpt lat="48.17445" lon="7.29822">
        <ele>365.4383545</ele>
        <time>2012-02-11T15:23:53Z</time>
      </trkpt>
      <trkpt lat="48.1743" lon="7.29804">
        <ele>367.8415527</ele>
        <time>2012-02-11T15:24:19Z</time>
      </trkpt>
      <trkpt lat="48.17419" lon="7.29791">
        <ele>370.244873</ele>
        <time>2012-02-11T15:24:38Z</time>
      </trkpt>
      <trkpt lat="48.17406" lon="7.29772">
        <ele>372.1674805</ele>
        <time>2012-02-11T15:24:53Z</time>
      </trkpt>
      <trkpt lat="48.17395" lon="7.29757">
        <ele>374.0900879</ele>
        <time>2012-02-11T15:25:12Z</time>
      </trkpt>
      <trkpt lat="48.17387" lon="7.29742">
        <ele>376.0128174</ele>
        <time>2012-02-11T15:25:14Z</time>
      </trkpt>
      <trkpt lat="48.1738" lon="7.29735">
        <ele>376.0128174</ele>
        <time>2012-02-11T15:25:17Z</time>
      </trkpt>
      <trkpt lat="48.17372" lon="7.29725">
        <ele>376.9742432</ele>
        <time>2012-02-11T15:25:22Z</time>
      </trkpt>
      <trkpt lat="48.1736" lon="7.29706">
        <ele>378.4161377</ele>
        <time>2012-02-11T15:25:27Z</time>
      </trkpt>
      <trkpt lat="48.17351" lon="7.29683">
        <ele>378.8968506</ele>
        <time>2012-02-11T15:25:31Z</time>
      </trkpt>
      <trkpt lat="48.17333" lon="7.29653">
        <ele>378.8968506</ele>
        <time>2012-02-11T15:25:40Z</time>
      </trkpt>
      <trkpt lat="48.17317" lon="7.29625">
        <ele>376.9742432</ele>
        <time>2012-02-11T15:26:02Z</time>
      </trkpt>
      <trkpt lat="48.173" lon="7.29597">
        <ele>375.5321045</ele>
        <time>2012-02-11T15:26:15Z</time>
      </trkpt>
      <trkpt lat="48.17286" lon="7.29577">
        <ele>372.1674805</ele>
        <time>2012-02-11T15:29:07Z</time>
      </trkpt>
      <trkpt lat="48.17283" lon="7.29575">
        <ele>371.2062988</ele>
        <time>2012-02-11T15:29:16Z</time>
      </trkpt>
      <trkpt lat="48.17265" lon="7.29549">
        <ele>369.2836914</ele>
        <time>2012-02-11T15:29:18Z</time>
      </trkpt>
      <trkpt lat="48.17241" lon="7.2952">
        <ele>367.3609619</ele>
        <time>2012-02-11T15:29:33Z</time>
      </trkpt>
      <trkpt lat="48.17225" lon="7.295">
        <ele>364.4769287</ele>
        <time>2012-02-11T15:29:55Z</time>
      </trkpt>
      <trkpt lat="48.17212" lon="7.29489">
        <ele>362.0737305</ele>
        <time>2012-02-11T15:29:56Z</time>
      </trkpt>
      <trkpt lat="48.17191" lon="7.29482">
        <ele>359.6704102</ele>
        <time>2012-02-11T15:30:13Z</time>
      </trkpt>
      <trkpt lat="48.1719" lon="7.2948">
        <ele>360.151123</ele>
        <time>2012-02-11T15:30:21Z</time>
      </trkpt>
      <trkpt lat="48.17186" lon="7.29478">
        <ele>360.151123</ele>
        <time>2012-02-11T15:30:26Z</time>
      </trkpt>
      <trkpt lat="48.17181" lon="7.29474">
        <ele>359.1896973</ele>
        <time>2012-02-11T15:30:45Z</time>
      </trkpt>
      <trkpt lat="48.17176" lon="7.29473">
        <ele>358.2283936</ele>
        <time>2012-02-11T15:30:55Z</time>
      </trkpt>
      <trkpt lat="48.17173" lon="7.29471">
        <ele>357.7478027</ele>
        <time>2012-02-11T15:31:07Z</time>
      </trkpt>
      <trkpt lat="48.17164" lon="7.29466">
        <ele>357.2670898</ele>
        <time>2012-02-11T15:31:10Z</time>
      </trkpt>
      <trkpt lat="48.17141" lon="7.29457">
        <ele>355.3444824</ele>
        <time>2012-02-11T15:31:25Z</time>
      </trkpt>
      <trkpt lat="48.17127" lon="7.29454">
        <ele>354.3831787</ele>
        <time>2012-02-11T15:31:40Z</time>
      </trkpt>
      <trkpt lat="48.17107" lon="7.29449">
        <ele>353.9025879</ele>
        <time>2012-02-11T15:31:57Z</time>
      </trkpt>
      <trkpt lat="48.17101" lon="7.29453">
        <ele>353.9025879</ele>
        <time>2012-02-11T15:32:02Z</time>
      </trkpt>
      <trkpt lat="48.17099" lon="7.29454">
        <ele>352.4605713</ele>
        <time>2012-02-11T15:32:25Z</time>
      </trkpt>
      <trkpt lat="48.17081" lon="7.29447">
        <ele>351.4991455</ele>
        <time>2012-02-11T15:33:36Z</time>
      </trkpt>
      <trkpt lat="48.17057" lon="7.2944">
        <ele>348.1346436</ele>
        <time>2012-02-11T15:33:40Z</time>
      </trkpt>
      <trkpt lat="48.17056" lon="7.29441">
        <ele>347.6539307</ele>
        <time>2012-02-11T15:33:54Z</time>
      </trkpt>
      <trkpt lat="48.17037" lon="7.29443">
        <ele>344.2894287</ele>
        <time>2012-02-11T15:34:03Z</time>
      </trkpt>
      <trkpt lat="48.17028" lon="7.29446">
        <ele>342.3666992</ele>
        <time>2012-02-11T15:34:18Z</time>
      </trkpt>
      <trkpt lat="48.17023" lon="7.29448">
        <ele>340.9246826</ele>
        <time>2012-02-11T15:34:33Z</time>
      </trkpt>
      <trkpt lat="48.17004" lon="7.29463">
        <ele>338.0407715</ele>
        <time>2012-02-11T15:34:48Z</time>
      </trkpt>
      <trkpt lat="48.16995" lon="7.29472">
        <ele>335.6373291</ele>
        <time>2012-02-11T15:34:54Z</time>
      </trkpt>
      <trkpt lat="48.16984" lon="7.29484">
        <ele>332.2728271</ele>
        <time>2012-02-11T15:34:58Z</time>
      </trkpt>
      <trkpt lat="48.16982" lon="7.29485">
        <ele>332.2728271</ele>
        <time>2012-02-11T15:35:05Z</time>
      </trkpt>
      <trkpt lat="48.16969" lon="7.29485">
        <ele>329.388916</ele>
        <time>2012-02-11T15:35:18Z</time>
      </trkpt>
      <trkpt lat="48.1696" lon="7.29491">
        <ele>327.4661865</ele>
        <time>2012-02-11T15:35:29Z</time>
      </trkpt>
      <trkpt lat="48.16947" lon="7.29495">
        <ele>326.5048828</ele>
        <time>2012-02-11T15:35:40Z</time>
      </trkpt>
      <trkpt lat="48.16941" lon="7.29498">
        <ele>325.0629883</ele>
        <time>2012-02-11T15:35:55Z</time>
      </trkpt>
      <trkpt lat="48.16931" lon="7.29505">
        <ele>325.5435791</ele>
        <time>2012-02-11T15:36:01Z</time>
      </trkpt>
      <trkpt lat="48.16935" lon="7.29501">
        <ele>324.1015625</ele>
        <time>2012-02-11T15:36:04Z</time>
      </trkpt>
      <trkpt lat="48.16936" lon="7.29498">
        <ele>322.659668</ele>
        <time>2012-02-11T15:36:07Z</time>
      </trkpt>
      <trkpt lat="48.1692" lon="7.29494">
        <ele>319.2950439</ele>
        <time>2012-02-11T15:36:22Z</time>
      </trkpt>
      <trkpt lat="48.1691" lon="7.29494">
        <ele>317.8530273</ele>
        <time>2012-02-11T15:36:29Z</time>
      </trkpt>
      <trkpt lat="48.16894" lon="7.29495">
        <ele>315.4498291</ele>
        <time>2012-02-11T15:36:48Z</time>
      </trkpt>
      <trkpt lat="48.16875" lon="7.29496">
        <ele>312.0852051</ele>
        <time>2012-02-11T15:36:51Z</time>
      </trkpt>
      <trkpt lat="48.16859" lon="7.29497">
        <ele>312.0852051</ele>
        <time>2012-02-11T15:37:00Z</time>
      </trkpt>
      <trkpt lat="48.16853" lon="7.29499">
        <ele>310.1624756</ele>
        <time>2012-02-11T15:37:16Z</time>
      </trkpt>
      <trkpt lat="48.16844" lon="7.29506">
        <ele>311.6044922</ele>
        <time>2012-02-11T15:37:42Z</time>
      </trkpt>
      <trkpt lat="48.16839" lon="7.29506">
        <ele>310.1624756</ele>
        <time>2012-02-11T15:38:02Z</time>
      </trkpt>
      <trkpt lat="48.16824" lon="7.2951">
        <ele>309.6818848</ele>
        <time>2012-02-11T15:38:25Z</time>
      </trkpt>
      <trkpt lat="48.16817" lon="7.29519">
        <ele>306.3172607</ele>
        <time>2012-02-11T15:41:33Z</time>
      </trkpt>
      <trkpt lat="48.16818" lon="7.29527">
        <ele>302.4719238</ele>
        <time>2012-02-11T15:41:47Z</time>
      </trkpt>
      <trkpt lat="48.16807" lon="7.29545">
        <ele>301.991333</ele>
        <time>2012-02-11T15:41:56Z</time>
      </trkpt>
      <trkpt lat="48.16803" lon="7.29557">
        <ele>301.0299072</ele>
        <time>2012-02-11T15:42:10Z</time>
      </trkpt>
      <trkpt lat="48.16802" lon="7.29563">
        <ele>301.0299072</ele>
        <time>2012-02-11T15:42:25Z</time>
      </trkpt>
      <trkpt lat="48.16801" lon="7.29568">
        <ele>299.5880127</ele>
        <time>2012-02-11T15:42:58Z</time>
      </trkpt>
      <trkpt lat="48.16797" lon="7.29593">
        <ele>299.5880127</ele>
        <time>2012-02-11T15:43:30Z</time>
      </trkpt>
      <trkpt lat="48.16796" lon="7.29606">
        <ele>299.1072998</ele>
        <time>2012-02-11T15:44:50Z</time>
      </trkpt>
      <trkpt lat="48.16797" lon="7.29637">
        <ele>297.6654053</ele>
        <time>2012-02-11T15:45:10Z</time>
      </trkpt>
      <trkpt lat="48.16797" lon="7.2964">
        <ele>298.1461182</ele>
        <time>2012-02-11T15:45:22Z</time>
      </trkpt>
      <trkpt lat="48.16797" lon="7.29645">
        <ele>297.6654053</ele>
        <time>2012-02-11T15:45:38Z</time>
      </trkpt>
      <trkpt lat="48.16787" lon="7.29647">
        <ele>300.5493164</ele>
        <time>2012-02-11T15:46:02Z</time>
      </trkpt>
      <trkpt lat="48.16762" lon="7.29641">
        <ele>301.5106201</ele>
        <time>2012-02-11T15:46:08Z</time>
      </trkpt>
      <trkpt lat="48.16746" lon="7.29643">
        <ele>301.0299072</ele>
        <time>2012-02-11T15:46:40Z</time>
      </trkpt>
      <trkpt lat="48.16733" lon="7.29643">
        <ele>301.0299072</ele>
        <time>2012-02-11T15:46:58Z</time>
      </trkpt>
      <trkpt lat="48.1672" lon="7.29639">
        <ele>310.6</ele>
        <time>2012-02-11T15:47:17Z</time>
      </trkpt>
      <trkpt lat="48.16712" lon="7.29689">
        <ele>308</ele>
        <time>2012-02-11T15:47:19Z</time>
      </trkpt>
      <trkpt lat="48.16706" lon="7.29713">
        <ele>307</ele>
        <time>2012-02-11T15:47:38Z</time>
      </trkpt>
      <trkpt lat="48.16705" lon="7.29715">
        <ele>307</ele>
        <time>2012-02-11T15:47:43Z</time>
      </trkpt>
      <trkpt lat="48.16706" lon="7.29717">
        <ele>296.2235107</ele>
        <time>2012-02-11T15:48:01Z</time>
      </trkpt>
      <trkpt lat="48.16703" lon="7.29734">
        <ele>294.7813721</ele>
        <time>2012-02-11T15:48:54Z</time>
      </trkpt>
      <trkpt lat="48.16696" lon="7.29745">
        <ele>293.3393555</ele>
        <time>2012-02-11T15:49:02Z</time>
      </trkpt>
      <trkpt lat="48.16682" lon="7.29762">
        <ele>292.3781738</ele>
        <time>2012-02-11T15:49:09Z</time>
      </trkpt>
      <trkpt lat="48.16692" lon="7.29762">
        <ele>293.3393555</ele>
        <time>2012-02-11T15:49:24Z</time>
      </trkpt>
      <trkpt lat="48.16689" lon="7.29753">
        <ele>293.8200684</ele>
        <time>2012-02-11T15:49:32Z</time>
      </trkpt>
      <trkpt lat="48.16681" lon="7.29768">
        <ele>294.3007813</ele>
        <time>2012-02-11T15:49:33Z</time>
      </trkpt>
      <trkpt lat="48.16679" lon="7.298">
        <ele>291.416748</ele>
        <time>2012-02-11T15:49:48Z</time>
      </trkpt>
      <trkpt lat="48.16676" lon="7.29807">
        <ele>290.4555664</ele>
        <time>2012-02-11T15:50:09Z</time>
      </trkpt>
      <trkpt lat="48.16673" lon="7.29824">
        <ele>289.4941406</ele>
        <time>2012-02-11T15:50:17Z</time>
      </trkpt>
      <trkpt lat="48.16668" lon="7.29844">
        <ele>288.0522461</ele>
        <time>2012-02-11T15:50:37Z</time>
      </trkpt>
      <trkpt lat="48.16663" lon="7.29875">
        <ele>286.6102295</ele>
        <time>2012-02-11T15:50:45Z</time>
      </trkpt>
      <trkpt lat="48.16659" lon="7.29885">
        <ele>285.1682129</ele>
        <time>2012-02-11T15:50:47Z</time>
      </trkpt>
      <trkpt lat="48.16647" lon="7.29924">
        <ele>284.6876221</ele>
        <time>2012-02-11T15:51:06Z</time>
      </trkpt>
      <trkpt lat="48.16641" lon="7.29952">
        <ele>282.7650146</ele>
        <time>2012-02-11T15:51:13Z</time>
      </trkpt>
      <trkpt lat="48.16624" lon="7.2995">
        <ele>282.7650146</ele>
        <time>2012-02-11T15:51:19Z</time>
      </trkpt>
      <trkpt lat="48.16621" lon="7.29949">
        <ele>282.7650146</ele>
        <time>2012-02-11T15:51:22Z</time>
      </trkpt>
      <trkpt lat="48.16613" lon="7.29976">
        <ele>281.8035889</ele>
        <time>2012-02-11T15:51:29Z</time>
      </trkpt>
      <trkpt lat="48.16616" lon="7.29979">
        <ele>281.8035889</ele>
        <time>2012-02-11T15:51:34Z</time>
      </trkpt>
      <trkpt lat="48.16625" lon="7.29978">
        <ele>281.8035889</ele>
        <time>2012-02-11T15:51:50Z</time>
      </trkpt>
      <trkpt lat="48.16621" lon="7.29984">
        <ele>281.322998</ele>
        <time>2012-02-11T15:52:04Z</time>
      </trkpt>
      <trkpt lat="48.16622" lon="7.29998">
        <ele>279.4002686</ele>
        <time>2012-02-11T15:52:14Z</time>
      </trkpt>
      <trkpt lat="48.16618" lon="7.30013">
        <ele>279.4002686</ele>
        <time>2012-02-11T15:52:27Z</time>
      </trkpt>
      <trkpt lat="48.16611" lon="7.30038">
        <ele>278.4389648</ele>
        <time>2012-02-11T15:52:44Z</time>
      </trkpt>
      <trkpt lat="48.16613" lon="7.30055">
        <ele>274.59375</ele>
        <time>2012-02-11T15:52:54Z</time>
      </trkpt>
      <trkpt lat="48.16613" lon="7.30057">
        <ele>277.958252</ele>
        <time>2012-02-11T15:53:08Z</time>
      </trkpt>
      <trkpt lat="48.16606" lon="7.30084">
        <ele>276.5163574</ele>
        <time>2012-02-11T15:53:35Z</time>
      </trkpt>
      <trkpt lat="48.16606" lon="7.30123">
        <ele>274.1130371</ele>
        <time>2012-02-11T15:54:03Z</time>
      </trkpt>
      <trkpt lat="48.16605" lon="7.30138">
        <ele>273.1518555</ele>
        <time>2012-02-11T15:54:23Z</time>
      </trkpt>
      <trkpt lat="48.16603" lon="7.30176">
        <ele>273.1518555</ele>
        <time>2012-02-11T15:54:41Z</time>
      </trkpt>
      <trkpt lat="48.16603" lon="7.30192">
        <ele>272.1904297</ele>
        <time>2012-02-11T15:54:46Z</time>
      </trkpt>
      <trkpt lat="48.16602" lon="7.30195">
        <ele>273.1518555</ele>
        <time>2012-02-11T15:55:01Z</time>
      </trkpt>
      <trkpt lat="48.16607" lon="7.30225">
        <ele>270.7484131</ele>
        <time>2012-02-11T15:55:37Z</time>
      </trkpt>
      <trkpt lat="48.16602" lon="7.30241">
        <ele>272.1904297</ele>
        <time>2012-02-11T15:55:41Z</time>
      </trkpt>
      <trkpt lat="48.166" lon="7.30253">
        <ele>271.7097168</ele>
      </trkpt>
      <trkpt lat="48.16599" lon="7.30258">
        <ele>270.7484131</ele>
      </trkpt>
      <trkpt lat="48.166" lon="7.30271">
        <ele>270.2677002</ele>
      </trkpt>
      <trkpt lat="48.16601" lon="7.30281">
        <ele>270.2677002</ele>
      </trkpt>
      <trkpt lat="48.16598" lon="7.30306">
        <ele>270.2677002</ele>
      </trkpt>
      <trkpt lat="48.16597" lon="7.30334">
        <ele>268.8258057</ele>
      </trkpt>
      <trkpt lat="48.16598" lon="7.30353">
        <ele>268.8258057</ele>
      </trkpt>
      <trkpt lat="48.16592" lon="7.30377">
        <ele>268.3450928</ele>
      </trkpt>
      <trkpt lat="48.166" lon="7.30404">
        <ele>267.3839111</ele>
      </trkpt>
      <trkpt lat="48.16607" lon="7.3042">
        <ele>266.9031982</ele>
      </trkpt>
      <trkpt lat="48.16617" lon="7.30445">
        <ele>264.9805908</ele>
      </trkpt>
      <trkpt lat="48.16627" lon="7.30495">
        <ele>264.4998779</ele>
      </trkpt>
      <trkpt lat="48.16632" lon="7.30545">
        <ele>263.0578613</ele>
      </trkpt>
      <trkpt lat="48.16625" lon="7.30579">
        <ele>263.5385742</ele>
      </trkpt>
      <trkpt lat="48.16616" lon="7.30611">
        <ele>261.6159668</ele>
      </trkpt>
      <trkpt lat="48.16616" lon="7.3062">
        <ele>262.0965576</ele>
      </trkpt>
      <trkpt lat="48.1661" lon="7.30628">
        <ele>263.0578613</ele>
      </trkpt>
      <trkpt lat="48.16606" lon="7.30624">
        <ele>264.4998779</ele>
      </trkpt>
      <trkpt lat="48.16605" lon="7.30625">
        <ele>264.4998779</ele>
      </trkpt>
    </trkseg>
  </trk>
</gpx>